<?xml version="1.0" encoding="UTF-8" standalone="no" ?>
<gpx xmlns="http://www.topografix.com/GPX/1/1" xmlns:xsi="http://www.w3.org/2001/XMLSchema-instance" xsi:schemaLocation="http://www.topografix.com/GPX/1/1 http://www.topografix.com/GPX/1/1/gpx.xsd" version="1.1" creator="VisuGPX - https://www.visugpx.com">
  <metadata>
    <name>Depuis Hendaye BkPk</name>
  </metadata>
  <trk>
    <name><![CDATA[Hendaye à Saint-Palais]]></name>
    <extensions>
      <line xmlns="http://www.topografix.com/GPX/gpx_style/0/2">
        <color>02008a</color>
        <width>4</width>
      </line>
    </extensions>
    <trkseg>
      <trkpt lat="43.35281" lon="-1.7815">
        <ele>23.558623</ele>
        <time>2022-07-19T12:56:01.223Z</time>
      </trkpt>
      <trkpt lat="43.35275" lon="-1.78158">
        <ele>23.558623</ele>
        <time>2022-07-19T12:56:03.287Z</time>
      </trkpt>
      <trkpt lat="43.35254" lon="-1.78188">
        <ele>23.558623</ele>
        <time>2022-07-19T12:56:10.994Z</time>
      </trkpt>
      <trkpt lat="43.35255" lon="-1.78135">
        <ele>23.558623</ele>
        <time>2022-07-19T12:56:21.582Z</time>
      </trkpt>
      <trkpt lat="43.35255" lon="-1.78118">
        <ele>23.558623</ele>
        <time>2022-07-19T12:56:25.242Z</time>
      </trkpt>
      <trkpt lat="43.35269" lon="-1.78062">
        <ele>24.797821</ele>
        <time>2022-07-19T12:56:38.704Z</time>
      </trkpt>
      <trkpt lat="43.35272" lon="-1.78056">
        <ele>24.93161</ele>
        <time>2022-07-19T12:56:40.125Z</time>
      </trkpt>
      <trkpt lat="43.35298" lon="-1.77987">
        <ele>26.552375</ele>
        <time>2022-07-19T12:56:58.218Z</time>
      </trkpt>
      <trkpt lat="43.35314" lon="-1.77938">
        <ele>27.672113</ele>
        <time>2022-07-19T12:57:10.667Z</time>
      </trkpt>
      <trkpt lat="43.35326" lon="-1.77893">
        <ele>28.68069</ele>
        <time>2022-07-19T12:57:21.036Z</time>
      </trkpt>
      <trkpt lat="43.35174" lon="-1.77816">
        <ele>28.543908</ele>
        <time>2022-07-19T12:57:52.355Z</time>
      </trkpt>
      <trkpt lat="43.35168" lon="-1.77797">
        <ele>28.526468</ele>
        <time>2022-07-19T12:57:54.630Z</time>
      </trkpt>
      <trkpt lat="43.35167" lon="-1.77797">
        <ele>28.525246</ele>
        <time>2022-07-19T12:57:54.774Z</time>
      </trkpt>
      <trkpt lat="43.35158" lon="-1.77792">
        <ele>28.175707</ele>
        <time>2022-07-19T12:57:56.060Z</time>
      </trkpt>
      <trkpt lat="43.35143" lon="-1.77784">
        <ele>27.2879</ele>
        <time>2022-07-19T12:57:58.338Z</time>
      </trkpt>
      <trkpt lat="43.35126" lon="-1.77772">
        <ele>26.273394</ele>
        <time>2022-07-19T12:58:00.857Z</time>
      </trkpt>
      <trkpt lat="43.3512" lon="-1.77763">
        <ele>25.823897</ele>
        <time>2022-07-19T12:58:01.940Z</time>
      </trkpt>
      <trkpt lat="43.35117" lon="-1.77758">
        <ele>25.586188</ele>
        <time>2022-07-19T12:58:02.509Z</time>
      </trkpt>
      <trkpt lat="43.35092" lon="-1.77709">
        <ele>23.212871</ele>
        <time>2022-07-19T12:58:08.046Z</time>
      </trkpt>
      <trkpt lat="43.35045" lon="-1.77614">
        <ele>18.692535</ele>
        <time>2022-07-19T12:58:18.009Z</time>
      </trkpt>
      <trkpt lat="43.35016" lon="-1.77557">
        <ele>15.901449</ele>
        <time>2022-07-19T12:58:23.973Z</time>
      </trkpt>
      <trkpt lat="43.34988" lon="-1.77499">
        <ele>13.042439</ele>
        <time>2022-07-19T12:58:30.257Z</time>
      </trkpt>
      <trkpt lat="43.34972" lon="-1.77494">
        <ele>12.10839</ele>
        <time>2022-07-19T12:58:32.334Z</time>
      </trkpt>
      <trkpt lat="43.34965" lon="-1.77494">
        <ele>11.704564</ele>
        <time>2022-07-19T12:58:33.232Z</time>
      </trkpt>
      <trkpt lat="43.34963" lon="-1.77458">
        <ele>10.218535</ele>
        <time>2022-07-19T12:58:36.634Z</time>
      </trkpt>
      <trkpt lat="43.34963" lon="-1.77439">
        <ele>9.447408</ele>
        <time>2022-07-19T12:58:38.415Z</time>
      </trkpt>
      <trkpt lat="43.34966" lon="-1.77378">
        <ele>8.291648</ele>
        <time>2022-07-19T12:58:44.391Z</time>
      </trkpt>
      <trkpt lat="43.34983" lon="-1.77301">
        <ele>7.438803</ele>
        <time>2022-07-19T12:58:52.995Z</time>
      </trkpt>
      <trkpt lat="43.3499" lon="-1.77265">
        <ele>7.044468</ele>
        <time>2022-07-19T12:58:57.604Z</time>
      </trkpt>
      <trkpt lat="43.34987" lon="-1.77242">
        <ele>6.793499</ele>
        <time>2022-07-19T12:59:00.685Z</time>
      </trkpt>
      <trkpt lat="43.34954" lon="-1.77164">
        <ele>6.203757</ele>
        <time>2022-07-19T12:59:12.802Z</time>
      </trkpt>
      <trkpt lat="43.34935" lon="-1.77121">
        <ele>6.322755</ele>
        <time>2022-07-19T12:59:20.189Z</time>
      </trkpt>
      <trkpt lat="43.34912" lon="-1.77035">
        <ele>6.535093</ele>
        <time>2022-07-19T12:59:33.614Z</time>
      </trkpt>
      <trkpt lat="43.34907" lon="-1.77029">
        <ele>6.556144</ele>
        <time>2022-07-19T12:59:34.701Z</time>
      </trkpt>
      <trkpt lat="43.34905" lon="-1.77015">
        <ele>6.588729</ele>
        <time>2022-07-19T12:59:36.603Z</time>
      </trkpt>
      <trkpt lat="43.34915" lon="-1.77005">
        <ele>6.628471</ele>
        <time>2022-07-19T12:59:39.058Z</time>
      </trkpt>
      <trkpt lat="43.3492" lon="-1.76984">
        <ele>6.680614</ele>
        <time>2022-07-19T12:59:41.734Z</time>
      </trkpt>
      <trkpt lat="43.34912" lon="-1.76927">
        <ele>6.917446</ele>
        <time>2022-07-19T12:59:49.673Z</time>
      </trkpt>
      <trkpt lat="43.34899" lon="-1.76886">
        <ele>7.127568</ele>
        <time>2022-07-19T12:59:56.037Z</time>
      </trkpt>
      <trkpt lat="43.34906" lon="-1.76885">
        <ele>7.173177</ele>
        <time>2022-07-19T12:59:57.775Z</time>
      </trkpt>
      <trkpt lat="43.34907" lon="-1.76882">
        <ele>7.188003</ele>
        <time>2022-07-19T12:59:58.329Z</time>
      </trkpt>
      <trkpt lat="43.34903" lon="-1.76866">
        <ele>7.267988</ele>
        <time>2022-07-19T13:00:00.939Z</time>
      </trkpt>
      <trkpt lat="43.34876" lon="-1.7681">
        <ele>7.582839</ele>
        <time>2022-07-19T13:00:11.164Z</time>
      </trkpt>
      <trkpt lat="43.34855" lon="-1.76772">
        <ele>7.804943</ele>
        <time>2022-07-19T13:00:18.867Z</time>
      </trkpt>
      <trkpt lat="43.34836" lon="-1.7674">
        <ele>8.030716</ele>
        <time>2022-07-19T13:00:25.646Z</time>
      </trkpt>
      <trkpt lat="43.3483" lon="-1.76727">
        <ele>8.11866</ele>
        <time>2022-07-19T13:00:27.962Z</time>
      </trkpt>
      <trkpt lat="43.34792" lon="-1.76682">
        <ele>8.523852</ele>
        <time>2022-07-19T13:00:38.548Z</time>
      </trkpt>
      <trkpt lat="43.34737" lon="-1.76646">
        <ele>9.021017</ele>
        <time>2022-07-19T13:00:51.725Z</time>
      </trkpt>
      <trkpt lat="43.34724" lon="-1.76636">
        <ele>9.141408</ele>
        <time>2022-07-19T13:00:54.957Z</time>
      </trkpt>
      <trkpt lat="43.34699" lon="-1.76613">
        <ele>9.264157</ele>
        <time>2022-07-19T13:01:01.146Z</time>
      </trkpt>
      <trkpt lat="43.34645" lon="-1.76552">
        <ele>8.723665</ele>
        <time>2022-07-19T13:01:13.378Z</time>
      </trkpt>
      <trkpt lat="43.3462" lon="-1.7647">
        <ele>8.225114</ele>
        <time>2022-07-19T13:01:23.451Z</time>
      </trkpt>
      <trkpt lat="43.34602" lon="-1.764">
        <ele>7.637711</ele>
        <time>2022-07-19T13:01:31.525Z</time>
      </trkpt>
      <trkpt lat="43.346" lon="-1.76395">
        <ele>7.562374</ele>
        <time>2022-07-19T13:01:32.124Z</time>
      </trkpt>
      <trkpt lat="43.34594" lon="-1.7637">
        <ele>7.206088</ele>
        <time>2022-07-19T13:01:34.939Z</time>
      </trkpt>
      <trkpt lat="43.34586" lon="-1.76341">
        <ele>6.787713</ele>
        <time>2022-07-19T13:01:38.133Z</time>
      </trkpt>
      <trkpt lat="43.34574" lon="-1.76278">
        <ele>5.906639</ele>
        <time>2022-07-19T13:01:44.971Z</time>
      </trkpt>
      <trkpt lat="43.34559" lon="-1.76266">
        <ele>5.579114</ele>
        <time>2022-07-19T13:01:47.476Z</time>
      </trkpt>
      <trkpt lat="43.34549" lon="-1.76251">
        <ele>5.321512</ele>
        <time>2022-07-19T13:01:49.562Z</time>
      </trkpt>
      <trkpt lat="43.34544" lon="-1.76249">
        <ele>5.228232</ele>
        <time>2022-07-19T13:01:50.314Z</time>
      </trkpt>
      <trkpt lat="43.3452" lon="-1.76247">
        <ele>4.767929</ele>
        <time>2022-07-19T13:01:54.198Z</time>
      </trkpt>
      <trkpt lat="43.34483" lon="-1.76235">
        <ele>4.936246</ele>
        <time>2022-07-19T13:02:00.091Z</time>
      </trkpt>
      <trkpt lat="43.34468" lon="-1.76222">
        <ele>5.144524</ele>
        <time>2022-07-19T13:02:03.151Z</time>
      </trkpt>
      <trkpt lat="43.34451" lon="-1.76162">
        <ele>5.693262</ele>
        <time>2022-07-19T13:02:13.901Z</time>
      </trkpt>
      <trkpt lat="43.34449" lon="-1.76153">
        <ele>5.768577</ele>
        <time>2022-07-19T13:02:15.712Z</time>
      </trkpt>
      <trkpt lat="43.34442" lon="-1.76146">
        <ele>5.869379</ele>
        <time>2022-07-19T13:02:18.139Z</time>
      </trkpt>
      <trkpt lat="43.3444" lon="-1.76137">
        <ele>5.946315</ele>
        <time>2022-07-19T13:02:19.796Z</time>
      </trkpt>
      <trkpt lat="43.34444" lon="-1.76125">
        <ele>6.058607</ele>
        <time>2022-07-19T13:02:22.265Z</time>
      </trkpt>
      <trkpt lat="43.34447" lon="-1.76123">
        <ele>6.104762</ele>
        <time>2022-07-19T13:02:23.230Z</time>
      </trkpt>
      <trkpt lat="43.34452" lon="-1.76101">
        <ele>6.295768</ele>
        <time>2022-07-19T13:02:27.635Z</time>
      </trkpt>
      <trkpt lat="43.34446" lon="-1.76045">
        <ele>6.855824</ele>
        <time>2022-07-19T13:02:39.270Z</time>
      </trkpt>
      <trkpt lat="43.34446" lon="-1.76007">
        <ele>7.530595</ele>
        <time>2022-07-19T13:02:47.759Z</time>
      </trkpt>
      <trkpt lat="43.34446" lon="-1.75986">
        <ele>7.914552</ele>
        <time>2022-07-19T13:02:52.533Z</time>
      </trkpt>
      <trkpt lat="43.34448" lon="-1.75949">
        <ele>8.570802</ele>
        <time>2022-07-19T13:03:00.675Z</time>
      </trkpt>
      <trkpt lat="43.34455" lon="-1.75842">
        <ele>10.49329</ele>
        <time>2022-07-19T13:03:22.567Z</time>
      </trkpt>
      <trkpt lat="43.34452" lon="-1.75812">
        <ele>11.031588</ele>
        <time>2022-07-19T13:03:28.460Z</time>
      </trkpt>
      <trkpt lat="43.34439" lon="-1.75763">
        <ele>11.204424</ele>
        <time>2022-07-19T13:03:36.762Z</time>
      </trkpt>
      <trkpt lat="43.34403" lon="-1.75672">
        <ele>11.407335</ele>
        <time>2022-07-19T13:03:49.387Z</time>
      </trkpt>
      <trkpt lat="43.34301" lon="-1.75509">
        <ele>11.614874</ele>
        <time>2022-07-19T13:04:17.838Z</time>
      </trkpt>
      <trkpt lat="43.34292" lon="-1.75496">
        <ele>11.617575</ele>
        <time>2022-07-19T13:04:20.750Z</time>
      </trkpt>
      <trkpt lat="43.34191" lon="-1.7534">
        <ele>11.360832</ele>
        <time>2022-07-19T13:04:47.107Z</time>
      </trkpt>
      <trkpt lat="43.34121" lon="-1.75258">
        <ele>11.007683</ele>
        <time>2022-07-19T13:05:02.194Z</time>
      </trkpt>
      <trkpt lat="43.34101" lon="-1.75241">
        <ele>10.974855</ele>
        <time>2022-07-19T13:05:06.553Z</time>
      </trkpt>
      <trkpt lat="43.34065" lon="-1.75226">
        <ele>11.134115</ele>
        <time>2022-07-19T13:05:13.090Z</time>
      </trkpt>
      <trkpt lat="43.34057" lon="-1.75229">
        <ele>11.169261</ele>
        <time>2022-07-19T13:05:14.442Z</time>
      </trkpt>
      <trkpt lat="43.34048" lon="-1.75222">
        <ele>11.214072</ele>
        <time>2022-07-19T13:05:16.155Z</time>
      </trkpt>
      <trkpt lat="43.34046" lon="-1.75209">
        <ele>11.254485</ele>
        <time>2022-07-19T13:05:18.058Z</time>
      </trkpt>
      <trkpt lat="43.34058" lon="-1.75196">
        <ele>11.319381</ele>
        <time>2022-07-19T13:05:20.733Z</time>
      </trkpt>
      <trkpt lat="43.34082" lon="-1.75142">
        <ele>11.513231</ele>
        <time>2022-07-19T13:05:30.029Z</time>
      </trkpt>
      <trkpt lat="43.34095" lon="-1.75128">
        <ele>11.584602</ele>
        <time>2022-07-19T13:05:34.082Z</time>
      </trkpt>
      <trkpt lat="43.34106" lon="-1.75106">
        <ele>11.665418</ele>
        <time>2022-07-19T13:05:38.599Z</time>
      </trkpt>
      <trkpt lat="43.34125" lon="-1.75059">
        <ele>12.118546</ele>
        <time>2022-07-19T13:05:49.106Z</time>
      </trkpt>
      <trkpt lat="43.34187" lon="-1.74928">
        <ele>13.702408</ele>
        <time>2022-07-19T13:06:17.119Z</time>
      </trkpt>
      <trkpt lat="43.34225" lon="-1.74866">
        <ele>14.592756</ele>
        <time>2022-07-19T13:06:30.405Z</time>
      </trkpt>
      <trkpt lat="43.34235" lon="-1.74838">
        <ele>14.967922</ele>
        <time>2022-07-19T13:06:35.433Z</time>
      </trkpt>
      <trkpt lat="43.34234" lon="-1.74819">
        <ele>15.19122</ele>
        <time>2022-07-19T13:06:38.339Z</time>
      </trkpt>
      <trkpt lat="43.34221" lon="-1.74769">
        <ele>15.848985</ele>
        <time>2022-07-19T13:06:46.595Z</time>
      </trkpt>
      <trkpt lat="43.34223" lon="-1.74732">
        <ele>16.301087</ele>
        <time>2022-07-19T13:06:52.312Z</time>
      </trkpt>
      <trkpt lat="43.34249" lon="-1.74649">
        <ele>17.692086</ele>
        <time>2022-07-19T13:07:12.634Z</time>
      </trkpt>
      <trkpt lat="43.34257" lon="-1.74588">
        <ele>19.736847</ele>
        <time>2022-07-19T13:07:27.858Z</time>
      </trkpt>
      <trkpt lat="43.34254" lon="-1.7458">
        <ele>20.029817</ele>
        <time>2022-07-19T13:07:30.427Z</time>
      </trkpt>
      <trkpt lat="43.34249" lon="-1.7457">
        <ele>20.421387</ele>
        <time>2022-07-19T13:07:34.013Z</time>
      </trkpt>
      <trkpt lat="43.34236" lon="-1.74545">
        <ele>21.424081</ele>
        <time>2022-07-19T13:07:41.924Z</time>
      </trkpt>
      <trkpt lat="43.3422" lon="-1.74523">
        <ele>22.433138</ele>
        <time>2022-07-19T13:07:51.562Z</time>
      </trkpt>
      <trkpt lat="43.34194" lon="-1.7446">
        <ele>24.80012</ele>
        <time>2022-07-19T13:08:11.776Z</time>
      </trkpt>
      <trkpt lat="43.34184" lon="-1.74419">
        <ele>25.872819</ele>
        <time>2022-07-19T13:08:24.119Z</time>
      </trkpt>
      <trkpt lat="43.3418" lon="-1.74315">
        <ele>27.897702</ele>
        <time>2022-07-19T13:08:52.207Z</time>
      </trkpt>
      <trkpt lat="43.34182" lon="-1.74292">
        <ele>28.362464</ele>
        <time>2022-07-19T13:08:56.597Z</time>
      </trkpt>
      <trkpt lat="43.34221" lon="-1.74203">
        <ele>30.271792</ele>
        <time>2022-07-19T13:09:11.420Z</time>
      </trkpt>
      <trkpt lat="43.3424" lon="-1.74194">
        <ele>30.518116</ele>
        <time>2022-07-19T13:09:14.832Z</time>
      </trkpt>
      <trkpt lat="43.34256" lon="-1.74174">
        <ele>30.79151</ele>
        <time>2022-07-19T13:09:18.468Z</time>
      </trkpt>
      <trkpt lat="43.34262" lon="-1.74158">
        <ele>30.945285</ele>
        <time>2022-07-19T13:09:20.607Z</time>
      </trkpt>
      <trkpt lat="43.34262" lon="-1.74098">
        <ele>31.489477</ele>
        <time>2022-07-19T13:09:28.865Z</time>
      </trkpt>
      <trkpt lat="43.34261" lon="-1.74065">
        <ele>31.784374</ele>
        <time>2022-07-19T13:09:34.573Z</time>
      </trkpt>
      <trkpt lat="43.34252" lon="-1.7402">
        <ele>32.208948</ele>
        <time>2022-07-19T13:09:44.678Z</time>
      </trkpt>
      <trkpt lat="43.34256" lon="-1.73973">
        <ele>33.885711</ele>
        <time>2022-07-19T13:09:56.439Z</time>
      </trkpt>
      <trkpt lat="43.34261" lon="-1.73939">
        <ele>35.848441</ele>
        <time>2022-07-19T13:10:06.341Z</time>
      </trkpt>
      <trkpt lat="43.34239" lon="-1.73847">
        <ele>41.341847</ele>
        <time>2022-07-19T13:10:40.144Z</time>
      </trkpt>
      <trkpt lat="43.34218" lon="-1.73638">
        <ele>56.040248</ele>
        <time>2022-07-19T13:12:17.305Z</time>
      </trkpt>
      <trkpt lat="43.3421" lon="-1.73584">
        <ele>60.42238</ele>
        <time>2022-07-19T13:12:44.182Z</time>
      </trkpt>
      <trkpt lat="43.3421" lon="-1.73463">
        <ele>69.427265</ele>
        <time>2022-07-19T13:13:34.836Z</time>
      </trkpt>
      <trkpt lat="43.34208" lon="-1.73432">
        <ele>71.520226</ele>
        <time>2022-07-19T13:13:48.925Z</time>
      </trkpt>
      <trkpt lat="43.34197" lon="-1.73397">
        <ele>74.116202</ele>
        <time>2022-07-19T13:14:03.842Z</time>
      </trkpt>
      <trkpt lat="43.34163" lon="-1.73367">
        <ele>77.835985</ele>
        <time>2022-07-19T13:14:25.742Z</time>
      </trkpt>
      <trkpt lat="43.34148" lon="-1.73336">
        <ele>80.367761</ele>
        <time>2022-07-19T13:14:39.990Z</time>
      </trkpt>
      <trkpt lat="43.34149" lon="-1.73283">
        <ele>83.904203</ele>
        <time>2022-07-19T13:15:02.233Z</time>
      </trkpt>
      <trkpt lat="43.34167" lon="-1.73119">
        <ele>94.252514</ele>
        <time>2022-07-19T13:16:02.287Z</time>
      </trkpt>
      <trkpt lat="43.34184" lon="-1.73021">
        <ele>99.813608</ele>
        <time>2022-07-19T13:16:44.041Z</time>
      </trkpt>
      <trkpt lat="43.34196" lon="-1.72984">
        <ele>101.563205</ele>
        <time>2022-07-19T13:17:02.395Z</time>
      </trkpt>
      <trkpt lat="43.34198" lon="-1.72938">
        <ele>103.518206</ele>
        <time>2022-07-19T13:17:19.511Z</time>
      </trkpt>
      <trkpt lat="43.34192" lon="-1.72905">
        <ele>104.987113</ele>
        <time>2022-07-19T13:17:30.103Z</time>
      </trkpt>
      <trkpt lat="43.34185" lon="-1.72889">
        <ele>105.792069</ele>
        <time>2022-07-19T13:17:35.743Z</time>
      </trkpt>
      <trkpt lat="43.34157" lon="-1.72813">
        <ele>108.366632</ele>
        <time>2022-07-19T13:17:51.109Z</time>
      </trkpt>
      <trkpt lat="43.34152" lon="-1.72798">
        <ele>107.808814</ele>
        <time>2022-07-19T13:17:53.617Z</time>
      </trkpt>
      <trkpt lat="43.34157" lon="-1.72629">
        <ele>102.064857</ele>
        <time>2022-07-19T13:18:11.043Z</time>
      </trkpt>
      <trkpt lat="43.34156" lon="-1.7261">
        <ele>101.419384</ele>
        <time>2022-07-19T13:18:12.668Z</time>
      </trkpt>
      <trkpt lat="43.34144" lon="-1.7258">
        <ele>100.026987</ele>
        <time>2022-07-19T13:18:15.497Z</time>
      </trkpt>
      <trkpt lat="43.34147" lon="-1.72574">
        <ele>99.388138</ele>
        <time>2022-07-19T13:18:16.097Z</time>
      </trkpt>
      <trkpt lat="43.34153" lon="-1.72572">
        <ele>98.598459</ele>
        <time>2022-07-19T13:18:16.831Z</time>
      </trkpt>
      <trkpt lat="43.34167" lon="-1.72576">
        <ele>96.876691</ele>
        <time>2022-07-19T13:18:18.480Z</time>
      </trkpt>
      <trkpt lat="43.34188" lon="-1.72572">
        <ele>94.368916</ele>
        <time>2022-07-19T13:18:20.832Z</time>
      </trkpt>
      <trkpt lat="43.342" lon="-1.72557">
        <ele>92.389024</ele>
        <time>2022-07-19T13:18:22.732Z</time>
      </trkpt>
      <trkpt lat="43.34243" lon="-1.72476">
        <ele>83.69871</ele>
        <time>2022-07-19T13:18:31.093Z</time>
      </trkpt>
      <trkpt lat="43.3428" lon="-1.72413">
        <ele>77.034747</ele>
        <time>2022-07-19T13:18:38.021Z</time>
      </trkpt>
      <trkpt lat="43.3434" lon="-1.72272">
        <ele>65.790667</ele>
        <time>2022-07-19T13:18:52.036Z</time>
      </trkpt>
      <trkpt lat="43.34373" lon="-1.72231">
        <ele>61.653258</ele>
        <time>2022-07-19T13:18:57.648Z</time>
      </trkpt>
      <trkpt lat="43.34396" lon="-1.7219">
        <ele>59.735968</ele>
        <time>2022-07-19T13:19:02.578Z</time>
      </trkpt>
      <trkpt lat="43.34405" lon="-1.7216">
        <ele>58.527414</ele>
        <time>2022-07-19T13:19:05.736Z</time>
      </trkpt>
      <trkpt lat="43.34415" lon="-1.72111">
        <ele>56.672525</ele>
        <time>2022-07-19T13:19:10.589Z</time>
      </trkpt>
      <trkpt lat="43.3442" lon="-1.72097">
        <ele>56.089935</ele>
        <time>2022-07-19T13:19:12.109Z</time>
      </trkpt>
      <trkpt lat="43.34448" lon="-1.72025">
        <ele>53.084886</ele>
        <time>2022-07-19T13:19:20.380Z</time>
      </trkpt>
      <trkpt lat="43.34523" lon="-1.71871">
        <ele>49.296336</ele>
        <time>2022-07-19T13:19:39.612Z</time>
      </trkpt>
      <trkpt lat="43.34538" lon="-1.71829">
        <ele>48.398339</ele>
        <time>2022-07-19T13:19:44.858Z</time>
      </trkpt>
      <trkpt lat="43.34547" lon="-1.71807">
        <ele>47.902246</ele>
        <time>2022-07-19T13:19:47.895Z</time>
      </trkpt>
      <trkpt lat="43.34565" lon="-1.71768">
        <ele>48.132364</ele>
        <time>2022-07-19T13:19:53.743Z</time>
      </trkpt>
      <trkpt lat="43.34609" lon="-1.7174">
        <ele>48.512961</ele>
        <time>2022-07-19T13:20:02.663Z</time>
      </trkpt>
      <trkpt lat="43.34593" lon="-1.71669">
        <ele>48.937766</ele>
        <time>2022-07-19T13:20:14.873Z</time>
      </trkpt>
      <trkpt lat="43.34595" lon="-1.71622">
        <ele>49.205398</ele>
        <time>2022-07-19T13:20:25.026Z</time>
      </trkpt>
      <trkpt lat="43.34603" lon="-1.71581">
        <ele>49.672552</ele>
        <time>2022-07-19T13:20:35.394Z</time>
      </trkpt>
      <trkpt lat="43.34602" lon="-1.71464">
        <ele>51.263136</ele>
        <time>2022-07-19T13:20:59.118Z</time>
      </trkpt>
      <trkpt lat="43.34574" lon="-1.71383">
        <ele>52.466792</ele>
        <time>2022-07-19T13:21:13.570Z</time>
      </trkpt>
      <trkpt lat="43.34538" lon="-1.7127">
        <ele>53.65853</ele>
        <time>2022-07-19T13:21:33.608Z</time>
      </trkpt>
      <trkpt lat="43.34529" lon="-1.71199">
        <ele>54.317942</ele>
        <time>2022-07-19T13:21:45.833Z</time>
      </trkpt>
      <trkpt lat="43.34528" lon="-1.71179">
        <ele>54.501286</ele>
        <time>2022-07-19T13:21:49.131Z</time>
      </trkpt>
      <trkpt lat="43.34522" lon="-1.7116">
        <ele>54.688111</ele>
        <time>2022-07-19T13:21:52.340Z</time>
      </trkpt>
      <trkpt lat="43.34483" lon="-1.71061">
        <ele>56.533202</ele>
        <time>2022-07-19T13:22:15.250Z</time>
      </trkpt>
      <trkpt lat="43.34449" lon="-1.70994">
        <ele>58.020682</ele>
        <time>2022-07-19T13:22:34.352Z</time>
      </trkpt>
      <trkpt lat="43.34452" lon="-1.70978">
        <ele>58.328416</ele>
        <time>2022-07-19T13:22:37.740Z</time>
      </trkpt>
      <trkpt lat="43.34496" lon="-1.70861">
        <ele>60.42803</ele>
        <time>2022-07-19T13:23:03.959Z</time>
      </trkpt>
      <trkpt lat="43.34506" lon="-1.70764">
        <ele>61.812235</ele>
        <time>2022-07-19T13:23:21.199Z</time>
      </trkpt>
      <trkpt lat="43.34506" lon="-1.70756">
        <ele>61.926144</ele>
        <time>2022-07-19T13:23:22.532Z</time>
      </trkpt>
      <trkpt lat="43.34506" lon="-1.70739">
        <ele>62.162373</ele>
        <time>2022-07-19T13:23:25.482Z</time>
      </trkpt>
      <trkpt lat="43.3447" lon="-1.70724">
        <ele>62.892755</ele>
        <time>2022-07-19T13:23:35.353Z</time>
      </trkpt>
      <trkpt lat="43.34451" lon="-1.70708">
        <ele>63.730727</ele>
        <time>2022-07-19T13:23:41.597Z</time>
      </trkpt>
      <trkpt lat="43.34397" lon="-1.70602">
        <ele>67.284007</ele>
        <time>2022-07-19T13:24:12.449Z</time>
      </trkpt>
      <trkpt lat="43.3431" lon="-1.7056">
        <ele>70.722782</ele>
        <time>2022-07-19T13:24:48.002Z</time>
      </trkpt>
      <trkpt lat="43.34284" lon="-1.70542">
        <ele>71.79254</ele>
        <time>2022-07-19T13:24:58.896Z</time>
      </trkpt>
      <trkpt lat="43.34271" lon="-1.70513">
        <ele>72.695306</ele>
        <time>2022-07-19T13:25:08.240Z</time>
      </trkpt>
      <trkpt lat="43.34249" lon="-1.70461">
        <ele>74.296241</ele>
        <time>2022-07-19T13:25:22.822Z</time>
      </trkpt>
      <trkpt lat="43.34232" lon="-1.704">
        <ele>76.036839</ele>
        <time>2022-07-19T13:25:36.538Z</time>
      </trkpt>
      <trkpt lat="43.34229" lon="-1.70337">
        <ele>76.273159</ele>
        <time>2022-07-19T13:25:48.130Z</time>
      </trkpt>
      <trkpt lat="43.34236" lon="-1.70192">
        <ele>76.275685</ele>
        <time>2022-07-19T13:26:06.812Z</time>
      </trkpt>
      <trkpt lat="43.34243" lon="-1.70173">
        <ele>76.276049</ele>
        <time>2022-07-19T13:26:09.171Z</time>
      </trkpt>
      <trkpt lat="43.34257" lon="-1.70147">
        <ele>76.227044</ele>
        <time>2022-07-19T13:26:13.152Z</time>
      </trkpt>
      <trkpt lat="43.34255" lon="-1.70034">
        <ele>75.284918</ele>
        <time>2022-07-19T13:26:26.287Z</time>
      </trkpt>
      <trkpt lat="43.3427" lon="-1.6994">
        <ele>74.488354</ele>
        <time>2022-07-19T13:26:38.430Z</time>
      </trkpt>
      <trkpt lat="43.3428" lon="-1.69928">
        <ele>74.334284</ele>
        <time>2022-07-19T13:26:40.885Z</time>
      </trkpt>
      <trkpt lat="43.34402" lon="-1.6981">
        <ele>70.637169</ele>
        <time>2022-07-19T13:27:03.427Z</time>
      </trkpt>
      <trkpt lat="43.34427" lon="-1.69787">
        <ele>69.859046</ele>
        <time>2022-07-19T13:27:07.628Z</time>
      </trkpt>
      <trkpt lat="43.34441" lon="-1.69752">
        <ele>68.666463</ele>
        <time>2022-07-19T13:27:11.641Z</time>
      </trkpt>
      <trkpt lat="43.34446" lon="-1.69672">
        <ele>65.757559</ele>
        <time>2022-07-19T13:27:19.573Z</time>
      </trkpt>
      <trkpt lat="43.34474" lon="-1.69601">
        <ele>62.796962</ele>
        <time>2022-07-19T13:27:27.180Z</time>
      </trkpt>
      <trkpt lat="43.34468" lon="-1.69449">
        <ele>57.209033</ele>
        <time>2022-07-19T13:27:41.776Z</time>
      </trkpt>
      <trkpt lat="43.34474" lon="-1.69415">
        <ele>55.91727</ele>
        <time>2022-07-19T13:27:45.099Z</time>
      </trkpt>
      <trkpt lat="43.34477" lon="-1.69392">
        <ele>55.060933</ele>
        <time>2022-07-19T13:27:47.415Z</time>
      </trkpt>
      <trkpt lat="43.34479" lon="-1.69371">
        <ele>54.291784</ele>
        <time>2022-07-19T13:27:49.423Z</time>
      </trkpt>
      <trkpt lat="43.34481" lon="-1.69339">
        <ele>53.084765</ele>
        <time>2022-07-19T13:27:52.638Z</time>
      </trkpt>
      <trkpt lat="43.34527" lon="-1.69256">
        <ele>49.705318</ele>
        <time>2022-07-19T13:28:02.770Z</time>
      </trkpt>
      <trkpt lat="43.34558" lon="-1.69203">
        <ele>47.750795</ele>
        <time>2022-07-19T13:28:09.499Z</time>
      </trkpt>
      <trkpt lat="43.34564" lon="-1.69182">
        <ele>47.08893</ele>
        <time>2022-07-19T13:28:11.827Z</time>
      </trkpt>
      <trkpt lat="43.34585" lon="-1.69101">
        <ele>44.576889</ele>
        <time>2022-07-19T13:28:20.762Z</time>
      </trkpt>
      <trkpt lat="43.34612" lon="-1.69061">
        <ele>43.613316</ele>
        <time>2022-07-19T13:28:26.443Z</time>
      </trkpt>
      <trkpt lat="43.34661" lon="-1.68989">
        <ele>42.188379</ele>
        <time>2022-07-19T13:28:36.683Z</time>
      </trkpt>
      <trkpt lat="43.34677" lon="-1.68942">
        <ele>41.440668</ele>
        <time>2022-07-19T13:28:42.600Z</time>
      </trkpt>
      <trkpt lat="43.34675" lon="-1.68927">
        <ele>41.221736</ele>
        <time>2022-07-19T13:28:44.413Z</time>
      </trkpt>
      <trkpt lat="43.34745" lon="-1.68882">
        <ele>41.871539</ele>
        <time>2022-07-19T13:29:00.118Z</time>
      </trkpt>
      <trkpt lat="43.34736" lon="-1.6886">
        <ele>42.314099</ele>
        <time>2022-07-19T13:29:04.805Z</time>
      </trkpt>
      <trkpt lat="43.34716" lon="-1.68818">
        <ele>43.220969</ele>
        <time>2022-07-19T13:29:14.619Z</time>
      </trkpt>
      <trkpt lat="43.34658" lon="-1.68744">
        <ele>45.256301</ele>
        <time>2022-07-19T13:29:41.501Z</time>
      </trkpt>
      <trkpt lat="43.34609" lon="-1.68716">
        <ele>48.19286</ele>
        <time>2022-07-19T13:30:03.340Z</time>
      </trkpt>
      <trkpt lat="43.34596" lon="-1.68693">
        <ele>49.371531</ele>
        <time>2022-07-19T13:30:11.983Z</time>
      </trkpt>
      <trkpt lat="43.34592" lon="-1.68674">
        <ele>50.159607</ele>
        <time>2022-07-19T13:30:18.076Z</time>
      </trkpt>
      <trkpt lat="43.34589" lon="-1.68658">
        <ele>50.863884</ele>
        <time>2022-07-19T13:30:23.282Z</time>
      </trkpt>
      <trkpt lat="43.34611" lon="-1.68522">
        <ele>56.890378</ele>
        <time>2022-07-19T13:31:04.678Z</time>
      </trkpt>
      <trkpt lat="43.34609" lon="-1.68386">
        <ele>64.041551</ele>
        <time>2022-07-19T13:31:52.115Z</time>
      </trkpt>
      <trkpt lat="43.34605" lon="-1.68353">
        <ele>65.840984</ele>
        <time>2022-07-19T13:32:04.382Z</time>
      </trkpt>
      <trkpt lat="43.34593" lon="-1.6824">
        <ele>71.632949</ele>
        <time>2022-07-19T13:32:47.217Z</time>
      </trkpt>
      <trkpt lat="43.34583" lon="-1.68189">
        <ele>74.289695</ele>
        <time>2022-07-19T13:33:07.849Z</time>
      </trkpt>
      <trkpt lat="43.3451" lon="-1.67949">
        <ele>83.016054</ele>
        <time>2022-07-19T13:34:23.227Z</time>
      </trkpt>
      <trkpt lat="43.34523" lon="-1.67857">
        <ele>84.776846</ele>
        <time>2022-07-19T13:34:35.444Z</time>
      </trkpt>
      <trkpt lat="43.34587" lon="-1.67697">
        <ele>83.984372</ele>
        <time>2022-07-19T13:34:56.511Z</time>
      </trkpt>
      <trkpt lat="43.34643" lon="-1.67572">
        <ele>83.142852</ele>
        <time>2022-07-19T13:35:15.945Z</time>
      </trkpt>
      <trkpt lat="43.34687" lon="-1.67505">
        <ele>82.744352</ele>
        <time>2022-07-19T13:35:27.930Z</time>
      </trkpt>
      <trkpt lat="43.34723" lon="-1.67408">
        <ele>82.085956</ele>
        <time>2022-07-19T13:35:41.111Z</time>
      </trkpt>
      <trkpt lat="43.34739" lon="-1.67351">
        <ele>81.211098</ele>
        <time>2022-07-19T13:35:47.757Z</time>
      </trkpt>
      <trkpt lat="43.34778" lon="-1.67346">
        <ele>80.441452</ele>
        <time>2022-07-19T13:35:53.571Z</time>
      </trkpt>
      <trkpt lat="43.34815" lon="-1.67331">
        <ele>79.668699</ele>
        <time>2022-07-19T13:35:59.448Z</time>
      </trkpt>
      <trkpt lat="43.34823" lon="-1.67308">
        <ele>79.311951</ele>
        <time>2022-07-19T13:36:02.142Z</time>
      </trkpt>
      <trkpt lat="43.34831" lon="-1.67263">
        <ele>78.733815</ele>
        <time>2022-07-19T13:36:07.280Z</time>
      </trkpt>
      <trkpt lat="43.34832" lon="-1.67161">
        <ele>78.344455</ele>
        <time>2022-07-19T13:36:19.459Z</time>
      </trkpt>
      <trkpt lat="43.34896" lon="-1.66924">
        <ele>78.715591</ele>
        <time>2022-07-19T13:36:55.767Z</time>
      </trkpt>
      <trkpt lat="43.34917" lon="-1.66871">
        <ele>79.186337</ele>
        <time>2022-07-19T13:37:06.436Z</time>
      </trkpt>
      <trkpt lat="43.34943" lon="-1.66881">
        <ele>79.46965</ele>
        <time>2022-07-19T13:37:13.194Z</time>
      </trkpt>
      <trkpt lat="43.34966" lon="-1.66875">
        <ele>79.714067</ele>
        <time>2022-07-19T13:37:18.782Z</time>
      </trkpt>
      <trkpt lat="43.34972" lon="-1.66863">
        <ele>79.970009</ele>
        <time>2022-07-19T13:37:21.621Z</time>
      </trkpt>
      <trkpt lat="43.34978" lon="-1.66826">
        <ele>80.632583</ele>
        <time>2022-07-19T13:37:28.439Z</time>
      </trkpt>
      <trkpt lat="43.34986" lon="-1.66811">
        <ele>80.959836</ele>
        <time>2022-07-19T13:37:32.489Z</time>
      </trkpt>
      <trkpt lat="43.35014" lon="-1.668">
        <ele>81.660393</ele>
        <time>2022-07-19T13:37:40.809Z</time>
      </trkpt>
      <trkpt lat="43.35074" lon="-1.66852">
        <ele>83.392805</ele>
        <time>2022-07-19T13:38:01.432Z</time>
      </trkpt>
      <trkpt lat="43.35089" lon="-1.66859">
        <ele>83.784045</ele>
        <time>2022-07-19T13:38:06.324Z</time>
      </trkpt>
      <trkpt lat="43.35109" lon="-1.66858">
        <ele>84.153207</ele>
        <time>2022-07-19T13:38:11.075Z</time>
      </trkpt>
      <trkpt lat="43.35124" lon="-1.66845">
        <ele>84.308699</ele>
        <time>2022-07-19T13:38:16.425Z</time>
      </trkpt>
      <trkpt lat="43.35181" lon="-1.66752">
        <ele>85.073754</ele>
        <time>2022-07-19T13:38:37.414Z</time>
      </trkpt>
      <trkpt lat="43.35196" lon="-1.66737">
        <ele>85.232908</ele>
        <time>2022-07-19T13:38:41.219Z</time>
      </trkpt>
      <trkpt lat="43.35213" lon="-1.66731">
        <ele>85.385318</ele>
        <time>2022-07-19T13:38:44.156Z</time>
      </trkpt>
      <trkpt lat="43.35247" lon="-1.66735">
        <ele>85.554545</ele>
        <time>2022-07-19T13:38:49.937Z</time>
      </trkpt>
      <trkpt lat="43.35275" lon="-1.66726">
        <ele>84.727997</ele>
        <time>2022-07-19T13:38:54.135Z</time>
      </trkpt>
      <trkpt lat="43.3529" lon="-1.66717">
        <ele>84.252517</ele>
        <time>2022-07-19T13:38:56.510Z</time>
      </trkpt>
      <trkpt lat="43.35239" lon="-1.6672">
        <ele>82.780444</ele>
        <time>2022-07-19T13:39:03.776Z</time>
      </trkpt>
      <trkpt lat="43.35217" lon="-1.66696">
        <ele>81.963642</ele>
        <time>2022-07-19T13:39:07.739Z</time>
      </trkpt>
      <trkpt lat="43.35198" lon="-1.6665">
        <ele>80.834177</ele>
        <time>2022-07-19T13:39:13.070Z</time>
      </trkpt>
      <trkpt lat="43.35154" lon="-1.66584">
        <ele>79.533373</ele>
        <time>2022-07-19T13:39:21.976Z</time>
      </trkpt>
      <trkpt lat="43.35126" lon="-1.66517">
        <ele>78.547785</ele>
        <time>2022-07-19T13:39:30.805Z</time>
      </trkpt>
      <trkpt lat="43.3512" lon="-1.66486">
        <ele>78.134855</ele>
        <time>2022-07-19T13:39:34.858Z</time>
      </trkpt>
      <trkpt lat="43.35122" lon="-1.66456">
        <ele>77.758815</ele>
        <time>2022-07-19T13:39:38.786Z</time>
      </trkpt>
      <trkpt lat="43.35136" lon="-1.66387">
        <ele>77.373482</ele>
        <time>2022-07-19T13:39:48.536Z</time>
      </trkpt>
      <trkpt lat="43.35142" lon="-1.66337">
        <ele>77.530216</ele>
        <time>2022-07-19T13:39:56.568Z</time>
      </trkpt>
      <trkpt lat="43.35139" lon="-1.66302">
        <ele>77.640511</ele>
        <time>2022-07-19T13:40:03.151Z</time>
      </trkpt>
      <trkpt lat="43.35129" lon="-1.66285">
        <ele>77.711078</ele>
        <time>2022-07-19T13:40:06.372Z</time>
      </trkpt>
      <trkpt lat="43.35111" lon="-1.6627">
        <ele>77.799657</ele>
        <time>2022-07-19T13:40:11.839Z</time>
      </trkpt>
      <trkpt lat="43.35074" lon="-1.66252">
        <ele>77.968644</ele>
        <time>2022-07-19T13:40:19.911Z</time>
      </trkpt>
      <trkpt lat="43.35045" lon="-1.66212">
        <ele>77.410535</ele>
        <time>2022-07-19T13:40:26.795Z</time>
      </trkpt>
      <trkpt lat="43.35037" lon="-1.66181">
        <ele>76.786943</ele>
        <time>2022-07-19T13:40:30.742Z</time>
      </trkpt>
      <trkpt lat="43.35049" lon="-1.66143">
        <ele>75.993355</ele>
        <time>2022-07-19T13:40:35.208Z</time>
      </trkpt>
      <trkpt lat="43.3505" lon="-1.66079">
        <ele>74.77239</ele>
        <time>2022-07-19T13:40:42.116Z</time>
      </trkpt>
      <trkpt lat="43.35068" lon="-1.66051">
        <ele>74.069896</ele>
        <time>2022-07-19T13:40:45.834Z</time>
      </trkpt>
      <trkpt lat="43.35101" lon="-1.66027">
        <ele>72.913121</ele>
        <time>2022-07-19T13:40:50.925Z</time>
      </trkpt>
      <trkpt lat="43.35153" lon="-1.66029">
        <ele>70.560732</ele>
        <time>2022-07-19T13:40:57.785Z</time>
      </trkpt>
      <trkpt lat="43.35178" lon="-1.6601">
        <ele>69.301735</ele>
        <time>2022-07-19T13:41:01.385Z</time>
      </trkpt>
      <trkpt lat="43.35271" lon="-1.65874">
        <ele>65.1454</ele>
        <time>2022-07-19T13:41:20.187Z</time>
      </trkpt>
      <trkpt lat="43.35279" lon="-1.65852">
        <ele>65.110416</ele>
        <time>2022-07-19T13:41:22.944Z</time>
      </trkpt>
      <trkpt lat="43.35294" lon="-1.6573">
        <ele>64.930391</ele>
        <time>2022-07-19T13:41:41.344Z</time>
      </trkpt>
      <trkpt lat="43.35278" lon="-1.65619">
        <ele>66.165164</ele>
        <time>2022-07-19T13:42:10.200Z</time>
      </trkpt>
      <trkpt lat="43.35278" lon="-1.6559">
        <ele>66.646301</ele>
        <time>2022-07-19T13:42:17.228Z</time>
      </trkpt>
      <trkpt lat="43.35287" lon="-1.65568">
        <ele>67.07092</ele>
        <time>2022-07-19T13:42:22.457Z</time>
      </trkpt>
      <trkpt lat="43.35307" lon="-1.6554">
        <ele>67.730614</ele>
        <time>2022-07-19T13:42:31.400Z</time>
      </trkpt>
      <trkpt lat="43.35312" lon="-1.65527">
        <ele>67.971211</ele>
        <time>2022-07-19T13:42:34.170Z</time>
      </trkpt>
      <trkpt lat="43.35313" lon="-1.65498">
        <ele>68.45634</ele>
        <time>2022-07-19T13:42:40.588Z</time>
      </trkpt>
      <trkpt lat="43.35297" lon="-1.65491">
        <ele>68.851604</ele>
        <time>2022-07-19T13:42:44.015Z</time>
      </trkpt>
      <trkpt lat="43.35292" lon="-1.65472">
        <ele>68.692433</ele>
        <time>2022-07-19T13:42:46.978Z</time>
      </trkpt>
      <trkpt lat="43.3529" lon="-1.6541">
        <ele>66.87602</ele>
        <time>2022-07-19T13:42:53.857Z</time>
      </trkpt>
      <trkpt lat="43.35282" lon="-1.65347">
        <ele>65.025661</ele>
        <time>2022-07-19T13:43:00.372Z</time>
      </trkpt>
      <trkpt lat="43.35273" lon="-1.65303">
        <ele>63.688245</ele>
        <time>2022-07-19T13:43:04.874Z</time>
      </trkpt>
      <trkpt lat="43.35267" lon="-1.65293">
        <ele>63.298225</ele>
        <time>2022-07-19T13:43:06.094Z</time>
      </trkpt>
      <trkpt lat="43.35216" lon="-1.65252">
        <ele>59.725558</ele>
        <time>2022-07-19T13:43:13.486Z</time>
      </trkpt>
      <trkpt lat="43.35205" lon="-1.65237">
        <ele>58.371349</ele>
        <time>2022-07-19T13:43:15.258Z</time>
      </trkpt>
      <trkpt lat="43.35194" lon="-1.65151">
        <ele>52.378132</ele>
        <time>2022-07-19T13:43:22.897Z</time>
      </trkpt>
      <trkpt lat="43.35131" lon="-1.64968">
        <ele>37.918092</ele>
        <time>2022-07-19T13:43:40.329Z</time>
      </trkpt>
      <trkpt lat="43.35098" lon="-1.64928">
        <ele>33.347721</ele>
        <time>2022-07-19T13:43:45.511Z</time>
      </trkpt>
      <trkpt lat="43.35076" lon="-1.6487">
        <ele>28.375178</ele>
        <time>2022-07-19T13:43:51.081Z</time>
      </trkpt>
      <trkpt lat="43.3504" lon="-1.6475">
        <ele>21.421757</ele>
        <time>2022-07-19T13:44:02.610Z</time>
      </trkpt>
      <trkpt lat="43.35041" lon="-1.64717">
        <ele>19.879332</ele>
        <time>2022-07-19T13:44:05.473Z</time>
      </trkpt>
      <trkpt lat="43.35004" lon="-1.64591">
        <ele>14.955588</ele>
        <time>2022-07-19T13:44:19.027Z</time>
      </trkpt>
      <trkpt lat="43.35004" lon="-1.64515">
        <ele>16.320949</ele>
        <time>2022-07-19T13:44:29.240Z</time>
      </trkpt>
      <trkpt lat="43.35005" lon="-1.645">
        <ele>16.583661</ele>
        <time>2022-07-19T13:44:33.039Z</time>
      </trkpt>
      <trkpt lat="43.35002" lon="-1.64443">
        <ele>17.607146</ele>
        <time>2022-07-19T13:44:48.326Z</time>
      </trkpt>
      <trkpt lat="43.34986" lon="-1.6438">
        <ele>18.813904</ele>
        <time>2022-07-19T13:45:08.092Z</time>
      </trkpt>
      <trkpt lat="43.34996" lon="-1.64374">
        <ele>19.296703</ele>
        <time>2022-07-19T13:45:12.400Z</time>
      </trkpt>
      <trkpt lat="43.34991" lon="-1.64358">
        <ele>20.193345</ele>
        <time>2022-07-19T13:45:19.770Z</time>
      </trkpt>
      <trkpt lat="43.3495" lon="-1.64343">
        <ele>23.141952</ele>
        <time>2022-07-19T13:45:40.655Z</time>
      </trkpt>
      <trkpt lat="43.34939" lon="-1.64329">
        <ele>24.154994</ele>
        <time>2022-07-19T13:45:47.543Z</time>
      </trkpt>
      <trkpt lat="43.34935" lon="-1.64167">
        <ele>32.051408</ele>
        <time>2022-07-19T13:46:43.872Z</time>
      </trkpt>
      <trkpt lat="43.34948" lon="-1.64106">
        <ele>34.426294</ele>
        <time>2022-07-19T13:47:00.993Z</time>
      </trkpt>
      <trkpt lat="43.34947" lon="-1.64084">
        <ele>35.232468</ele>
        <time>2022-07-19T13:47:06.597Z</time>
      </trkpt>
      <trkpt lat="43.3493" lon="-1.64075">
        <ele>36.205212</ele>
        <time>2022-07-19T13:47:13.458Z</time>
      </trkpt>
      <trkpt lat="43.34881" lon="-1.64114">
        <ele>39.08111</ele>
        <time>2022-07-19T13:47:33.548Z</time>
      </trkpt>
      <trkpt lat="43.34859" lon="-1.64124">
        <ele>40.251697</ele>
        <time>2022-07-19T13:47:42.603Z</time>
      </trkpt>
      <trkpt lat="43.3484" lon="-1.6412">
        <ele>41.33038</ele>
        <time>2022-07-19T13:47:51.354Z</time>
      </trkpt>
      <trkpt lat="43.34818" lon="-1.64106">
        <ele>42.724612</ele>
        <time>2022-07-19T13:48:00.732Z</time>
      </trkpt>
      <trkpt lat="43.34846" lon="-1.6401">
        <ele>47.133605</ele>
        <time>2022-07-19T13:48:31.505Z</time>
      </trkpt>
      <trkpt lat="43.34857" lon="-1.63985">
        <ele>48.361753</ele>
        <time>2022-07-19T13:48:40.477Z</time>
      </trkpt>
      <trkpt lat="43.34854" lon="-1.63953">
        <ele>49.740632</ele>
        <time>2022-07-19T13:48:51.522Z</time>
      </trkpt>
      <trkpt lat="43.34833" lon="-1.63892">
        <ele>52.241617</ele>
        <time>2022-07-19T13:49:13.040Z</time>
      </trkpt>
      <trkpt lat="43.34802" lon="-1.6383">
        <ele>54.801903</ele>
        <time>2022-07-19T13:49:37.001Z</time>
      </trkpt>
      <trkpt lat="43.34743" lon="-1.63753">
        <ele>58.553451</ele>
        <time>2022-07-19T13:50:04.369Z</time>
      </trkpt>
      <trkpt lat="43.34663" lon="-1.6359">
        <ele>60.693638</ele>
        <time>2022-07-19T13:50:42.007Z</time>
      </trkpt>
      <trkpt lat="43.34601" lon="-1.63502">
        <ele>59.897008</ele>
        <time>2022-07-19T13:50:56.952Z</time>
      </trkpt>
      <trkpt lat="43.34589" lon="-1.635">
        <ele>59.460115</ele>
        <time>2022-07-19T13:50:58.645Z</time>
      </trkpt>
      <trkpt lat="43.34581" lon="-1.63499">
        <ele>59.111926</ele>
        <time>2022-07-19T13:50:59.923Z</time>
      </trkpt>
      <trkpt lat="43.34561" lon="-1.63513">
        <ele>58.261551</ele>
        <time>2022-07-19T13:51:02.965Z</time>
      </trkpt>
      <trkpt lat="43.34522" lon="-1.63421">
        <ele>55.235513</ele>
        <time>2022-07-19T13:51:13.430Z</time>
      </trkpt>
      <trkpt lat="43.34496" lon="-1.63377">
        <ele>52.82445</ele>
        <time>2022-07-19T13:51:18.661Z</time>
      </trkpt>
      <trkpt lat="43.34483" lon="-1.63336">
        <ele>49.809597</ele>
        <time>2022-07-19T13:51:22.717Z</time>
      </trkpt>
      <trkpt lat="43.3448" lon="-1.63283">
        <ele>46.273631</ele>
        <time>2022-07-19T13:51:27.327Z</time>
      </trkpt>
      <trkpt lat="43.3447" lon="-1.63244">
        <ele>43.479997</ele>
        <time>2022-07-19T13:51:30.926Z</time>
      </trkpt>
      <trkpt lat="43.34457" lon="-1.63214">
        <ele>41.169967</ele>
        <time>2022-07-19T13:51:33.888Z</time>
      </trkpt>
      <trkpt lat="43.34422" lon="-1.63185">
        <ele>37.349396</ele>
        <time>2022-07-19T13:51:38.757Z</time>
      </trkpt>
      <trkpt lat="43.34342" lon="-1.63069">
        <ele>26.509198</ele>
        <time>2022-07-19T13:51:52.456Z</time>
      </trkpt>
      <trkpt lat="43.34325" lon="-1.63063">
        <ele>24.86917</ele>
        <time>2022-07-19T13:51:54.574Z</time>
      </trkpt>
      <trkpt lat="43.34344" lon="-1.62964">
        <ele>20.145116</ele>
        <time>2022-07-19T13:52:03.380Z</time>
      </trkpt>
      <trkpt lat="43.3436" lon="-1.628">
        <ele>17.258322</ele>
        <time>2022-07-19T13:52:21.085Z</time>
      </trkpt>
      <trkpt lat="43.34361" lon="-1.62649">
        <ele>18.340548</ele>
        <time>2022-07-19T13:52:50.722Z</time>
      </trkpt>
      <trkpt lat="43.34361" lon="-1.62626">
        <ele>18.700467</ele>
        <time>2022-07-19T13:52:55.774Z</time>
      </trkpt>
      <trkpt lat="43.34367" lon="-1.6258">
        <ele>19.426069</ele>
        <time>2022-07-19T13:53:05.263Z</time>
      </trkpt>
      <trkpt lat="43.34386" lon="-1.62512">
        <ele>20.500694</ele>
        <time>2022-07-19T13:53:19.459Z</time>
      </trkpt>
      <trkpt lat="43.3441" lon="-1.62438">
        <ele>21.265481</ele>
        <time>2022-07-19T13:53:35.001Z</time>
      </trkpt>
      <trkpt lat="43.34446" lon="-1.6238">
        <ele>21.973859</ele>
        <time>2022-07-19T13:53:47.251Z</time>
      </trkpt>
      <trkpt lat="43.34448" lon="-1.62357">
        <ele>22.195463</ele>
        <time>2022-07-19T13:53:51.050Z</time>
      </trkpt>
      <trkpt lat="43.34445" lon="-1.6231">
        <ele>22.632492</ele>
        <time>2022-07-19T13:53:57.881Z</time>
      </trkpt>
      <trkpt lat="43.3446" lon="-1.62219">
        <ele>22.201853</ele>
        <time>2022-07-19T13:54:10.318Z</time>
      </trkpt>
      <trkpt lat="43.34506" lon="-1.62209">
        <ele>21.776282</ele>
        <time>2022-07-19T13:54:18.410Z</time>
      </trkpt>
      <trkpt lat="43.34522" lon="-1.62189">
        <ele>21.583848</ele>
        <time>2022-07-19T13:54:21.745Z</time>
      </trkpt>
      <trkpt lat="43.34527" lon="-1.62169">
        <ele>21.445766</ele>
        <time>2022-07-19T13:54:24.203Z</time>
      </trkpt>
      <trkpt lat="43.34531" lon="-1.62111">
        <ele>21.018825</ele>
        <time>2022-07-19T13:54:30.680Z</time>
      </trkpt>
      <trkpt lat="43.34539" lon="-1.62084">
        <ele>20.65645</ele>
        <time>2022-07-19T13:54:33.765Z</time>
      </trkpt>
      <trkpt lat="43.3455" lon="-1.62071">
        <ele>20.417173</ele>
        <time>2022-07-19T13:54:36.078Z</time>
      </trkpt>
      <trkpt lat="43.34556" lon="-1.62046">
        <ele>20.098914</ele>
        <time>2022-07-19T13:54:38.761Z</time>
      </trkpt>
      <trkpt lat="43.34573" lon="-1.6196">
        <ele>19.000906</ele>
        <time>2022-07-19T13:54:48.581Z</time>
      </trkpt>
      <trkpt lat="43.34591" lon="-1.61849">
        <ele>19.005999</ele>
        <time>2022-07-19T13:55:02.598Z</time>
      </trkpt>
      <trkpt lat="43.34593" lon="-1.6183">
        <ele>19.455041</ele>
        <time>2022-07-19T13:55:05.645Z</time>
      </trkpt>
      <trkpt lat="43.34595" lon="-1.61817">
        <ele>19.782243</ele>
        <time>2022-07-19T13:55:08.403Z</time>
      </trkpt>
      <trkpt lat="43.34597" lon="-1.61804">
        <ele>20.095405</ele>
        <time>2022-07-19T13:55:11.256Z</time>
      </trkpt>
      <trkpt lat="43.34597" lon="-1.618">
        <ele>20.181964</ele>
        <time>2022-07-19T13:55:12.062Z</time>
      </trkpt>
      <trkpt lat="43.34613" lon="-1.61725">
        <ele>22.037905</ele>
        <time>2022-07-19T13:55:29.289Z</time>
      </trkpt>
      <trkpt lat="43.3461" lon="-1.61685">
        <ele>22.981651</ele>
        <time>2022-07-19T13:55:40.785Z</time>
      </trkpt>
      <trkpt lat="43.34595" lon="-1.6166">
        <ele>23.755014</ele>
        <time>2022-07-19T13:55:52.592Z</time>
      </trkpt>
      <trkpt lat="43.34586" lon="-1.61591">
        <ele>26.511358</ele>
        <time>2022-07-19T13:56:17.892Z</time>
      </trkpt>
      <trkpt lat="43.34567" lon="-1.61553">
        <ele>28.431593</ele>
        <time>2022-07-19T13:56:33.223Z</time>
      </trkpt>
      <trkpt lat="43.34564" lon="-1.61518">
        <ele>29.887252</ele>
        <time>2022-07-19T13:56:44.757Z</time>
      </trkpt>
      <trkpt lat="43.34566" lon="-1.61392">
        <ele>34.201796</ele>
        <time>2022-07-19T13:57:19.098Z</time>
      </trkpt>
      <trkpt lat="43.34579" lon="-1.61386">
        <ele>34.25663</ele>
        <time>2022-07-19T13:57:21.527Z</time>
      </trkpt>
      <trkpt lat="43.34618" lon="-1.61421">
        <ele>34.441047</ele>
        <time>2022-07-19T13:57:34.059Z</time>
      </trkpt>
      <trkpt lat="43.34684" lon="-1.61467">
        <ele>34.737761</ele>
        <time>2022-07-19T13:57:46.544Z</time>
      </trkpt>
      <trkpt lat="43.34705" lon="-1.61494">
        <ele>34.851259</ele>
        <time>2022-07-19T13:57:50.535Z</time>
      </trkpt>
      <trkpt lat="43.34715" lon="-1.61533">
        <ele>34.280183</ele>
        <time>2022-07-19T13:57:55.303Z</time>
      </trkpt>
      <trkpt lat="43.34733" lon="-1.61542">
        <ele>33.931209</ele>
        <time>2022-07-19T13:57:58.230Z</time>
      </trkpt>
      <trkpt lat="43.34869" lon="-1.61565">
        <ele>31.292569</ele>
        <time>2022-07-19T13:58:19.351Z</time>
      </trkpt>
      <trkpt lat="43.34877" lon="-1.61534">
        <ele>30.760215</ele>
        <time>2022-07-19T13:58:23.115Z</time>
      </trkpt>
      <trkpt lat="43.34915" lon="-1.61527">
        <ele>29.896795</ele>
        <time>2022-07-19T13:58:29.224Z</time>
      </trkpt>
      <trkpt lat="43.34972" lon="-1.61557">
        <ele>28.505918</ele>
        <time>2022-07-19T13:58:38.142Z</time>
      </trkpt>
      <trkpt lat="43.3502" lon="-1.61567">
        <ele>27.406932</ele>
        <time>2022-07-19T13:58:45.265Z</time>
      </trkpt>
      <trkpt lat="43.35048" lon="-1.61542">
        <ele>27.477174</ele>
        <time>2022-07-19T13:58:50.405Z</time>
      </trkpt>
      <trkpt lat="43.35086" lon="-1.6149">
        <ele>27.713896</ele>
        <time>2022-07-19T13:58:58.990Z</time>
      </trkpt>
      <trkpt lat="43.35092" lon="-1.61439">
        <ele>27.877145</ele>
        <time>2022-07-19T13:59:06.680Z</time>
      </trkpt>
      <trkpt lat="43.35107" lon="-1.61362">
        <ele>28.13216</ele>
        <time>2022-07-19T13:59:23.348Z</time>
      </trkpt>
      <trkpt lat="43.35119" lon="-1.6133">
        <ele>29.630572</ele>
        <time>2022-07-19T13:59:32.521Z</time>
      </trkpt>
      <trkpt lat="43.35182" lon="-1.61245">
        <ele>34.739318</ele>
        <time>2022-07-19T14:00:13.440Z</time>
      </trkpt>
      <trkpt lat="43.35221" lon="-1.61155">
        <ele>38.722977</ele>
        <time>2022-07-19T14:00:49.213Z</time>
      </trkpt>
      <trkpt lat="43.35328" lon="-1.61062">
        <ele>41.231766</ele>
        <time>2022-07-19T14:01:27.606Z</time>
      </trkpt>
      <trkpt lat="43.35332" lon="-1.6105">
        <ele>41.414864</ele>
        <time>2022-07-19T14:01:28.904Z</time>
      </trkpt>
      <trkpt lat="43.3537" lon="-1.61016">
        <ele>41.502317</ele>
        <time>2022-07-19T14:01:35.847Z</time>
      </trkpt>
      <trkpt lat="43.35386" lon="-1.61009">
        <ele>40.774241</ele>
        <time>2022-07-19T14:01:38.410Z</time>
      </trkpt>
      <trkpt lat="43.354" lon="-1.61012">
        <ele>40.182395</ele>
        <time>2022-07-19T14:01:40.206Z</time>
      </trkpt>
      <trkpt lat="43.35471" lon="-1.61054">
        <ele>36.865497</ele>
        <time>2022-07-19T14:01:50.580Z</time>
      </trkpt>
      <trkpt lat="43.35493" lon="-1.61071">
        <ele>35.778594</ele>
        <time>2022-07-19T14:01:53.876Z</time>
      </trkpt>
      <trkpt lat="43.35505" lon="-1.61073">
        <ele>35.245124</ele>
        <time>2022-07-19T14:01:55.501Z</time>
      </trkpt>
      <trkpt lat="43.3554" lon="-1.61066">
        <ele>33.826163</ele>
        <time>2022-07-19T14:02:00.036Z</time>
      </trkpt>
      <trkpt lat="43.35568" lon="-1.61079">
        <ele>32.735186</ele>
        <time>2022-07-19T14:02:04.054Z</time>
      </trkpt>
      <trkpt lat="43.35581" lon="-1.61055">
        <ele>31.950581</ele>
        <time>2022-07-19T14:02:06.923Z</time>
      </trkpt>
      <trkpt lat="43.35583" lon="-1.60935">
        <ele>28.784941</ele>
        <time>2022-07-19T14:02:19.256Z</time>
      </trkpt>
      <trkpt lat="43.35595" lon="-1.60901">
        <ele>27.797014</ele>
        <time>2022-07-19T14:02:23.399Z</time>
      </trkpt>
      <trkpt lat="43.35606" lon="-1.60824">
        <ele>28.73081</ele>
        <time>2022-07-19T14:02:33.971Z</time>
      </trkpt>
      <trkpt lat="43.35623" lon="-1.60759">
        <ele>29.555778</ele>
        <time>2022-07-19T14:02:46.721Z</time>
      </trkpt>
      <trkpt lat="43.35621" lon="-1.60721">
        <ele>30.008377</ele>
        <time>2022-07-19T14:02:55.103Z</time>
      </trkpt>
      <trkpt lat="43.3565" lon="-1.60636">
        <ele>31.384295</ele>
        <time>2022-07-19T14:03:19.217Z</time>
      </trkpt>
      <trkpt lat="43.35663" lon="-1.60574">
        <ele>32.647677</ele>
        <time>2022-07-19T14:03:36.134Z</time>
      </trkpt>
      <trkpt lat="43.35736" lon="-1.60487">
        <ele>35.282406</ele>
        <time>2022-07-19T14:04:04.524Z</time>
      </trkpt>
      <trkpt lat="43.35773" lon="-1.60432">
        <ele>34.752938</ele>
        <time>2022-07-19T14:04:14.266Z</time>
      </trkpt>
      <trkpt lat="43.35829" lon="-1.60296">
        <ele>32.359404</ele>
        <time>2022-07-19T14:04:30.903Z</time>
      </trkpt>
      <trkpt lat="43.35843" lon="-1.60222">
        <ele>30.920211</ele>
        <time>2022-07-19T14:04:38.515Z</time>
      </trkpt>
      <trkpt lat="43.35834" lon="-1.60127">
        <ele>28.818104</ele>
        <time>2022-07-19T14:04:48.321Z</time>
      </trkpt>
      <trkpt lat="43.35831" lon="-1.60093">
        <ele>28.050647</ele>
        <time>2022-07-19T14:04:51.963Z</time>
      </trkpt>
      <trkpt lat="43.3584" lon="-1.6">
        <ele>26.274266</ele>
        <time>2022-07-19T14:05:02.135Z</time>
      </trkpt>
      <trkpt lat="43.35885" lon="-1.5991">
        <ele>25.501859</ele>
        <time>2022-07-19T14:05:15.336Z</time>
      </trkpt>
      <trkpt lat="43.35908" lon="-1.5988">
        <ele>25.190937</ele>
        <time>2022-07-19T14:05:21.129Z</time>
      </trkpt>
      <trkpt lat="43.35939" lon="-1.59862">
        <ele>24.861778</ele>
        <time>2022-07-19T14:05:27.022Z</time>
      </trkpt>
      <trkpt lat="43.35982" lon="-1.59778">
        <ele>24.399131</ele>
        <time>2022-07-19T14:05:40.054Z</time>
      </trkpt>
      <trkpt lat="43.3599" lon="-1.59768">
        <ele>24.351356</ele>
        <time>2022-07-19T14:05:41.642Z</time>
      </trkpt>
      <trkpt lat="43.3604" lon="-1.59741">
        <ele>24.095997</ele>
        <time>2022-07-19T14:05:51.204Z</time>
      </trkpt>
      <trkpt lat="43.36089" lon="-1.59686">
        <ele>23.789556</ele>
        <time>2022-07-19T14:06:02.427Z</time>
      </trkpt>
      <trkpt lat="43.36104" lon="-1.5965">
        <ele>23.572224</ele>
        <time>2022-07-19T14:06:07.586Z</time>
      </trkpt>
      <trkpt lat="43.36106" lon="-1.5963">
        <ele>23.464136</ele>
        <time>2022-07-19T14:06:10.245Z</time>
      </trkpt>
      <trkpt lat="43.36099" lon="-1.59568">
        <ele>23.137022</ele>
        <time>2022-07-19T14:06:18.376Z</time>
      </trkpt>
      <trkpt lat="43.36175" lon="-1.59493">
        <ele>22.346219</ele>
        <time>2022-07-19T14:06:34.287Z</time>
      </trkpt>
      <trkpt lat="43.36223" lon="-1.59462">
        <ele>20.786038</ele>
        <time>2022-07-19T14:06:42.452Z</time>
      </trkpt>
      <trkpt lat="43.36243" lon="-1.59437">
        <ele>19.976262</ele>
        <time>2022-07-19T14:06:46.385Z</time>
      </trkpt>
      <trkpt lat="43.36274" lon="-1.59389">
        <ele>18.581866</ele>
        <time>2022-07-19T14:06:52.999Z</time>
      </trkpt>
      <trkpt lat="43.36292" lon="-1.59363">
        <ele>17.820989</ele>
        <time>2022-07-19T14:06:56.476Z</time>
      </trkpt>
      <trkpt lat="43.36396" lon="-1.59207">
        <ele>12.964585</ele>
        <time>2022-07-19T14:07:17.675Z</time>
      </trkpt>
      <trkpt lat="43.36451" lon="-1.59101">
        <ele>11.848119</ele>
        <time>2022-07-19T14:07:33.308Z</time>
      </trkpt>
      <trkpt lat="43.36464" lon="-1.59075">
        <ele>12.052047</ele>
        <time>2022-07-19T14:07:38.065Z</time>
      </trkpt>
      <trkpt lat="43.36483" lon="-1.59044">
        <ele>12.31361</ele>
        <time>2022-07-19T14:07:45.024Z</time>
      </trkpt>
      <trkpt lat="43.36461" lon="-1.58976">
        <ele>12.794575</ele>
        <time>2022-07-19T14:07:59.496Z</time>
      </trkpt>
      <trkpt lat="43.36427" lon="-1.58913">
        <ele>13.137939</ele>
        <time>2022-07-19T14:08:14.968Z</time>
      </trkpt>
      <trkpt lat="43.36403" lon="-1.58885">
        <ele>13.255779</ele>
        <time>2022-07-19T14:08:22.871Z</time>
      </trkpt>
      <trkpt lat="43.36309" lon="-1.588">
        <ele>13.669156</ele>
        <time>2022-07-19T14:08:42.042Z</time>
      </trkpt>
      <trkpt lat="43.3628" lon="-1.58766">
        <ele>13.310269</ele>
        <time>2022-07-19T14:08:47.862Z</time>
      </trkpt>
      <trkpt lat="43.36258" lon="-1.58723">
        <ele>12.862486</ele>
        <time>2022-07-19T14:08:53.547Z</time>
      </trkpt>
      <trkpt lat="43.36233" lon="-1.58645">
        <ele>12.131923</ele>
        <time>2022-07-19T14:09:02.831Z</time>
      </trkpt>
      <trkpt lat="43.3614" lon="-1.58363">
        <ele>10.979279</ele>
        <time>2022-07-19T14:09:41.064Z</time>
      </trkpt>
      <trkpt lat="43.36129" lon="-1.58341">
        <ele>11.005554</ele>
        <time>2022-07-19T14:09:44.762Z</time>
      </trkpt>
      <trkpt lat="43.36109" lon="-1.58302">
        <ele>11.069433</ele>
        <time>2022-07-19T14:09:51.347Z</time>
      </trkpt>
      <trkpt lat="43.36004" lon="-1.58147">
        <ele>11.328451</ele>
        <time>2022-07-19T14:10:20.253Z</time>
      </trkpt>
      <trkpt lat="43.35991" lon="-1.5813">
        <ele>11.34293</ele>
        <time>2022-07-19T14:10:23.504Z</time>
      </trkpt>
      <trkpt lat="43.35895" lon="-1.57993">
        <ele>11.4576</ele>
        <time>2022-07-19T14:10:48.355Z</time>
      </trkpt>
      <trkpt lat="43.35853" lon="-1.57913">
        <ele>11.542824</ele>
        <time>2022-07-19T14:11:01.029Z</time>
      </trkpt>
      <trkpt lat="43.35839" lon="-1.57869">
        <ele>11.584307</ele>
        <time>2022-07-19T14:11:07.336Z</time>
      </trkpt>
      <trkpt lat="43.35808" lon="-1.57719">
        <ele>11.917732</ele>
        <time>2022-07-19T14:11:29.054Z</time>
      </trkpt>
      <trkpt lat="43.35783" lon="-1.57586">
        <ele>12.502685</ele>
        <time>2022-07-19T14:11:49.272Z</time>
      </trkpt>
      <trkpt lat="43.35779" lon="-1.57525">
        <ele>12.76314</ele>
        <time>2022-07-19T14:11:58.447Z</time>
      </trkpt>
      <trkpt lat="43.35774" lon="-1.5748">
        <ele>12.965632</ele>
        <time>2022-07-19T14:12:05.511Z</time>
      </trkpt>
      <trkpt lat="43.35769" lon="-1.57469">
        <ele>13.022917</ele>
        <time>2022-07-19T14:12:07.520Z</time>
      </trkpt>
      <trkpt lat="43.35772" lon="-1.57458">
        <ele>13.070598</ele>
        <time>2022-07-19T14:12:09.152Z</time>
      </trkpt>
      <trkpt lat="43.35767" lon="-1.57433">
        <ele>13.186395</ele>
        <time>2022-07-19T14:12:13.171Z</time>
      </trkpt>
      <trkpt lat="43.35756" lon="-1.57342">
        <ele>13.591792</ele>
        <time>2022-07-19T14:12:26.541Z</time>
      </trkpt>
      <trkpt lat="43.35751" lon="-1.57286">
        <ele>13.839011</ele>
        <time>2022-07-19T14:12:34.274Z</time>
      </trkpt>
      <trkpt lat="43.35745" lon="-1.57225">
        <ele>14.12192</ele>
        <time>2022-07-19T14:12:42.957Z</time>
      </trkpt>
      <trkpt lat="43.35734" lon="-1.5716">
        <ele>14.430452</ele>
        <time>2022-07-19T14:12:53.017Z</time>
      </trkpt>
      <trkpt lat="43.35724" lon="-1.57131">
        <ele>14.57529</ele>
        <time>2022-07-19T14:12:57.762Z</time>
      </trkpt>
      <trkpt lat="43.35682" lon="-1.57042">
        <ele>15.140969</ele>
        <time>2022-07-19T14:13:14.033Z</time>
      </trkpt>
      <trkpt lat="43.35665" lon="-1.57006">
        <ele>15.457964</ele>
        <time>2022-07-19T14:13:20.430Z</time>
      </trkpt>
      <trkpt lat="43.35626" lon="-1.56922">
        <ele>16.196646</ele>
        <time>2022-07-19T14:13:36.151Z</time>
      </trkpt>
      <trkpt lat="43.35618" lon="-1.56909">
        <ele>16.318178</ele>
        <time>2022-07-19T14:13:38.806Z</time>
      </trkpt>
      <trkpt lat="43.35589" lon="-1.5685">
        <ele>16.821901</ele>
        <time>2022-07-19T14:13:50.938Z</time>
      </trkpt>
      <trkpt lat="43.35586" lon="-1.56813">
        <ele>17.005839</ele>
        <time>2022-07-19T14:13:57.336Z</time>
      </trkpt>
      <trkpt lat="43.3559" lon="-1.56787">
        <ele>17.136541</ele>
        <time>2022-07-19T14:14:01.593Z</time>
      </trkpt>
      <trkpt lat="43.35618" lon="-1.56692">
        <ele>17.638289</ele>
        <time>2022-07-19T14:14:16.655Z</time>
      </trkpt>
      <trkpt lat="43.3562" lon="-1.56681">
        <ele>17.692827</ele>
        <time>2022-07-19T14:14:18.202Z</time>
      </trkpt>
      <trkpt lat="43.35626" lon="-1.56626">
        <ele>17.965011</ele>
        <time>2022-07-19T14:14:25.771Z</time>
      </trkpt>
      <trkpt lat="43.35625" lon="-1.56614">
        <ele>17.965222</ele>
        <time>2022-07-19T14:14:27.243Z</time>
      </trkpt>
      <trkpt lat="43.35616" lon="-1.56601">
        <ele>17.921067</ele>
        <time>2022-07-19T14:14:29.735Z</time>
      </trkpt>
      <trkpt lat="43.35625" lon="-1.56587">
        <ele>17.875582</ele>
        <time>2022-07-19T14:14:32.351Z</time>
      </trkpt>
      <trkpt lat="43.35624" lon="-1.56576">
        <ele>17.848906</ele>
        <time>2022-07-19T14:14:33.743Z</time>
      </trkpt>
      <trkpt lat="43.35622" lon="-1.56509">
        <ele>17.687825</ele>
        <time>2022-07-19T14:14:42.256Z</time>
      </trkpt>
      <trkpt lat="43.35617" lon="-1.56498">
        <ele>17.65579</ele>
        <time>2022-07-19T14:14:45.093Z</time>
      </trkpt>
      <trkpt lat="43.35613" lon="-1.56369">
        <ele>17.295456</ele>
        <time>2022-07-19T14:15:11.427Z</time>
      </trkpt>
      <trkpt lat="43.3561" lon="-1.56264">
        <ele>16.753987</ele>
        <time>2022-07-19T14:15:32.687Z</time>
      </trkpt>
      <trkpt lat="43.35611" lon="-1.56201">
        <ele>16.425868</ele>
        <time>2022-07-19T14:15:45.585Z</time>
      </trkpt>
      <trkpt lat="43.35619" lon="-1.56124">
        <ele>16.073282</ele>
        <time>2022-07-19T14:16:01.520Z</time>
      </trkpt>
      <trkpt lat="43.35649" lon="-1.56079">
        <ele>15.943223</ele>
        <time>2022-07-19T14:16:14.198Z</time>
      </trkpt>
      <trkpt lat="43.35642" lon="-1.56065">
        <ele>15.906589</ele>
        <time>2022-07-19T14:16:16.273Z</time>
      </trkpt>
      <trkpt lat="43.35629" lon="-1.56039">
        <ele>15.839433</ele>
        <time>2022-07-19T14:16:21.457Z</time>
      </trkpt>
      <trkpt lat="43.35606" lon="-1.56001">
        <ele>15.733619</ele>
        <time>2022-07-19T14:16:27.808Z</time>
      </trkpt>
      <trkpt lat="43.356" lon="-1.55993">
        <ele>15.709772</ele>
        <time>2022-07-19T14:16:29.274Z</time>
      </trkpt>
      <trkpt lat="43.35597" lon="-1.55987">
        <ele>15.694561</ele>
        <time>2022-07-19T14:16:30.296Z</time>
      </trkpt>
      <trkpt lat="43.35591" lon="-1.55957">
        <ele>15.628182</ele>
        <time>2022-07-19T14:16:34.845Z</time>
      </trkpt>
      <trkpt lat="43.35585" lon="-1.55953">
        <ele>15.608068</ele>
        <time>2022-07-19T14:16:36.086Z</time>
      </trkpt>
      <trkpt lat="43.35548" lon="-1.55943">
        <ele>15.738925</ele>
        <time>2022-07-19T14:16:43.631Z</time>
      </trkpt>
      <trkpt lat="43.35482" lon="-1.55936">
        <ele>16.116097</ele>
        <time>2022-07-19T14:16:56.973Z</time>
      </trkpt>
      <trkpt lat="43.35463" lon="-1.55919">
        <ele>16.2435</ele>
        <time>2022-07-19T14:17:02.069Z</time>
      </trkpt>
      <trkpt lat="43.35475" lon="-1.55903">
        <ele>16.336628</ele>
        <time>2022-07-19T14:17:05.275Z</time>
      </trkpt>
      <trkpt lat="43.35463" lon="-1.55863">
        <ele>16.517227</ele>
        <time>2022-07-19T14:17:12.084Z</time>
      </trkpt>
      <trkpt lat="43.3544" lon="-1.55828">
        <ele>16.739107</ele>
        <time>2022-07-19T14:17:19.699Z</time>
      </trkpt>
      <trkpt lat="43.35411" lon="-1.55801">
        <ele>16.991914</ele>
        <time>2022-07-19T14:17:27.748Z</time>
      </trkpt>
      <trkpt lat="43.35396" lon="-1.55777">
        <ele>17.148937</ele>
        <time>2022-07-19T14:17:33.049Z</time>
      </trkpt>
      <trkpt lat="43.35364" lon="-1.55678">
        <ele>17.708374</ele>
        <time>2022-07-19T14:17:49.119Z</time>
      </trkpt>
      <trkpt lat="43.35343" lon="-1.55598">
        <ele>17.894047</ele>
        <time>2022-07-19T14:18:02.040Z</time>
      </trkpt>
      <trkpt lat="43.35325" lon="-1.55557">
        <ele>17.911266</ele>
        <time>2022-07-19T14:18:09.287Z</time>
      </trkpt>
      <trkpt lat="43.35285" lon="-1.55483">
        <ele>17.944547</ele>
        <time>2022-07-19T14:18:21.708Z</time>
      </trkpt>
      <trkpt lat="43.35257" lon="-1.55333">
        <ele>17.588154</ele>
        <time>2022-07-19T14:18:40.880Z</time>
      </trkpt>
      <trkpt lat="43.35248" lon="-1.55318">
        <ele>17.511047</ele>
        <time>2022-07-19T14:18:43.330Z</time>
      </trkpt>
      <trkpt lat="43.35214" lon="-1.55254">
        <ele>17.215534</ele>
        <time>2022-07-19T14:18:53.520Z</time>
      </trkpt>
      <trkpt lat="43.35199" lon="-1.55244">
        <ele>17.131122</ele>
        <time>2022-07-19T14:18:56.286Z</time>
      </trkpt>
      <trkpt lat="43.35105" lon="-1.55262">
        <ele>17.638526</ele>
        <time>2022-07-19T14:19:13.897Z</time>
      </trkpt>
      <trkpt lat="43.34994" lon="-1.55257">
        <ele>18.740994</ele>
        <time>2022-07-19T14:19:39.093Z</time>
      </trkpt>
      <trkpt lat="43.34963" lon="-1.55249">
        <ele>19.955214</ele>
        <time>2022-07-19T14:19:48.421Z</time>
      </trkpt>
      <trkpt lat="43.34858" lon="-1.55229">
        <ele>24.020312</ele>
        <time>2022-07-19T14:20:26.401Z</time>
      </trkpt>
      <trkpt lat="43.34859" lon="-1.55221">
        <ele>24.252035</ele>
        <time>2022-07-19T14:20:28.449Z</time>
      </trkpt>
      <trkpt lat="43.34866" lon="-1.55185">
        <ele>25.286298</ele>
        <time>2022-07-19T14:20:39.864Z</time>
      </trkpt>
      <trkpt lat="43.34869" lon="-1.55176">
        <ele>25.608107</ele>
        <time>2022-07-19T14:20:42.379Z</time>
      </trkpt>
      <trkpt lat="43.34863" lon="-1.55171">
        <ele>25.910438</ele>
        <time>2022-07-19T14:20:44.680Z</time>
      </trkpt>
      <trkpt lat="43.34846" lon="-1.55155">
        <ele>26.830538</ele>
        <time>2022-07-19T14:20:53.413Z</time>
      </trkpt>
      <trkpt lat="43.34846" lon="-1.55138">
        <ele>27.378167</ele>
        <time>2022-07-19T14:20:57.134Z</time>
      </trkpt>
      <trkpt lat="43.34855" lon="-1.55117">
        <ele>28.174172</ele>
        <time>2022-07-19T14:21:04.451Z</time>
      </trkpt>
      <trkpt lat="43.34874" lon="-1.55101">
        <ele>29.140149</ele>
        <time>2022-07-19T14:21:12.174Z</time>
      </trkpt>
      <trkpt lat="43.34904" lon="-1.55034">
        <ele>31.652609</ele>
        <time>2022-07-19T14:21:35.009Z</time>
      </trkpt>
      <trkpt lat="43.34915" lon="-1.54986">
        <ele>33.210046</ele>
        <time>2022-07-19T14:21:47.005Z</time>
      </trkpt>
      <trkpt lat="43.34925" lon="-1.54965">
        <ele>33.339335</ele>
        <time>2022-07-19T14:21:51.085Z</time>
      </trkpt>
      <trkpt lat="43.34904" lon="-1.54965">
        <ele>33.490761</ele>
        <time>2022-07-19T14:21:57.455Z</time>
      </trkpt>
      <trkpt lat="43.34873" lon="-1.54919">
        <ele>33.806579</ele>
        <time>2022-07-19T14:22:08.316Z</time>
      </trkpt>
      <trkpt lat="43.34778" lon="-1.54836">
        <ele>34.072908</ele>
        <time>2022-07-19T14:22:27.766Z</time>
      </trkpt>
      <trkpt lat="43.34755" lon="-1.54793">
        <ele>33.284801</ele>
        <time>2022-07-19T14:22:33.891Z</time>
      </trkpt>
      <trkpt lat="43.34744" lon="-1.5475">
        <ele>32.614996</ele>
        <time>2022-07-19T14:22:38.824Z</time>
      </trkpt>
      <trkpt lat="43.3472" lon="-1.54693">
        <ele>31.643153</ele>
        <time>2022-07-19T14:22:45.779Z</time>
      </trkpt>
      <trkpt lat="43.34693" lon="-1.54605">
        <ele>30.629724</ele>
        <time>2022-07-19T14:22:56.304Z</time>
      </trkpt>
      <trkpt lat="43.34685" lon="-1.54548">
        <ele>30.388984</ele>
        <time>2022-07-19T14:23:02.752Z</time>
      </trkpt>
      <trkpt lat="43.34678" lon="-1.54494">
        <ele>30.157355</ele>
        <time>2022-07-19T14:23:09.822Z</time>
      </trkpt>
      <trkpt lat="43.34688" lon="-1.54482">
        <ele>30.077825</ele>
        <time>2022-07-19T14:23:12.884Z</time>
      </trkpt>
      <trkpt lat="43.34678" lon="-1.5443">
        <ele>29.853224</ele>
        <time>2022-07-19T14:23:21.355Z</time>
      </trkpt>
      <trkpt lat="43.34674" lon="-1.54364">
        <ele>30.129182</ele>
        <time>2022-07-19T14:23:31.520Z</time>
      </trkpt>
      <trkpt lat="43.34673" lon="-1.54279">
        <ele>30.843518</ele>
        <time>2022-07-19T14:23:46.863Z</time>
      </trkpt>
      <trkpt lat="43.34667" lon="-1.54235">
        <ele>31.219909</ele>
        <time>2022-07-19T14:23:54.621Z</time>
      </trkpt>
      <trkpt lat="43.3465" lon="-1.54177">
        <ele>31.744072</ele>
        <time>2022-07-19T14:24:04.341Z</time>
      </trkpt>
      <trkpt lat="43.34591" lon="-1.54058">
        <ele>32.239995</ele>
        <time>2022-07-19T14:24:24.924Z</time>
      </trkpt>
      <trkpt lat="43.34579" lon="-1.54024">
        <ele>32.349951</ele>
        <time>2022-07-19T14:24:29.598Z</time>
      </trkpt>
      <trkpt lat="43.34568" lon="-1.53959">
        <ele>32.552069</ele>
        <time>2022-07-19T14:24:38.775Z</time>
      </trkpt>
      <trkpt lat="43.34568" lon="-1.53905">
        <ele>32.891625</ele>
        <time>2022-07-19T14:24:46.365Z</time>
      </trkpt>
      <trkpt lat="43.34565" lon="-1.53861">
        <ele>33.200108</ele>
        <time>2022-07-19T14:24:52.738Z</time>
      </trkpt>
      <trkpt lat="43.34524" lon="-1.53674">
        <ele>34.603984</ele>
        <time>2022-07-19T14:25:25.582Z</time>
      </trkpt>
      <trkpt lat="43.34488" lon="-1.53413">
        <ele>36.231068</ele>
        <time>2022-07-19T14:26:08.537Z</time>
      </trkpt>
      <trkpt lat="43.34462" lon="-1.53096">
        <ele>35.91678</ele>
        <time>2022-07-19T14:26:47.445Z</time>
      </trkpt>
      <trkpt lat="43.34452" lon="-1.53016">
        <ele>35.775273</ele>
        <time>2022-07-19T14:26:57.596Z</time>
      </trkpt>
      <trkpt lat="43.3444" lon="-1.5296">
        <ele>35.884736</ele>
        <time>2022-07-19T14:27:05.248Z</time>
      </trkpt>
      <trkpt lat="43.34412" lon="-1.52904">
        <ele>36.514534</ele>
        <time>2022-07-19T14:27:15.470Z</time>
      </trkpt>
      <trkpt lat="43.3436" lon="-1.52813">
        <ele>37.601106</ele>
        <time>2022-07-19T14:27:35.653Z</time>
      </trkpt>
      <trkpt lat="43.34345" lon="-1.52803">
        <ele>37.817456</ele>
        <time>2022-07-19T14:27:40.118Z</time>
      </trkpt>
      <trkpt lat="43.34331" lon="-1.52804">
        <ele>37.996378</ele>
        <time>2022-07-19T14:27:43.768Z</time>
      </trkpt>
      <trkpt lat="43.3432" lon="-1.52788">
        <ele>38.278637</ele>
        <time>2022-07-19T14:27:47.989Z</time>
      </trkpt>
      <trkpt lat="43.34323" lon="-1.52766">
        <ele>38.591679</ele>
        <time>2022-07-19T14:27:52.303Z</time>
      </trkpt>
      <trkpt lat="43.34321" lon="-1.52744">
        <ele>38.901848</ele>
        <time>2022-07-19T14:27:56.642Z</time>
      </trkpt>
      <trkpt lat="43.34317" lon="-1.52737">
        <ele>39.037187</ele>
        <time>2022-07-19T14:27:58.610Z</time>
      </trkpt>
      <trkpt lat="43.3431" lon="-1.52726">
        <ele>39.239648</ele>
        <time>2022-07-19T14:28:01.298Z</time>
      </trkpt>
      <trkpt lat="43.34276" lon="-1.52667">
        <ele>40.297476</ele>
        <time>2022-07-19T14:28:15.774Z</time>
      </trkpt>
      <trkpt lat="43.34271" lon="-1.5266">
        <ele>40.435697</ele>
        <time>2022-07-19T14:28:17.724Z</time>
      </trkpt>
      <trkpt lat="43.34244" lon="-1.52613">
        <ele>41.269113</ele>
        <time>2022-07-19T14:28:28.486Z</time>
      </trkpt>
      <trkpt lat="43.34167" lon="-1.52488">
        <ele>42.299893</ele>
        <time>2022-07-19T14:28:54.968Z</time>
      </trkpt>
      <trkpt lat="43.34149" lon="-1.52453">
        <ele>42.531635</ele>
        <time>2022-07-19T14:29:00.856Z</time>
      </trkpt>
      <trkpt lat="43.34142" lon="-1.52436">
        <ele>42.634292</ele>
        <time>2022-07-19T14:29:03.347Z</time>
      </trkpt>
      <trkpt lat="43.3409" lon="-1.52312">
        <ele>42.838167</ele>
        <time>2022-07-19T14:29:21.769Z</time>
      </trkpt>
      <trkpt lat="43.34079" lon="-1.52288">
        <ele>42.838888</ele>
        <time>2022-07-19T14:29:25.378Z</time>
      </trkpt>
      <trkpt lat="43.3398" lon="-1.52055">
        <ele>43.146325</ele>
        <time>2022-07-19T14:30:00.447Z</time>
      </trkpt>
      <trkpt lat="43.33975" lon="-1.5204">
        <ele>43.177752</ele>
        <time>2022-07-19T14:30:02.633Z</time>
      </trkpt>
      <trkpt lat="43.3397" lon="-1.52028">
        <ele>43.20486</ele>
        <time>2022-07-19T14:30:04.639Z</time>
      </trkpt>
      <trkpt lat="43.33846" lon="-1.51736">
        <ele>45.23605</ele>
        <time>2022-07-19T14:30:56.727Z</time>
      </trkpt>
      <trkpt lat="43.33835" lon="-1.5171">
        <ele>45.559333</ele>
        <time>2022-07-19T14:31:01.750Z</time>
      </trkpt>
      <trkpt lat="43.33773" lon="-1.51561">
        <ele>47.454047</ele>
        <time>2022-07-19T14:31:32.535Z</time>
      </trkpt>
      <trkpt lat="43.33748" lon="-1.51497">
        <ele>48.259453</ele>
        <time>2022-07-19T14:31:45.621Z</time>
      </trkpt>
      <trkpt lat="43.33643" lon="-1.51157">
        <ele>52.899686</ele>
        <time>2022-07-19T14:32:49.353Z</time>
      </trkpt>
      <trkpt lat="43.33624" lon="-1.5104">
        <ele>55.570541</ele>
        <time>2022-07-19T14:33:13.995Z</time>
      </trkpt>
      <trkpt lat="43.33587" lon="-1.50738">
        <ele>66.118595</ele>
        <time>2022-07-19T14:34:40.015Z</time>
      </trkpt>
      <trkpt lat="43.33598" lon="-1.50734">
        <ele>66.681821</ele>
        <time>2022-07-19T14:34:46.671Z</time>
      </trkpt>
      <trkpt lat="43.33602" lon="-1.50724">
        <ele>67.112771</ele>
        <time>2022-07-19T14:34:49.320Z</time>
      </trkpt>
      <trkpt lat="43.33604" lon="-1.50681">
        <ele>68.711334</ele>
        <time>2022-07-19T14:35:01.709Z</time>
      </trkpt>
      <trkpt lat="43.33613" lon="-1.50644">
        <ele>70.150085</ele>
        <time>2022-07-19T14:35:11.772Z</time>
      </trkpt>
      <trkpt lat="43.33631" lon="-1.50638">
        <ele>71.102026</ele>
        <time>2022-07-19T14:35:18.230Z</time>
      </trkpt>
      <trkpt lat="43.33656" lon="-1.50646">
        <ele>72.135096</ele>
        <time>2022-07-19T14:35:28.538Z</time>
      </trkpt>
      <trkpt lat="43.33733" lon="-1.50752">
        <ele>76.418838</ele>
        <time>2022-07-19T14:36:00.549Z</time>
      </trkpt>
      <trkpt lat="43.33736" lon="-1.50773">
        <ele>77.036941</ele>
        <time>2022-07-19T14:36:05.991Z</time>
      </trkpt>
      <trkpt lat="43.33732" lon="-1.50834">
        <ele>79.191373</ele>
        <time>2022-07-19T14:36:24.703Z</time>
      </trkpt>
      <trkpt lat="43.33739" lon="-1.50877">
        <ele>81.326024</ele>
        <time>2022-07-19T14:36:38.474Z</time>
      </trkpt>
      <trkpt lat="43.33762" lon="-1.5091">
        <ele>83.523115</ele>
        <time>2022-07-19T14:36:52.736Z</time>
      </trkpt>
      <trkpt lat="43.33799" lon="-1.50933">
        <ele>86.242539</ele>
        <time>2022-07-19T14:37:11.348Z</time>
      </trkpt>
      <trkpt lat="43.33824" lon="-1.50929">
        <ele>87.902958</ele>
        <time>2022-07-19T14:37:23.738Z</time>
      </trkpt>
      <trkpt lat="43.33831" lon="-1.50913">
        <ele>88.848408</ele>
        <time>2022-07-19T14:37:30.132Z</time>
      </trkpt>
      <trkpt lat="43.33832" lon="-1.50843">
        <ele>92.365379</ele>
        <time>2022-07-19T14:37:56.494Z</time>
      </trkpt>
      <trkpt lat="43.33835" lon="-1.5082">
        <ele>93.578876</ele>
        <time>2022-07-19T14:38:05.676Z</time>
      </trkpt>
      <trkpt lat="43.33879" lon="-1.50651">
        <ele>102.859315</ele>
        <time>2022-07-19T14:39:06.333Z</time>
      </trkpt>
      <trkpt lat="43.33889" lon="-1.50634">
        <ele>103.591803</ele>
        <time>2022-07-19T14:39:13.201Z</time>
      </trkpt>
      <trkpt lat="43.339" lon="-1.50625">
        <ele>104.112439</ele>
        <time>2022-07-19T14:39:18.255Z</time>
      </trkpt>
      <trkpt lat="43.33947" lon="-1.50617">
        <ele>106.06204</ele>
        <time>2022-07-19T14:39:36.268Z</time>
      </trkpt>
      <trkpt lat="43.33971" lon="-1.50605">
        <ele>107.089705</ele>
        <time>2022-07-19T14:39:44.903Z</time>
      </trkpt>
      <trkpt lat="43.33988" lon="-1.50594">
        <ele>107.876244</ele>
        <time>2022-07-19T14:39:51.157Z</time>
      </trkpt>
      <trkpt lat="43.34009" lon="-1.50567">
        <ele>109.069616</ele>
        <time>2022-07-19T14:39:59.822Z</time>
      </trkpt>
      <trkpt lat="43.34016" lon="-1.50545">
        <ele>109.791885</ele>
        <time>2022-07-19T14:40:04.962Z</time>
      </trkpt>
      <trkpt lat="43.34017" lon="-1.50525">
        <ele>110.401745</ele>
        <time>2022-07-19T14:40:08.933Z</time>
      </trkpt>
      <trkpt lat="43.34006" lon="-1.50366">
        <ele>114.309341</ele>
        <time>2022-07-19T14:40:40.832Z</time>
      </trkpt>
      <trkpt lat="43.34032" lon="-1.50217">
        <ele>119.584906</ele>
        <time>2022-07-19T14:41:23.649Z</time>
      </trkpt>
      <trkpt lat="43.34055" lon="-1.50153">
        <ele>123.04874</ele>
        <time>2022-07-19T14:41:50.049Z</time>
      </trkpt>
      <trkpt lat="43.34115" lon="-1.50049">
        <ele>128.778119</ele>
        <time>2022-07-19T14:42:35.632Z</time>
      </trkpt>
      <trkpt lat="43.34131" lon="-1.49987">
        <ele>130.125093</ele>
        <time>2022-07-19T14:42:56.848Z</time>
      </trkpt>
      <trkpt lat="43.34252" lon="-1.49764">
        <ele>130.743999</ele>
        <time>2022-07-19T14:43:38.288Z</time>
      </trkpt>
      <trkpt lat="43.34261" lon="-1.49738">
        <ele>130.095784</ele>
        <time>2022-07-19T14:43:41.166Z</time>
      </trkpt>
      <trkpt lat="43.34282" lon="-1.49654">
        <ele>128.142965</ele>
        <time>2022-07-19T14:43:49.473Z</time>
      </trkpt>
      <trkpt lat="43.34299" lon="-1.49515">
        <ele>119.73622</ele>
        <time>2022-07-19T14:44:02.037Z</time>
      </trkpt>
      <trkpt lat="43.34286" lon="-1.49419">
        <ele>113.582844</ele>
        <time>2022-07-19T14:44:10.542Z</time>
      </trkpt>
      <trkpt lat="43.34226" lon="-1.4917">
        <ele>97.686263</ele>
        <time>2022-07-19T14:44:33.739Z</time>
      </trkpt>
      <trkpt lat="43.34232" lon="-1.49127">
        <ele>96.010752</ele>
        <time>2022-07-19T14:44:37.864Z</time>
      </trkpt>
      <trkpt lat="43.34243" lon="-1.49108">
        <ele>95.14359</ele>
        <time>2022-07-19T14:44:40.198Z</time>
      </trkpt>
      <trkpt lat="43.34278" lon="-1.49074">
        <ele>93.017008</ele>
        <time>2022-07-19T14:44:46.000Z</time>
      </trkpt>
      <trkpt lat="43.34307" lon="-1.48998">
        <ele>89.909501</ele>
        <time>2022-07-19T14:44:54.565Z</time>
      </trkpt>
      <trkpt lat="43.34356" lon="-1.48972">
        <ele>87.656371</ele>
        <time>2022-07-19T14:45:01.903Z</time>
      </trkpt>
      <trkpt lat="43.34335" lon="-1.48834">
        <ele>84.033432</ele>
        <time>2022-07-19T14:45:15.990Z</time>
      </trkpt>
      <trkpt lat="43.34285" lon="-1.48566">
        <ele>79.536807</ele>
        <time>2022-07-19T14:45:45.518Z</time>
      </trkpt>
      <trkpt lat="43.34279" lon="-1.48545">
        <ele>79.255556</ele>
        <time>2022-07-19T14:45:48.486Z</time>
      </trkpt>
      <trkpt lat="43.34222" lon="-1.48304">
        <ele>82.743179</ele>
        <time>2022-07-19T14:46:41.947Z</time>
      </trkpt>
      <trkpt lat="43.34179" lon="-1.48031">
        <ele>86.500984</ele>
        <time>2022-07-19T14:47:40.933Z</time>
      </trkpt>
      <trkpt lat="43.34179" lon="-1.48009">
        <ele>85.914793</ele>
        <time>2022-07-19T14:47:43.484Z</time>
      </trkpt>
      <trkpt lat="43.34173" lon="-1.47998">
        <ele>85.530707</ele>
        <time>2022-07-19T14:47:45.224Z</time>
      </trkpt>
      <trkpt lat="43.34177" lon="-1.47989">
        <ele>85.264546</ele>
        <time>2022-07-19T14:47:46.728Z</time>
      </trkpt>
      <trkpt lat="43.34167" lon="-1.47961">
        <ele>84.43474</ele>
        <time>2022-07-19T14:47:49.888Z</time>
      </trkpt>
      <trkpt lat="43.34163" lon="-1.47901">
        <ele>82.775844</ele>
        <time>2022-07-19T14:47:55.906Z</time>
      </trkpt>
      <trkpt lat="43.34121" lon="-1.47821">
        <ele>80.064004</ele>
        <time>2022-07-19T14:48:04.905Z</time>
      </trkpt>
      <trkpt lat="43.34114" lon="-1.47798">
        <ele>79.156794</ele>
        <time>2022-07-19T14:48:07.155Z</time>
      </trkpt>
      <trkpt lat="43.34107" lon="-1.47703">
        <ele>75.735808</ele>
        <time>2022-07-19T14:48:16.067Z</time>
      </trkpt>
      <trkpt lat="43.34101" lon="-1.47564">
        <ele>71.22981</ele>
        <time>2022-07-19T14:48:30.229Z</time>
      </trkpt>
      <trkpt lat="43.34104" lon="-1.47551">
        <ele>71.144789</ele>
        <time>2022-07-19T14:48:31.593Z</time>
      </trkpt>
      <trkpt lat="43.34089" lon="-1.47538">
        <ele>70.988215</ele>
        <time>2022-07-19T14:48:34.538Z</time>
      </trkpt>
      <trkpt lat="43.34081" lon="-1.47547">
        <ele>70.900488</ele>
        <time>2022-07-19T14:48:36.035Z</time>
      </trkpt>
      <trkpt lat="43.34072" lon="-1.47542">
        <ele>70.812218</ele>
        <time>2022-07-19T14:48:37.680Z</time>
      </trkpt>
      <trkpt lat="43.34069" lon="-1.47529">
        <ele>70.721504</ele>
        <time>2022-07-19T14:48:40.040Z</time>
      </trkpt>
      <trkpt lat="43.3408" lon="-1.47518">
        <ele>70.605317</ele>
        <time>2022-07-19T14:48:42.525Z</time>
      </trkpt>
      <trkpt lat="43.34084" lon="-1.47434">
        <ele>70.055136</ele>
        <time>2022-07-19T14:48:54.435Z</time>
      </trkpt>
      <trkpt lat="43.34081" lon="-1.47417">
        <ele>69.941557</ele>
        <time>2022-07-19T14:48:56.361Z</time>
      </trkpt>
      <trkpt lat="43.34071" lon="-1.47328">
        <ele>69.025479</ele>
        <time>2022-07-19T14:49:07.115Z</time>
      </trkpt>
      <trkpt lat="43.34071" lon="-1.47314">
        <ele>68.850751</ele>
        <time>2022-07-19T14:49:08.579Z</time>
      </trkpt>
      <trkpt lat="43.34069" lon="-1.47299">
        <ele>68.673384</ele>
        <time>2022-07-19T14:49:10.155Z</time>
      </trkpt>
      <trkpt lat="43.34064" lon="-1.47292">
        <ele>68.549989</ele>
        <time>2022-07-19T14:49:11.440Z</time>
      </trkpt>
      <trkpt lat="43.34065" lon="-1.47273">
        <ele>68.319577</ele>
        <time>2022-07-19T14:49:13.413Z</time>
      </trkpt>
      <trkpt lat="43.34063" lon="-1.47256">
        <ele>68.104103</ele>
        <time>2022-07-19T14:49:15.259Z</time>
      </trkpt>
      <trkpt lat="43.34062" lon="-1.47249">
        <ele>68.018209</ele>
        <time>2022-07-19T14:49:16.047Z</time>
      </trkpt>
      <trkpt lat="43.34059" lon="-1.47242">
        <ele>67.918465</ele>
        <time>2022-07-19T14:49:17.014Z</time>
      </trkpt>
      <trkpt lat="43.34043" lon="-1.47206">
        <ele>67.402702</ele>
        <time>2022-07-19T14:49:21.280Z</time>
      </trkpt>
      <trkpt lat="43.33979" lon="-1.47069">
        <ele>66.153629</ele>
        <time>2022-07-19T14:49:38.595Z</time>
      </trkpt>
      <trkpt lat="43.33961" lon="-1.47042">
        <ele>65.963657</ele>
        <time>2022-07-19T14:49:42.879Z</time>
      </trkpt>
      <trkpt lat="43.33898" lon="-1.46973">
        <ele>65.458932</ele>
        <time>2022-07-19T14:49:59.073Z</time>
      </trkpt>
      <trkpt lat="43.33766" lon="-1.46878">
        <ele>66.912756</ele>
        <time>2022-07-19T14:50:33.055Z</time>
      </trkpt>
      <trkpt lat="43.33729" lon="-1.46825">
        <ele>66.942771</ele>
        <time>2022-07-19T14:50:43.788Z</time>
      </trkpt>
      <trkpt lat="43.33702" lon="-1.46745">
        <ele>66.390259</ele>
        <time>2022-07-19T14:50:54.800Z</time>
      </trkpt>
      <trkpt lat="43.33698" lon="-1.46717">
        <ele>66.20871</ele>
        <time>2022-07-19T14:50:58.129Z</time>
      </trkpt>
      <trkpt lat="43.337" lon="-1.46591">
        <ele>64.985734</ele>
        <time>2022-07-19T14:51:11.540Z</time>
      </trkpt>
      <trkpt lat="43.33699" lon="-1.46577">
        <ele>64.698183</ele>
        <time>2022-07-19T14:51:13.008Z</time>
      </trkpt>
      <trkpt lat="43.33696" lon="-1.46537">
        <ele>63.902404</ele>
        <time>2022-07-19T14:51:17.050Z</time>
      </trkpt>
      <trkpt lat="43.33649" lon="-1.46259">
        <ele>60.758288</ele>
        <time>2022-07-19T14:51:45.886Z</time>
      </trkpt>
      <trkpt lat="43.33638" lon="-1.46214">
        <ele>60.770624</ele>
        <time>2022-07-19T14:51:52.031Z</time>
      </trkpt>
      <trkpt lat="43.33638" lon="-1.46212">
        <ele>60.771146</ele>
        <time>2022-07-19T14:51:52.326Z</time>
      </trkpt>
      <trkpt lat="43.33583" lon="-1.46106">
        <ele>63.38244</ele>
        <time>2022-07-19T14:52:25.676Z</time>
      </trkpt>
      <trkpt lat="43.33557" lon="-1.46026">
        <ele>67.349189</ele>
        <time>2022-07-19T14:52:56.903Z</time>
      </trkpt>
      <trkpt lat="43.33547" lon="-1.45974">
        <ele>69.784526</ele>
        <time>2022-07-19T14:53:15.256Z</time>
      </trkpt>
      <trkpt lat="43.33547" lon="-1.45937">
        <ele>71.476662</ele>
        <time>2022-07-19T14:53:27.838Z</time>
      </trkpt>
      <trkpt lat="43.33549" lon="-1.45923">
        <ele>72.023349</ele>
        <time>2022-07-19T14:53:31.978Z</time>
      </trkpt>
      <trkpt lat="43.33558" lon="-1.45893">
        <ele>72.270693</ele>
        <time>2022-07-19T14:53:42.416Z</time>
      </trkpt>
      <trkpt lat="43.33574" lon="-1.45862">
        <ele>72.569485</ele>
        <time>2022-07-19T14:53:53.624Z</time>
      </trkpt>
      <trkpt lat="43.33767" lon="-1.45573">
        <ele>71.013724</ele>
        <time>2022-07-19T14:54:37.422Z</time>
      </trkpt>
      <trkpt lat="43.33793" lon="-1.45523">
        <ele>70.024648</ele>
        <time>2022-07-19T14:54:43.316Z</time>
      </trkpt>
      <trkpt lat="43.33839" lon="-1.45406">
        <ele>67.552469</ele>
        <time>2022-07-19T14:54:56.644Z</time>
      </trkpt>
      <trkpt lat="43.33877" lon="-1.45358">
        <ele>66.227063</ele>
        <time>2022-07-19T14:55:04.148Z</time>
      </trkpt>
      <trkpt lat="43.33926" lon="-1.45309">
        <ele>66.214232</ele>
        <time>2022-07-19T14:55:13.664Z</time>
      </trkpt>
      <trkpt lat="43.33938" lon="-1.45298">
        <ele>66.272631</ele>
        <time>2022-07-19T14:55:16.026Z</time>
      </trkpt>
      <trkpt lat="43.33973" lon="-1.45255">
        <ele>66.45637</ele>
        <time>2022-07-19T14:55:24.191Z</time>
      </trkpt>
      <trkpt lat="43.33984" lon="-1.45229">
        <ele>66.537854</ele>
        <time>2022-07-19T14:55:28.674Z</time>
      </trkpt>
      <trkpt lat="43.3399" lon="-1.45195">
        <ele>66.638863</ele>
        <time>2022-07-19T14:55:35.976Z</time>
      </trkpt>
      <trkpt lat="43.33993" lon="-1.45165">
        <ele>66.812148</ele>
        <time>2022-07-19T14:55:42.379Z</time>
      </trkpt>
      <trkpt lat="43.33991" lon="-1.45146">
        <ele>67.337056</ele>
        <time>2022-07-19T14:55:46.981Z</time>
      </trkpt>
      <trkpt lat="43.33999" lon="-1.45135">
        <ele>67.785079</ele>
        <time>2022-07-19T14:55:50.875Z</time>
      </trkpt>
      <trkpt lat="43.34009" lon="-1.45136">
        <ele>68.155773</ele>
        <time>2022-07-19T14:55:54.281Z</time>
      </trkpt>
      <trkpt lat="43.3401" lon="-1.45137">
        <ele>68.197698</ele>
        <time>2022-07-19T14:55:54.686Z</time>
      </trkpt>
      <trkpt lat="43.34029" lon="-1.45131">
        <ele>68.918381</ele>
        <time>2022-07-19T14:56:01.249Z</time>
      </trkpt>
      <trkpt lat="43.34055" lon="-1.45077">
        <ele>70.680409</ele>
        <time>2022-07-19T14:56:18.164Z</time>
      </trkpt>
      <trkpt lat="43.34093" lon="-1.44985">
        <ele>73.511879</ele>
        <time>2022-07-19T14:56:44.400Z</time>
      </trkpt>
      <trkpt lat="43.34117" lon="-1.44943">
        <ele>74.359265</ele>
        <time>2022-07-19T14:56:57.376Z</time>
      </trkpt>
      <trkpt lat="43.34117" lon="-1.44941">
        <ele>74.396575</ele>
        <time>2022-07-19T14:56:57.889Z</time>
      </trkpt>
      <trkpt lat="43.34113" lon="-1.44927">
        <ele>74.626437</ele>
        <time>2022-07-19T14:57:01.316Z</time>
      </trkpt>
      <trkpt lat="43.34075" lon="-1.44899">
        <ele>75.580303</ele>
        <time>2022-07-19T14:57:14.582Z</time>
      </trkpt>
      <trkpt lat="43.34067" lon="-1.44895">
        <ele>75.747116</ele>
        <time>2022-07-19T14:57:16.722Z</time>
      </trkpt>
      <trkpt lat="43.3402" lon="-1.4488">
        <ele>76.804516</ele>
        <time>2022-07-19T14:57:28.196Z</time>
      </trkpt>
      <trkpt lat="43.34" lon="-1.44868">
        <ele>77.286504</ele>
        <time>2022-07-19T14:57:32.439Z</time>
      </trkpt>
      <trkpt lat="43.33988" lon="-1.4486">
        <ele>77.277134</ele>
        <time>2022-07-19T14:57:34.943Z</time>
      </trkpt>
      <trkpt lat="43.33977" lon="-1.44854">
        <ele>77.182973</ele>
        <time>2022-07-19T14:57:36.992Z</time>
      </trkpt>
      <trkpt lat="43.33974" lon="-1.44851">
        <ele>77.156023</ele>
        <time>2022-07-19T14:57:37.571Z</time>
      </trkpt>
      <trkpt lat="43.33933" lon="-1.4482">
        <ele>76.775265</ele>
        <time>2022-07-19T14:57:45.842Z</time>
      </trkpt>
      <trkpt lat="43.33915" lon="-1.44803">
        <ele>76.605761</ele>
        <time>2022-07-19T14:57:49.598Z</time>
      </trkpt>
      <trkpt lat="43.33946" lon="-1.44717">
        <ele>76.046452</ele>
        <time>2022-07-19T14:58:01.227Z</time>
      </trkpt>
      <trkpt lat="43.33948" lon="-1.44704">
        <ele>75.967736</ele>
        <time>2022-07-19T14:58:02.780Z</time>
      </trkpt>
      <trkpt lat="43.33959" lon="-1.44711">
        <ele>75.74427</ele>
        <time>2022-07-19T14:58:04.623Z</time>
      </trkpt>
      <trkpt lat="43.34012" lon="-1.44741">
        <ele>73.793763</ele>
        <time>2022-07-19T14:58:12.916Z</time>
      </trkpt>
      <trkpt lat="43.34021" lon="-1.44686">
        <ele>72.39393</ele>
        <time>2022-07-19T14:58:18.687Z</time>
      </trkpt>
      <trkpt lat="43.34024" lon="-1.4467">
        <ele>71.967841</ele>
        <time>2022-07-19T14:58:20.404Z</time>
      </trkpt>
      <trkpt lat="43.34038" lon="-1.44623">
        <ele>70.706108</ele>
        <time>2022-07-19T14:58:25.450Z</time>
      </trkpt>
      <trkpt lat="43.34045" lon="-1.44616">
        <ele>70.41022</ele>
        <time>2022-07-19T14:58:26.637Z</time>
      </trkpt>
      <trkpt lat="43.34045" lon="-1.44576">
        <ele>69.487943</ele>
        <time>2022-07-19T14:58:30.436Z</time>
      </trkpt>
      <trkpt lat="43.34037" lon="-1.44556">
        <ele>69.004513</ele>
        <time>2022-07-19T14:58:32.809Z</time>
      </trkpt>
      <trkpt lat="43.33982" lon="-1.44525">
        <ele>67.314163</ele>
        <time>2022-07-19T14:58:40.975Z</time>
      </trkpt>
      <trkpt lat="43.33958" lon="-1.44499">
        <ele>66.448668</ele>
        <time>2022-07-19T14:58:45.324Z</time>
      </trkpt>
      <trkpt lat="43.33946" lon="-1.44485">
        <ele>66.001893</ele>
        <time>2022-07-19T14:58:47.761Z</time>
      </trkpt>
      <trkpt lat="43.33953" lon="-1.4446">
        <ele>65.450028</ele>
        <time>2022-07-19T14:58:50.485Z</time>
      </trkpt>
      <trkpt lat="43.33958" lon="-1.44444">
        <ele>65.072872</ele>
        <time>2022-07-19T14:58:52.777Z</time>
      </trkpt>
      <trkpt lat="43.33961" lon="-1.44437">
        <ele>64.912444</ele>
        <time>2022-07-19T14:58:53.824Z</time>
      </trkpt>
      <trkpt lat="43.33972" lon="-1.44409">
        <ele>64.84642</ele>
        <time>2022-07-19T14:58:57.637Z</time>
      </trkpt>
      <trkpt lat="43.33993" lon="-1.44381">
        <ele>65.317748</ele>
        <time>2022-07-19T14:59:03.282Z</time>
      </trkpt>
      <trkpt lat="43.34031" lon="-1.44352">
        <ele>66.021533</ele>
        <time>2022-07-19T14:59:13.258Z</time>
      </trkpt>
      <trkpt lat="43.34072" lon="-1.44337">
        <ele>66.700538</ele>
        <time>2022-07-19T14:59:23.961Z</time>
      </trkpt>
      <trkpt lat="43.34068" lon="-1.44326">
        <ele>66.847597</ele>
        <time>2022-07-19T14:59:26.738Z</time>
      </trkpt>
      <trkpt lat="43.34046" lon="-1.44308">
        <ele>67.250189</ele>
        <time>2022-07-19T14:59:33.850Z</time>
      </trkpt>
      <trkpt lat="43.34006" lon="-1.44317">
        <ele>68.973653</ele>
        <time>2022-07-19T14:59:46.350Z</time>
      </trkpt>
      <trkpt lat="43.33917" lon="-1.44299">
        <ele>74.444742</ele>
        <time>2022-07-19T15:00:23.697Z</time>
      </trkpt>
      <trkpt lat="43.33884" lon="-1.44253">
        <ele>77.310674</ele>
        <time>2022-07-19T15:00:44.535Z</time>
      </trkpt>
      <trkpt lat="43.33841" lon="-1.44224">
        <ele>81.641153</ele>
        <time>2022-07-19T15:01:12.211Z</time>
      </trkpt>
      <trkpt lat="43.33806" lon="-1.44173">
        <ele>87.230897</ele>
        <time>2022-07-19T15:01:43.853Z</time>
      </trkpt>
      <trkpt lat="43.33782" lon="-1.4412">
        <ele>92.218517</ele>
        <time>2022-07-19T15:02:12.806Z</time>
      </trkpt>
      <trkpt lat="43.33771" lon="-1.44084">
        <ele>95.379098</ele>
        <time>2022-07-19T15:02:32.744Z</time>
      </trkpt>
      <trkpt lat="43.33758" lon="-1.44052">
        <ele>98.314971</ele>
        <time>2022-07-19T15:02:51.017Z</time>
      </trkpt>
      <trkpt lat="43.33676" lon="-1.43926">
        <ele>113.293018</ele>
        <time>2022-07-19T15:04:14.525Z</time>
      </trkpt>
      <trkpt lat="43.33606" lon="-1.43783">
        <ele>129.454625</ele>
        <time>2022-07-19T15:05:37.387Z</time>
      </trkpt>
      <trkpt lat="43.33574" lon="-1.43699">
        <ele>138.652186</ele>
        <time>2022-07-19T15:06:31.378Z</time>
      </trkpt>
      <trkpt lat="43.33544" lon="-1.43651">
        <ele>144.865963</ele>
        <time>2022-07-19T15:07:06.393Z</time>
      </trkpt>
      <trkpt lat="43.33527" lon="-1.43646">
        <ele>147.246408</ele>
        <time>2022-07-19T15:07:19.026Z</time>
      </trkpt>
      <trkpt lat="43.33505" lon="-1.43649">
        <ele>150.323434</ele>
        <time>2022-07-19T15:07:34.266Z</time>
      </trkpt>
      <trkpt lat="43.33453" lon="-1.43679">
        <ele>158.087164</ele>
        <time>2022-07-19T15:08:14.399Z</time>
      </trkpt>
      <trkpt lat="43.3343" lon="-1.43687">
        <ele>161.386793</ele>
        <time>2022-07-19T15:08:32.625Z</time>
      </trkpt>
      <trkpt lat="43.33351" lon="-1.43702">
        <ele>171.708361</ele>
        <time>2022-07-19T15:09:33.430Z</time>
      </trkpt>
      <trkpt lat="43.33327" lon="-1.43696">
        <ele>174.347451</ele>
        <time>2022-07-19T15:09:50.875Z</time>
      </trkpt>
      <trkpt lat="43.33317" lon="-1.43677">
        <ele>176.32428</ele>
        <time>2022-07-19T15:10:03.072Z</time>
      </trkpt>
      <trkpt lat="43.33285" lon="-1.43528">
        <ele>188.901055</ele>
        <time>2022-07-19T15:11:08.885Z</time>
      </trkpt>
      <trkpt lat="43.33289" lon="-1.43498">
        <ele>190.015171</ele>
        <time>2022-07-19T15:11:21.479Z</time>
      </trkpt>
      <trkpt lat="43.33308" lon="-1.43439">
        <ele>192.043087</ele>
        <time>2022-07-19T15:11:44.645Z</time>
      </trkpt>
      <trkpt lat="43.33334" lon="-1.43378">
        <ele>194.266072</ele>
        <time>2022-07-19T15:12:03.562Z</time>
      </trkpt>
      <trkpt lat="43.33365" lon="-1.43364">
        <ele>195.684827</ele>
        <time>2022-07-19T15:12:12.028Z</time>
      </trkpt>
      <trkpt lat="43.33365" lon="-1.43307">
        <ele>196.344993</ele>
        <time>2022-07-19T15:12:19.548Z</time>
      </trkpt>
      <trkpt lat="43.33336" lon="-1.43098">
        <ele>189.288581</ele>
        <time>2022-07-19T15:12:40.395Z</time>
      </trkpt>
      <trkpt lat="43.33306" lon="-1.43007">
        <ele>183.409498</ele>
        <time>2022-07-19T15:12:49.078Z</time>
      </trkpt>
      <trkpt lat="43.33287" lon="-1.42922">
        <ele>177.675842</ele>
        <time>2022-07-19T15:12:56.760Z</time>
      </trkpt>
      <trkpt lat="43.33287" lon="-1.42902">
        <ele>176.348187</ele>
        <time>2022-07-19T15:12:58.548Z</time>
      </trkpt>
      <trkpt lat="43.33299" lon="-1.42857">
        <ele>173.280379</ele>
        <time>2022-07-19T15:13:02.697Z</time>
      </trkpt>
      <trkpt lat="43.33339" lon="-1.42814">
        <ele>171.862619</ele>
        <time>2022-07-19T15:13:09.004Z</time>
      </trkpt>
      <trkpt lat="43.3337" lon="-1.42766">
        <ele>170.887033</ele>
        <time>2022-07-19T15:13:15.712Z</time>
      </trkpt>
      <trkpt lat="43.33402" lon="-1.42739">
        <ele>170.122533</ele>
        <time>2022-07-19T15:13:24.643Z</time>
      </trkpt>
      <trkpt lat="43.33427" lon="-1.42649">
        <ele>169.4638</ele>
        <time>2022-07-19T15:13:44.252Z</time>
      </trkpt>
      <trkpt lat="43.3351" lon="-1.42623">
        <ele>171.249921</ele>
        <time>2022-07-19T15:14:10.682Z</time>
      </trkpt>
      <trkpt lat="43.33555" lon="-1.42522">
        <ele>172.491218</ele>
        <time>2022-07-19T15:14:33.002Z</time>
      </trkpt>
      <trkpt lat="43.33579" lon="-1.42478">
        <ele>171.355233</ele>
        <time>2022-07-19T15:14:39.682Z</time>
      </trkpt>
      <trkpt lat="43.33591" lon="-1.42418">
        <ele>170.049794</ele>
        <time>2022-07-19T15:14:46.130Z</time>
      </trkpt>
      <trkpt lat="43.33581" lon="-1.4237">
        <ele>168.993487</ele>
        <time>2022-07-19T15:14:51.151Z</time>
      </trkpt>
      <trkpt lat="43.33577" lon="-1.423">
        <ele>167.359228</ele>
        <time>2022-07-19T15:14:57.984Z</time>
      </trkpt>
      <trkpt lat="43.33583" lon="-1.4219">
        <ele>160.828796</ele>
        <time>2022-07-19T15:15:08.315Z</time>
      </trkpt>
      <trkpt lat="43.33574" lon="-1.42119">
        <ele>156.590561</ele>
        <time>2022-07-19T15:15:14.683Z</time>
      </trkpt>
      <trkpt lat="43.33572" lon="-1.42071">
        <ele>153.799307</ele>
        <time>2022-07-19T15:15:18.780Z</time>
      </trkpt>
      <trkpt lat="43.33571" lon="-1.4203">
        <ele>150.46196</ele>
        <time>2022-07-19T15:15:22.281Z</time>
      </trkpt>
      <trkpt lat="43.33599" lon="-1.41856">
        <ele>134.452848</ele>
        <time>2022-07-19T15:15:37.129Z</time>
      </trkpt>
      <trkpt lat="43.33623" lon="-1.4174">
        <ele>124.739242</ele>
        <time>2022-07-19T15:15:47.236Z</time>
      </trkpt>
      <trkpt lat="43.3362" lon="-1.41721">
        <ele>123.237598</ele>
        <time>2022-07-19T15:15:48.914Z</time>
      </trkpt>
      <trkpt lat="43.33606" lon="-1.41709">
        <ele>121.518834</ele>
        <time>2022-07-19T15:15:50.822Z</time>
      </trkpt>
      <trkpt lat="43.33501" lon="-1.41733">
        <ele>111.086054</ele>
        <time>2022-07-19T15:16:03.684Z</time>
      </trkpt>
      <trkpt lat="43.33489" lon="-1.41731">
        <ele>110.361906</ele>
        <time>2022-07-19T15:16:05.203Z</time>
      </trkpt>
      <trkpt lat="43.33483" lon="-1.41723">
        <ele>109.881956</ele>
        <time>2022-07-19T15:16:06.170Z</time>
      </trkpt>
      <trkpt lat="43.3348" lon="-1.41714">
        <ele>109.396035</ele>
        <time>2022-07-19T15:16:07.153Z</time>
      </trkpt>
      <trkpt lat="43.33487" lon="-1.41617">
        <ele>105.079013</ele>
        <time>2022-07-19T15:16:16.287Z</time>
      </trkpt>
      <trkpt lat="43.33485" lon="-1.41581">
        <ele>103.485608</ele>
        <time>2022-07-19T15:16:19.720Z</time>
      </trkpt>
      <trkpt lat="43.33404" lon="-1.41417">
        <ele>97.229432</ele>
        <time>2022-07-19T15:16:39.754Z</time>
      </trkpt>
      <trkpt lat="43.33356" lon="-1.413">
        <ele>93.856222</ele>
        <time>2022-07-19T15:16:53.801Z</time>
      </trkpt>
      <trkpt lat="43.33289" lon="-1.41199">
        <ele>91.025978</ele>
        <time>2022-07-19T15:17:08.572Z</time>
      </trkpt>
      <trkpt lat="43.33276" lon="-1.41196">
        <ele>90.666083</ele>
        <time>2022-07-19T15:17:10.402Z</time>
      </trkpt>
      <trkpt lat="43.3327" lon="-1.41133">
        <ele>89.365143</ele>
        <time>2022-07-19T15:17:16.824Z</time>
      </trkpt>
      <trkpt lat="43.33265" lon="-1.41036">
        <ele>87.069659</ele>
        <time>2022-07-19T15:17:26.452Z</time>
      </trkpt>
      <trkpt lat="43.33264" lon="-1.4093">
        <ele>84.562537</ele>
        <time>2022-07-19T15:17:36.820Z</time>
      </trkpt>
      <trkpt lat="43.33276" lon="-1.40871">
        <ele>83.202404</ele>
        <time>2022-07-19T15:17:42.918Z</time>
      </trkpt>
      <trkpt lat="43.33276" lon="-1.4085">
        <ele>82.80196</ele>
        <time>2022-07-19T15:17:45.018Z</time>
      </trkpt>
      <trkpt lat="43.33268" lon="-1.40816">
        <ele>82.117737</ele>
        <time>2022-07-19T15:17:48.687Z</time>
      </trkpt>
      <trkpt lat="43.33254" lon="-1.40735">
        <ele>80.529574</ele>
        <time>2022-07-19T15:17:57.312Z</time>
      </trkpt>
      <trkpt lat="43.33245" lon="-1.40644">
        <ele>78.788443</ele>
        <time>2022-07-19T15:18:06.961Z</time>
      </trkpt>
      <trkpt lat="43.33242" lon="-1.40575">
        <ele>77.384739</ele>
        <time>2022-07-19T15:18:14.191Z</time>
      </trkpt>
      <trkpt lat="43.33232" lon="-1.40488">
        <ele>75.583427</ele>
        <time>2022-07-19T15:18:23.316Z</time>
      </trkpt>
      <trkpt lat="43.33233" lon="-1.4037">
        <ele>72.680165</ele>
        <time>2022-07-19T15:18:35.035Z</time>
      </trkpt>
      <trkpt lat="43.33208" lon="-1.40242">
        <ele>67.894937</ele>
        <time>2022-07-19T15:18:47.281Z</time>
      </trkpt>
      <trkpt lat="43.33214" lon="-1.40129">
        <ele>63.677181</ele>
        <time>2022-07-19T15:18:57.501Z</time>
      </trkpt>
      <trkpt lat="43.33201" lon="-1.40051">
        <ele>60.536342</ele>
        <time>2022-07-19T15:19:04.668Z</time>
      </trkpt>
      <trkpt lat="43.33203" lon="-1.40012">
        <ele>58.999092</ele>
        <time>2022-07-19T15:19:08.148Z</time>
      </trkpt>
      <trkpt lat="43.33175" lon="-1.39923">
        <ele>55.190687</ele>
        <time>2022-07-19T15:19:17.047Z</time>
      </trkpt>
      <trkpt lat="43.33155" lon="-1.39894">
        <ele>54.816235</ele>
        <time>2022-07-19T15:19:21.002Z</time>
      </trkpt>
      <trkpt lat="43.33109" lon="-1.39848">
        <ele>54.095956</ele>
        <time>2022-07-19T15:19:29.375Z</time>
      </trkpt>
      <trkpt lat="43.33103" lon="-1.3984">
        <ele>53.985591</ele>
        <time>2022-07-19T15:19:30.868Z</time>
      </trkpt>
      <trkpt lat="43.33023" lon="-1.39762">
        <ele>52.838277</ele>
        <time>2022-07-19T15:19:49.958Z</time>
      </trkpt>
      <trkpt lat="43.32958" lon="-1.39701">
        <ele>52.474842</ele>
        <time>2022-07-19T15:20:04.959Z</time>
      </trkpt>
      <trkpt lat="43.32949" lon="-1.39695">
        <ele>52.429191</ele>
        <time>2022-07-19T15:20:06.926Z</time>
      </trkpt>
      <trkpt lat="43.32915" lon="-1.39673">
        <ele>52.259503</ele>
        <time>2022-07-19T15:20:13.214Z</time>
      </trkpt>
      <trkpt lat="43.32854" lon="-1.39628">
        <ele>51.066053</ele>
        <time>2022-07-19T15:20:23.559Z</time>
      </trkpt>
      <trkpt lat="43.32844" lon="-1.39612">
        <ele>50.516814</ele>
        <time>2022-07-19T15:20:25.711Z</time>
      </trkpt>
      <trkpt lat="43.32827" lon="-1.39552">
        <ele>48.849574</ele>
        <time>2022-07-19T15:20:31.934Z</time>
      </trkpt>
      <trkpt lat="43.32797" lon="-1.39521">
        <ele>47.516957</ele>
        <time>2022-07-19T15:20:36.703Z</time>
      </trkpt>
      <trkpt lat="43.32767" lon="-1.39492">
        <ele>46.21609</ele>
        <time>2022-07-19T15:20:41.436Z</time>
      </trkpt>
      <trkpt lat="43.32734" lon="-1.39462">
        <ele>45.1229</ele>
        <time>2022-07-19T15:20:46.696Z</time>
      </trkpt>
      <trkpt lat="43.32705" lon="-1.39428">
        <ele>44.252378</ele>
        <time>2022-07-19T15:20:51.818Z</time>
      </trkpt>
      <trkpt lat="43.32699" lon="-1.39408">
        <ele>43.897746</ele>
        <time>2022-07-19T15:20:53.882Z</time>
      </trkpt>
      <trkpt lat="43.32697" lon="-1.39376">
        <ele>43.356203</ele>
        <time>2022-07-19T15:20:57.109Z</time>
      </trkpt>
      <trkpt lat="43.32702" lon="-1.39176">
        <ele>44.897627</ele>
        <time>2022-07-19T15:21:21.774Z</time>
      </trkpt>
      <trkpt lat="43.32714" lon="-1.39122">
        <ele>46.914592</ele>
        <time>2022-07-19T15:21:39.421Z</time>
      </trkpt>
      <trkpt lat="43.32737" lon="-1.3906">
        <ele>49.413241</ele>
        <time>2022-07-19T15:22:06.790Z</time>
      </trkpt>
      <trkpt lat="43.3277" lon="-1.38981">
        <ele>53.782467</ele>
        <time>2022-07-19T15:22:43.836Z</time>
      </trkpt>
      <trkpt lat="43.32773" lon="-1.38975">
        <ele>54.158353</ele>
        <time>2022-07-19T15:22:46.584Z</time>
      </trkpt>
      <trkpt lat="43.32778" lon="-1.3896">
        <ele>55.027681</ele>
        <time>2022-07-19T15:22:53.158Z</time>
      </trkpt>
      <trkpt lat="43.32782" lon="-1.38926">
        <ele>56.855107</ele>
        <time>2022-07-19T15:23:06.513Z</time>
      </trkpt>
      <trkpt lat="43.32783" lon="-1.38879">
        <ele>59.375995</ele>
        <time>2022-07-19T15:23:23.551Z</time>
      </trkpt>
      <trkpt lat="43.3278" lon="-1.38804">
        <ele>63.376003</ele>
        <time>2022-07-19T15:23:46.049Z</time>
      </trkpt>
      <trkpt lat="43.32758" lon="-1.38727">
        <ele>64.204525</ele>
        <time>2022-07-19T15:24:02.582Z</time>
      </trkpt>
      <trkpt lat="43.32756" lon="-1.38653">
        <ele>64.770156</ele>
        <time>2022-07-19T15:24:11.218Z</time>
      </trkpt>
      <trkpt lat="43.3266" lon="-1.38509">
        <ele>67.146708</ele>
        <time>2022-07-19T15:24:37.477Z</time>
      </trkpt>
      <trkpt lat="43.32532" lon="-1.38271">
        <ele>73.506847</ele>
        <time>2022-07-19T15:25:47.710Z</time>
      </trkpt>
      <trkpt lat="43.3245" lon="-1.38051">
        <ele>79.519054</ele>
        <time>2022-07-19T15:26:44.913Z</time>
      </trkpt>
      <trkpt lat="43.32385" lon="-1.37806">
        <ele>85.324391</ele>
        <time>2022-07-19T15:27:38.702Z</time>
      </trkpt>
      <trkpt lat="43.32346" lon="-1.37682">
        <ele>89.085161</ele>
        <time>2022-07-19T15:28:09.673Z</time>
      </trkpt>
      <trkpt lat="43.32281" lon="-1.37578">
        <ele>94.305931</ele>
        <time>2022-07-19T15:28:49.587Z</time>
      </trkpt>
      <trkpt lat="43.32231" lon="-1.37463">
        <ele>100.794227</ele>
        <time>2022-07-19T15:29:31.155Z</time>
      </trkpt>
      <trkpt lat="43.32169" lon="-1.37301">
        <ele>111.237715</ele>
        <time>2022-07-19T15:30:39.871Z</time>
      </trkpt>
      <trkpt lat="43.32106" lon="-1.37188">
        <ele>120.546195</ele>
        <time>2022-07-19T15:31:35.970Z</time>
      </trkpt>
      <trkpt lat="43.32083" lon="-1.37131">
        <ele>124.77223</ele>
        <time>2022-07-19T15:32:02.927Z</time>
      </trkpt>
      <trkpt lat="43.3208" lon="-1.37123">
        <ele>125.338615</ele>
        <time>2022-07-19T15:32:06.622Z</time>
      </trkpt>
      <trkpt lat="43.32042" lon="-1.3701">
        <ele>131.584569</ele>
        <time>2022-07-19T15:32:52.375Z</time>
      </trkpt>
      <trkpt lat="43.3203" lon="-1.36978">
        <ele>133.248583</ele>
        <time>2022-07-19T15:33:03.602Z</time>
      </trkpt>
      <trkpt lat="43.31994" lon="-1.36817">
        <ele>140.009201</ele>
        <time>2022-07-19T15:33:47.481Z</time>
      </trkpt>
      <trkpt lat="43.31989" lon="-1.36746">
        <ele>142.018448</ele>
        <time>2022-07-19T15:34:05.849Z</time>
      </trkpt>
      <trkpt lat="43.31994" lon="-1.36659">
        <ele>144.479297</ele>
        <time>2022-07-19T15:34:26.137Z</time>
      </trkpt>
      <trkpt lat="43.31979" lon="-1.3665">
        <ele>145.107439</ele>
        <time>2022-07-19T15:34:31.328Z</time>
      </trkpt>
      <trkpt lat="43.31957" lon="-1.36592">
        <ele>145.369865</ele>
        <time>2022-07-19T15:34:45.756Z</time>
      </trkpt>
      <trkpt lat="43.31946" lon="-1.36516">
        <ele>145.53047</ele>
        <time>2022-07-19T15:34:59.688Z</time>
      </trkpt>
      <trkpt lat="43.31908" lon="-1.36387">
        <ele>144.634675</ele>
        <time>2022-07-19T15:35:15.613Z</time>
      </trkpt>
      <trkpt lat="43.31906" lon="-1.36383">
        <ele>144.445654</ele>
        <time>2022-07-19T15:35:16.105Z</time>
      </trkpt>
      <trkpt lat="43.3188" lon="-1.36266">
        <ele>139.916786</ele>
        <time>2022-07-19T15:35:27.740Z</time>
      </trkpt>
      <trkpt lat="43.31869" lon="-1.36166">
        <ele>136.25295</ele>
        <time>2022-07-19T15:35:37.045Z</time>
      </trkpt>
      <trkpt lat="43.3187" lon="-1.36153">
        <ele>135.844272</ele>
        <time>2022-07-19T15:35:38.245Z</time>
      </trkpt>
      <trkpt lat="43.31879" lon="-1.36142">
        <ele>135.300402</ele>
        <time>2022-07-19T15:35:39.865Z</time>
      </trkpt>
      <trkpt lat="43.31854" lon="-1.36085">
        <ele>133.19342</ele>
        <time>2022-07-19T15:35:45.853Z</time>
      </trkpt>
      <trkpt lat="43.31794" lon="-1.35973">
        <ele>128.759061</ele>
        <time>2022-07-19T15:35:59.431Z</time>
      </trkpt>
      <trkpt lat="43.31768" lon="-1.35899">
        <ele>127.577621</ele>
        <time>2022-07-19T15:36:08.187Z</time>
      </trkpt>
      <trkpt lat="43.31728" lon="-1.358">
        <ele>125.990891</ele>
        <time>2022-07-19T15:36:21.271Z</time>
      </trkpt>
      <trkpt lat="43.31679" lon="-1.35708">
        <ele>123.753179</ele>
        <time>2022-07-19T15:36:33.191Z</time>
      </trkpt>
      <trkpt lat="43.31664" lon="-1.3568">
        <ele>122.924422</ele>
        <time>2022-07-19T15:36:36.670Z</time>
      </trkpt>
      <trkpt lat="43.31664" lon="-1.35656">
        <ele>122.319207</ele>
        <time>2022-07-19T15:36:39.107Z</time>
      </trkpt>
      <trkpt lat="43.31663" lon="-1.35647">
        <ele>122.095928</ele>
        <time>2022-07-19T15:36:40.022Z</time>
      </trkpt>
      <trkpt lat="43.31661" lon="-1.35624">
        <ele>121.532762</ele>
        <time>2022-07-19T15:36:42.328Z</time>
      </trkpt>
      <trkpt lat="43.31654" lon="-1.35551">
        <ele>119.745662</ele>
        <time>2022-07-19T15:36:49.355Z</time>
      </trkpt>
      <trkpt lat="43.31655" lon="-1.35427">
        <ele>115.706782</ele>
        <time>2022-07-19T15:37:00.821Z</time>
      </trkpt>
      <trkpt lat="43.31646" lon="-1.35272">
        <ele>110.589429</ele>
        <time>2022-07-19T15:37:15.281Z</time>
      </trkpt>
      <trkpt lat="43.31645" lon="-1.3526">
        <ele>110.364073</ele>
        <time>2022-07-19T15:37:16.464Z</time>
      </trkpt>
      <trkpt lat="43.31644" lon="-1.35251">
        <ele>110.21027</ele>
        <time>2022-07-19T15:37:17.265Z</time>
      </trkpt>
      <trkpt lat="43.31638" lon="-1.35151">
        <ele>108.361753</ele>
        <time>2022-07-19T15:37:27.166Z</time>
      </trkpt>
      <trkpt lat="43.31629" lon="-1.35099">
        <ele>107.398711</ele>
        <time>2022-07-19T15:37:32.680Z</time>
      </trkpt>
      <trkpt lat="43.31614" lon="-1.35035">
        <ele>106.382948</ele>
        <time>2022-07-19T15:37:40.551Z</time>
      </trkpt>
      <trkpt lat="43.31596" lon="-1.34958">
        <ele>107.939854</ele>
        <time>2022-07-19T15:37:53.759Z</time>
      </trkpt>
      <trkpt lat="43.31574" lon="-1.34865">
        <ele>109.840552</ele>
        <time>2022-07-19T15:38:15.932Z</time>
      </trkpt>
      <trkpt lat="43.3156" lon="-1.34808">
        <ele>111.007765</ele>
        <time>2022-07-19T15:38:32.202Z</time>
      </trkpt>
      <trkpt lat="43.31555" lon="-1.34791">
        <ele>111.551298</ele>
        <time>2022-07-19T15:38:37.355Z</time>
      </trkpt>
      <trkpt lat="43.31552" lon="-1.34776">
        <ele>112.075883</ele>
        <time>2022-07-19T15:38:42.043Z</time>
      </trkpt>
      <trkpt lat="43.31511" lon="-1.3458">
        <ele>118.664616</ele>
        <time>2022-07-19T15:39:36.608Z</time>
      </trkpt>
      <trkpt lat="43.31503" lon="-1.3451">
        <ele>120.07209</ele>
        <time>2022-07-19T15:39:51.149Z</time>
      </trkpt>
      <trkpt lat="43.31502" lon="-1.345">
        <ele>120.24605</ele>
        <time>2022-07-19T15:39:53.188Z</time>
      </trkpt>
      <trkpt lat="43.31495" lon="-1.34446">
        <ele>121.217441</ele>
        <time>2022-07-19T15:40:04.236Z</time>
      </trkpt>
      <trkpt lat="43.31487" lon="-1.34387">
        <ele>122.259879</ele>
        <time>2022-07-19T15:40:15.606Z</time>
      </trkpt>
      <trkpt lat="43.31475" lon="-1.34331">
        <ele>123.290267</ele>
        <time>2022-07-19T15:40:25.977Z</time>
      </trkpt>
      <trkpt lat="43.31441" lon="-1.3425">
        <ele>125.307497</ele>
        <time>2022-07-19T15:40:42.302Z</time>
      </trkpt>
      <trkpt lat="43.31406" lon="-1.3418">
        <ele>127.172563</ele>
        <time>2022-07-19T15:40:59.823Z</time>
      </trkpt>
      <trkpt lat="43.31374" lon="-1.34074">
        <ele>130.316252</ele>
        <time>2022-07-19T15:41:30.707Z</time>
      </trkpt>
      <trkpt lat="43.3135" lon="-1.34025">
        <ele>132.518964</ele>
        <time>2022-07-19T15:41:49.151Z</time>
      </trkpt>
      <trkpt lat="43.31284" lon="-1.33887">
        <ele>137.839794</ele>
        <time>2022-07-19T15:42:36.370Z</time>
      </trkpt>
      <trkpt lat="43.31268" lon="-1.33828">
        <ele>137.373693</ele>
        <time>2022-07-19T15:42:49.936Z</time>
      </trkpt>
      <trkpt lat="43.3127" lon="-1.33742">
        <ele>136.736075</ele>
        <time>2022-07-19T15:43:00.212Z</time>
      </trkpt>
      <trkpt lat="43.31251" lon="-1.33603">
        <ele>133.490666</ele>
        <time>2022-07-19T15:43:12.719Z</time>
      </trkpt>
      <trkpt lat="43.31252" lon="-1.33565">
        <ele>131.862448</ele>
        <time>2022-07-19T15:43:15.966Z</time>
      </trkpt>
      <trkpt lat="43.31257" lon="-1.33541">
        <ele>130.77106</ele>
        <time>2022-07-19T15:43:18.129Z</time>
      </trkpt>
      <trkpt lat="43.3131" lon="-1.3343">
        <ele>125.361046</ele>
        <time>2022-07-19T15:43:30.141Z</time>
      </trkpt>
      <trkpt lat="43.31319" lon="-1.33399">
        <ele>125.104963</ele>
        <time>2022-07-19T15:43:33.407Z</time>
      </trkpt>
      <trkpt lat="43.31326" lon="-1.33283">
        <ele>124.187856</ele>
        <time>2022-07-19T15:43:46.468Z</time>
      </trkpt>
      <trkpt lat="43.31331" lon="-1.33265">
        <ele>124.041887</ele>
        <time>2022-07-19T15:43:49.787Z</time>
      </trkpt>
      <trkpt lat="43.31378" lon="-1.33182">
        <ele>124.066354</ele>
        <time>2022-07-19T15:44:08.165Z</time>
      </trkpt>
      <trkpt lat="43.31385" lon="-1.33151">
        <ele>124.5688</ele>
        <time>2022-07-19T15:44:14.478Z</time>
      </trkpt>
      <trkpt lat="43.31386" lon="-1.33074">
        <ele>125.73676</ele>
        <time>2022-07-19T15:44:29.759Z</time>
      </trkpt>
      <trkpt lat="43.31396" lon="-1.33017">
        <ele>126.620274</ele>
        <time>2022-07-19T15:44:41.207Z</time>
      </trkpt>
      <trkpt lat="43.31406" lon="-1.32972">
        <ele>127.336276</ele>
        <time>2022-07-19T15:44:50.502Z</time>
      </trkpt>
      <trkpt lat="43.31415" lon="-1.32933">
        <ele>127.928573</ele>
        <time>2022-07-19T15:44:58.279Z</time>
      </trkpt>
      <trkpt lat="43.31416" lon="-1.32806">
        <ele>129.795142</ele>
        <time>2022-07-19T15:45:22.438Z</time>
      </trkpt>
      <trkpt lat="43.31444" lon="-1.32666">
        <ele>132.032674</ele>
        <time>2022-07-19T15:45:48.208Z</time>
      </trkpt>
      <trkpt lat="43.31448" lon="-1.32606">
        <ele>133.029023</ele>
        <time>2022-07-19T15:45:59.906Z</time>
      </trkpt>
      <trkpt lat="43.31445" lon="-1.32563">
        <ele>133.734642</ele>
        <time>2022-07-19T15:46:08.885Z</time>
      </trkpt>
      <trkpt lat="43.31442" lon="-1.3249">
        <ele>134.923563</ele>
        <time>2022-07-19T15:46:23.732Z</time>
      </trkpt>
      <trkpt lat="43.31453" lon="-1.32453">
        <ele>135.947005</ele>
        <time>2022-07-19T15:46:31.872Z</time>
      </trkpt>
      <trkpt lat="43.31481" lon="-1.3239">
        <ele>137.823587</ele>
        <time>2022-07-19T15:46:48.241Z</time>
      </trkpt>
      <trkpt lat="43.31559" lon="-1.3226">
        <ele>141.934292</ele>
        <time>2022-07-19T15:47:30.537Z</time>
      </trkpt>
      <trkpt lat="43.31576" lon="-1.32216">
        <ele>142.986894</ele>
        <time>2022-07-19T15:47:41.181Z</time>
      </trkpt>
      <trkpt lat="43.31577" lon="-1.32164">
        <ele>144.092718</ele>
        <time>2022-07-19T15:47:51.615Z</time>
      </trkpt>
      <trkpt lat="43.31567" lon="-1.32136">
        <ele>144.750212</ele>
        <time>2022-07-19T15:47:57.788Z</time>
      </trkpt>
      <trkpt lat="43.31532" lon="-1.32076">
        <ele>146.400843</ele>
        <time>2022-07-19T15:48:14.067Z</time>
      </trkpt>
      <trkpt lat="43.31506" lon="-1.32017">
        <ele>147.363173</ele>
        <time>2022-07-19T15:48:27.600Z</time>
      </trkpt>
      <trkpt lat="43.31435" lon="-1.31829">
        <ele>150.526316</ele>
        <time>2022-07-19T15:49:04.712Z</time>
      </trkpt>
      <trkpt lat="43.3142" lon="-1.31765">
        <ele>151.923197</ele>
        <time>2022-07-19T15:49:18.120Z</time>
      </trkpt>
      <trkpt lat="43.31375" lon="-1.31537">
        <ele>157.915496</ele>
        <time>2022-07-19T15:50:12.622Z</time>
      </trkpt>
      <trkpt lat="43.3137" lon="-1.31465">
        <ele>160.269069</ele>
        <time>2022-07-19T15:50:31.819Z</time>
      </trkpt>
      <trkpt lat="43.31371" lon="-1.31399">
        <ele>162.43278</ele>
        <time>2022-07-19T15:50:50.426Z</time>
      </trkpt>
      <trkpt lat="43.31401" lon="-1.31275">
        <ele>167.345866</ele>
        <time>2022-07-19T15:51:28.531Z</time>
      </trkpt>
      <trkpt lat="43.31402" lon="-1.31252">
        <ele>168.232542</ele>
        <time>2022-07-19T15:51:35.974Z</time>
      </trkpt>
      <trkpt lat="43.31401" lon="-1.31232">
        <ele>169.031895</ele>
        <time>2022-07-19T15:51:41.966Z</time>
      </trkpt>
      <trkpt lat="43.31383" lon="-1.31197">
        <ele>170.666888</ele>
        <time>2022-07-19T15:51:54.193Z</time>
      </trkpt>
      <trkpt lat="43.31349" lon="-1.31131">
        <ele>173.441125</ele>
        <time>2022-07-19T15:52:15.196Z</time>
      </trkpt>
      <trkpt lat="43.31346" lon="-1.31116">
        <ele>173.857326</ele>
        <time>2022-07-19T15:52:18.756Z</time>
      </trkpt>
      <trkpt lat="43.31345" lon="-1.31082">
        <ele>174.769883</ele>
        <time>2022-07-19T15:52:27.070Z</time>
      </trkpt>
      <trkpt lat="43.31339" lon="-1.31056">
        <ele>175.526903</ele>
        <time>2022-07-19T15:52:33.406Z</time>
      </trkpt>
      <trkpt lat="43.31326" lon="-1.31039">
        <ele>176.200047</ele>
        <time>2022-07-19T15:52:39.479Z</time>
      </trkpt>
      <trkpt lat="43.31263" lon="-1.30987">
        <ele>178.91693</ele>
        <time>2022-07-19T15:53:01.324Z</time>
      </trkpt>
      <trkpt lat="43.31244" lon="-1.30963">
        <ele>180.274084</ele>
        <time>2022-07-19T15:53:09.871Z</time>
      </trkpt>
      <trkpt lat="43.31217" lon="-1.30905">
        <ele>183.380936</ele>
        <time>2022-07-19T15:53:26.231Z</time>
      </trkpt>
      <trkpt lat="43.31204" lon="-1.30854">
        <ele>185.871949</ele>
        <time>2022-07-19T15:53:42.230Z</time>
      </trkpt>
      <trkpt lat="43.31206" lon="-1.30759">
        <ele>190.249331</ele>
        <time>2022-07-19T15:54:17.006Z</time>
      </trkpt>
      <trkpt lat="43.31221" lon="-1.3059">
        <ele>202.258007</ele>
        <time>2022-07-19T15:55:30.673Z</time>
      </trkpt>
      <trkpt lat="43.31221" lon="-1.30525">
        <ele>206.939024</ele>
        <time>2022-07-19T15:55:59.086Z</time>
      </trkpt>
      <trkpt lat="43.31207" lon="-1.30471">
        <ele>210.679072</ele>
        <time>2022-07-19T15:56:22.249Z</time>
      </trkpt>
      <trkpt lat="43.3117" lon="-1.30423">
        <ele>214.99628</ele>
        <time>2022-07-19T15:56:48.009Z</time>
      </trkpt>
      <trkpt lat="43.3115" lon="-1.3039">
        <ele>217.57857</ele>
        <time>2022-07-19T15:57:02.290Z</time>
      </trkpt>
      <trkpt lat="43.3114" lon="-1.3034">
        <ele>220.780171</ele>
        <time>2022-07-19T15:57:22.149Z</time>
      </trkpt>
      <trkpt lat="43.31163" lon="-1.30189">
        <ele>230.706192</ele>
        <time>2022-07-19T15:58:18.725Z</time>
      </trkpt>
      <trkpt lat="43.31173" lon="-1.30143">
        <ele>233.866236</ele>
        <time>2022-07-19T15:58:39.242Z</time>
      </trkpt>
      <trkpt lat="43.31188" lon="-1.301">
        <ele>237.01268</ele>
        <time>2022-07-19T15:58:59.775Z</time>
      </trkpt>
      <trkpt lat="43.31247" lon="-1.30019">
        <ele>243.122609</ele>
        <time>2022-07-19T15:59:43.844Z</time>
      </trkpt>
      <trkpt lat="43.31255" lon="-1.2999">
        <ele>244.550162</ele>
        <time>2022-07-19T15:59:56.911Z</time>
      </trkpt>
      <trkpt lat="43.31248" lon="-1.29942">
        <ele>246.822474</ele>
        <time>2022-07-19T16:00:10.886Z</time>
      </trkpt>
      <trkpt lat="43.31223" lon="-1.29889">
        <ele>249.781451</ele>
        <time>2022-07-19T16:00:26.277Z</time>
      </trkpt>
      <trkpt lat="43.31213" lon="-1.29848">
        <ele>251.500474</ele>
        <time>2022-07-19T16:00:37.755Z</time>
      </trkpt>
      <trkpt lat="43.31211" lon="-1.2973">
        <ele>253.785276</ele>
        <time>2022-07-19T16:01:02.872Z</time>
      </trkpt>
      <trkpt lat="43.31217" lon="-1.29596">
        <ele>256.341757</ele>
        <time>2022-07-19T16:01:27.493Z</time>
      </trkpt>
      <trkpt lat="43.31215" lon="-1.29533">
        <ele>257.492962</ele>
        <time>2022-07-19T16:01:39.864Z</time>
      </trkpt>
      <trkpt lat="43.3118" lon="-1.2925">
        <ele>263.501795</ele>
        <time>2022-07-19T16:02:39.741Z</time>
      </trkpt>
      <trkpt lat="43.31169" lon="-1.29202">
        <ele>264.768247</ele>
        <time>2022-07-19T16:02:51.610Z</time>
      </trkpt>
      <trkpt lat="43.31152" lon="-1.29165">
        <ele>265.869486</ele>
        <time>2022-07-19T16:03:02.410Z</time>
      </trkpt>
      <trkpt lat="43.31136" lon="-1.29131">
        <ele>266.897242</ele>
        <time>2022-07-19T16:03:12.435Z</time>
      </trkpt>
      <trkpt lat="43.31091" lon="-1.28952">
        <ele>273.036255</ele>
        <time>2022-07-19T16:04:02.409Z</time>
      </trkpt>
      <trkpt lat="43.31085" lon="-1.28911">
        <ele>274.396637</ele>
        <time>2022-07-19T16:04:13.243Z</time>
      </trkpt>
      <trkpt lat="43.31081" lon="-1.28809">
        <ele>277.497189</ele>
        <time>2022-07-19T16:04:38.955Z</time>
      </trkpt>
      <trkpt lat="43.31075" lon="-1.28773">
        <ele>278.605844</ele>
        <time>2022-07-19T16:04:47.924Z</time>
      </trkpt>
      <trkpt lat="43.31051" lon="-1.28684">
        <ele>281.479233</ele>
        <time>2022-07-19T16:05:11.044Z</time>
      </trkpt>
      <trkpt lat="43.30996" lon="-1.28521">
        <ele>287.610269</ele>
        <time>2022-07-19T16:05:58.135Z</time>
      </trkpt>
      <trkpt lat="43.30951" lon="-1.28353">
        <ele>293.337156</ele>
        <time>2022-07-19T16:06:48.572Z</time>
      </trkpt>
      <trkpt lat="43.30939" lon="-1.28307">
        <ele>294.76557</ele>
        <time>2022-07-19T16:07:02.193Z</time>
      </trkpt>
      <trkpt lat="43.30892" lon="-1.28137">
        <ele>298.391595</ele>
        <time>2022-07-19T16:07:40.204Z</time>
      </trkpt>
      <trkpt lat="43.30885" lon="-1.28101">
        <ele>298.598112</ele>
        <time>2022-07-19T16:07:45.880Z</time>
      </trkpt>
      <trkpt lat="43.30853" lon="-1.27943">
        <ele>299.195742</ele>
        <time>2022-07-19T16:08:06.370Z</time>
      </trkpt>
      <trkpt lat="43.30818" lon="-1.27762">
        <ele>297.999491</ele>
        <time>2022-07-19T16:08:28.235Z</time>
      </trkpt>
      <trkpt lat="43.30805" lon="-1.27599">
        <ele>295.331797</ele>
        <time>2022-07-19T16:08:46.589Z</time>
      </trkpt>
      <trkpt lat="43.30769" lon="-1.27361">
        <ele>289.119354</ele>
        <time>2022-07-19T16:09:09.960Z</time>
      </trkpt>
      <trkpt lat="43.30768" lon="-1.27017">
        <ele>277.994786</ele>
        <time>2022-07-19T16:09:41.898Z</time>
      </trkpt>
      <trkpt lat="43.30755" lon="-1.26946">
        <ele>276.351416</ele>
        <time>2022-07-19T16:09:49.184Z</time>
      </trkpt>
      <trkpt lat="43.30742" lon="-1.26904">
        <ele>275.584643</ele>
        <time>2022-07-19T16:09:53.774Z</time>
      </trkpt>
      <trkpt lat="43.30724" lon="-1.26867">
        <ele>274.836792</ele>
        <time>2022-07-19T16:09:58.384Z</time>
      </trkpt>
      <trkpt lat="43.30701" lon="-1.26841">
        <ele>274.143691</ele>
        <time>2022-07-19T16:10:02.807Z</time>
      </trkpt>
      <trkpt lat="43.30623" lon="-1.26772">
        <ele>273.142701</ele>
        <time>2022-07-19T16:10:17.455Z</time>
      </trkpt>
      <trkpt lat="43.30564" lon="-1.26714">
        <ele>273.393618</ele>
        <time>2022-07-19T16:10:29.788Z</time>
      </trkpt>
      <trkpt lat="43.30554" lon="-1.267">
        <ele>273.44509</ele>
        <time>2022-07-19T16:10:32.879Z</time>
      </trkpt>
      <trkpt lat="43.30542" lon="-1.26663">
        <ele>273.546404</ele>
        <time>2022-07-19T16:10:40.076Z</time>
      </trkpt>
      <trkpt lat="43.30541" lon="-1.26557">
        <ele>274.797413</ele>
        <time>2022-07-19T16:11:02.548Z</time>
      </trkpt>
      <trkpt lat="43.30553" lon="-1.26501">
        <ele>275.691103</ele>
        <time>2022-07-19T16:11:15.762Z</time>
      </trkpt>
      <trkpt lat="43.30573" lon="-1.2644">
        <ele>276.700288</ele>
        <time>2022-07-19T16:11:28.787Z</time>
      </trkpt>
      <trkpt lat="43.3058" lon="-1.26402">
        <ele>277.299077</ele>
        <time>2022-07-19T16:11:34.970Z</time>
      </trkpt>
      <trkpt lat="43.30559" lon="-1.26291">
        <ele>275.719477</ele>
        <time>2022-07-19T16:11:49.096Z</time>
      </trkpt>
      <trkpt lat="43.30558" lon="-1.2628">
        <ele>275.556626</ele>
        <time>2022-07-19T16:11:50.281Z</time>
      </trkpt>
      <trkpt lat="43.30558" lon="-1.26244">
        <ele>275.013616</ele>
        <time>2022-07-19T16:11:53.891Z</time>
      </trkpt>
      <trkpt lat="43.30578" lon="-1.26138">
        <ele>272.948069</ele>
        <time>2022-07-19T16:12:04.382Z</time>
      </trkpt>
      <trkpt lat="43.3058" lon="-1.26096">
        <ele>271.381613</ele>
        <time>2022-07-19T16:12:08.177Z</time>
      </trkpt>
      <trkpt lat="43.30567" lon="-1.25964">
        <ele>266.430198</ele>
        <time>2022-07-19T16:12:20.252Z</time>
      </trkpt>
      <trkpt lat="43.30567" lon="-1.25882">
        <ele>263.444906</ele>
        <time>2022-07-19T16:12:27.793Z</time>
      </trkpt>
      <trkpt lat="43.30568" lon="-1.25855">
        <ele>262.473573</ele>
        <time>2022-07-19T16:12:30.451Z</time>
      </trkpt>
      <trkpt lat="43.30587" lon="-1.25498">
        <ele>250.864128</ele>
        <time>2022-07-19T16:13:03.759Z</time>
      </trkpt>
      <trkpt lat="43.30577" lon="-1.25429">
        <ele>248.766227</ele>
        <time>2022-07-19T16:13:10.676Z</time>
      </trkpt>
      <trkpt lat="43.30561" lon="-1.25392">
        <ele>248.357926</ele>
        <time>2022-07-19T16:13:15.127Z</time>
      </trkpt>
      <trkpt lat="43.30553" lon="-1.2536">
        <ele>248.25944</ele>
        <time>2022-07-19T16:13:18.800Z</time>
      </trkpt>
      <trkpt lat="43.30546" lon="-1.25352">
        <ele>248.223683</ele>
        <time>2022-07-19T16:13:20.232Z</time>
      </trkpt>
      <trkpt lat="43.3055" lon="-1.25341">
        <ele>248.188232</ele>
        <time>2022-07-19T16:13:21.718Z</time>
      </trkpt>
      <trkpt lat="43.30533" lon="-1.25318">
        <ele>248.092207</ele>
        <time>2022-07-19T16:13:25.646Z</time>
      </trkpt>
      <trkpt lat="43.30426" lon="-1.25226">
        <ele>248.357746</ele>
        <time>2022-07-19T16:13:52.929Z</time>
      </trkpt>
      <trkpt lat="43.30367" lon="-1.25163">
        <ele>249.637912</ele>
        <time>2022-07-19T16:14:16.026Z</time>
      </trkpt>
      <trkpt lat="43.3035" lon="-1.2513">
        <ele>250.130229</ele>
        <time>2022-07-19T16:14:23.488Z</time>
      </trkpt>
      <trkpt lat="43.30329" lon="-1.25047">
        <ele>250.925968</ele>
        <time>2022-07-19T16:14:35.496Z</time>
      </trkpt>
      <trkpt lat="43.30309" lon="-1.2501">
        <ele>251.106872</ele>
        <time>2022-07-19T16:14:40.936Z</time>
      </trkpt>
      <trkpt lat="43.30291" lon="-1.24989">
        <ele>251.232974</ele>
        <time>2022-07-19T16:14:45.496Z</time>
      </trkpt>
      <trkpt lat="43.30303" lon="-1.24964">
        <ele>251.349703</ele>
        <time>2022-07-19T16:14:49.074Z</time>
      </trkpt>
      <trkpt lat="43.30363" lon="-1.24885">
        <ele>252.045401</ele>
        <time>2022-07-19T16:15:07.349Z</time>
      </trkpt>
      <trkpt lat="43.30402" lon="-1.24834">
        <ele>254.297022</ele>
        <time>2022-07-19T16:15:20.707Z</time>
      </trkpt>
      <trkpt lat="43.30426" lon="-1.24818">
        <ele>255.416518</ele>
        <time>2022-07-19T16:15:28.017Z</time>
      </trkpt>
      <trkpt lat="43.30538" lon="-1.24767">
        <ele>260.610313</ele>
        <time>2022-07-19T16:16:19.561Z</time>
      </trkpt>
      <trkpt lat="43.30556" lon="-1.24731">
        <ele>262.215481</ele>
        <time>2022-07-19T16:16:35.319Z</time>
      </trkpt>
      <trkpt lat="43.30617" lon="-1.24522">
        <ele>268.580774</ele>
        <time>2022-07-19T16:17:33.937Z</time>
      </trkpt>
      <trkpt lat="43.30641" lon="-1.24438">
        <ele>268.668233</ele>
        <time>2022-07-19T16:17:44.786Z</time>
      </trkpt>
      <trkpt lat="43.30651" lon="-1.24409">
        <ele>268.699149</ele>
        <time>2022-07-19T16:17:48.074Z</time>
      </trkpt>
      <trkpt lat="43.30668" lon="-1.24381">
        <ele>268.734648</ele>
        <time>2022-07-19T16:17:51.906Z</time>
      </trkpt>
      <trkpt lat="43.30671" lon="-1.24355">
        <ele>268.7601</ele>
        <time>2022-07-19T16:17:54.700Z</time>
      </trkpt>
      <trkpt lat="43.30666" lon="-1.2434">
        <ele>268.846065</ele>
        <time>2022-07-19T16:17:56.480Z</time>
      </trkpt>
      <trkpt lat="43.30649" lon="-1.24311">
        <ele>269.095475</ele>
        <time>2022-07-19T16:18:00.476Z</time>
      </trkpt>
      <trkpt lat="43.30622" lon="-1.24268">
        <ele>269.469339</ele>
        <time>2022-07-19T16:18:07.057Z</time>
      </trkpt>
      <trkpt lat="43.30582" lon="-1.24222">
        <ele>269.945653</ele>
        <time>2022-07-19T16:18:19.515Z</time>
      </trkpt>
      <trkpt lat="43.30552" lon="-1.2418">
        <ele>270.342598</ele>
        <time>2022-07-19T16:18:33.158Z</time>
      </trkpt>
      <trkpt lat="43.30529" lon="-1.2413">
        <ele>271.64949</ele>
        <time>2022-07-19T16:18:48.354Z</time>
      </trkpt>
      <trkpt lat="43.30507" lon="-1.24078">
        <ele>273.139413</ele>
        <time>2022-07-19T16:19:04.252Z</time>
      </trkpt>
      <trkpt lat="43.30505" lon="-1.24053">
        <ele>273.781534</ele>
        <time>2022-07-19T16:19:10.867Z</time>
      </trkpt>
      <trkpt lat="43.30508" lon="-1.24033">
        <ele>274.298899</ele>
        <time>2022-07-19T16:19:16.345Z</time>
      </trkpt>
      <trkpt lat="43.30526" lon="-1.23994">
        <ele>275.45516</ele>
        <time>2022-07-19T16:19:27.473Z</time>
      </trkpt>
      <trkpt lat="43.3053" lon="-1.2396">
        <ele>276.31581</ele>
        <time>2022-07-19T16:19:34.866Z</time>
      </trkpt>
      <trkpt lat="43.30535" lon="-1.23867">
        <ele>275.55678</ele>
        <time>2022-07-19T16:19:46.863Z</time>
      </trkpt>
      <trkpt lat="43.30541" lon="-1.2385">
        <ele>275.303547</ele>
        <time>2022-07-19T16:19:48.933Z</time>
      </trkpt>
      <trkpt lat="43.30567" lon="-1.23815">
        <ele>274.632902</ele>
        <time>2022-07-19T16:19:54.170Z</time>
      </trkpt>
      <trkpt lat="43.30603" lon="-1.23792">
        <ele>273.895531</ele>
        <time>2022-07-19T16:19:59.736Z</time>
      </trkpt>
      <trkpt lat="43.30619" lon="-1.23773">
        <ele>273.508272</ele>
        <time>2022-07-19T16:20:02.446Z</time>
      </trkpt>
      <trkpt lat="43.30626" lon="-1.23751">
        <ele>272.889877</ele>
        <time>2022-07-19T16:20:04.816Z</time>
      </trkpt>
      <trkpt lat="43.30621" lon="-1.23637">
        <ele>268.007457</ele>
        <time>2022-07-19T16:20:15.022Z</time>
      </trkpt>
      <trkpt lat="43.30619" lon="-1.23582">
        <ele>265.643995</ele>
        <time>2022-07-19T16:20:19.866Z</time>
      </trkpt>
      <trkpt lat="43.30617" lon="-1.23532">
        <ele>263.511504</ele>
        <time>2022-07-19T16:20:24.286Z</time>
      </trkpt>
      <trkpt lat="43.30617" lon="-1.23501">
        <ele>262.203745</ele>
        <time>2022-07-19T16:20:27.016Z</time>
      </trkpt>
      <trkpt lat="43.30608" lon="-1.23475">
        <ele>261.031039</ele>
        <time>2022-07-19T16:20:29.648Z</time>
      </trkpt>
      <trkpt lat="43.30559" lon="-1.23427">
        <ele>257.721599</ele>
        <time>2022-07-19T16:20:36.974Z</time>
      </trkpt>
      <trkpt lat="43.30492" lon="-1.23344">
        <ele>252.76893</ele>
        <time>2022-07-19T16:20:48.218Z</time>
      </trkpt>
      <trkpt lat="43.30461" lon="-1.23316">
        <ele>252.479994</ele>
        <time>2022-07-19T16:20:53.571Z</time>
      </trkpt>
      <trkpt lat="43.30441" lon="-1.23283">
        <ele>252.247861</ele>
        <time>2022-07-19T16:20:58.092Z</time>
      </trkpt>
      <trkpt lat="43.30438" lon="-1.23277">
        <ele>252.205506</ele>
        <time>2022-07-19T16:20:59.034Z</time>
      </trkpt>
      <trkpt lat="43.30357" lon="-1.23043">
        <ele>251.863814</ele>
        <time>2022-07-19T16:21:39.421Z</time>
      </trkpt>
      <trkpt lat="43.30353" lon="-1.23022">
        <ele>251.950919</ele>
        <time>2022-07-19T16:21:43.632Z</time>
      </trkpt>
      <trkpt lat="43.30363" lon="-1.22919">
        <ele>252.368552</ele>
        <time>2022-07-19T16:21:59.411Z</time>
      </trkpt>
      <trkpt lat="43.30391" lon="-1.22805">
        <ele>250.432198</ele>
        <time>2022-07-19T16:22:12.157Z</time>
      </trkpt>
      <trkpt lat="43.30388" lon="-1.22764">
        <ele>249.724696</ele>
        <time>2022-07-19T16:22:16.289Z</time>
      </trkpt>
      <trkpt lat="43.30374" lon="-1.22734">
        <ele>249.106113</ele>
        <time>2022-07-19T16:22:19.913Z</time>
      </trkpt>
      <trkpt lat="43.30371" lon="-1.22709">
        <ele>248.662313</ele>
        <time>2022-07-19T16:22:22.598Z</time>
      </trkpt>
      <trkpt lat="43.30382" lon="-1.22691">
        <ele>248.273025</ele>
        <time>2022-07-19T16:22:24.794Z</time>
      </trkpt>
      <trkpt lat="43.30464" lon="-1.22626">
        <ele>243.948723</ele>
        <time>2022-07-19T16:22:37.355Z</time>
      </trkpt>
      <trkpt lat="43.30479" lon="-1.22603">
        <ele>242.9273</ele>
        <time>2022-07-19T16:22:40.112Z</time>
      </trkpt>
      <trkpt lat="43.30569" lon="-1.22265">
        <ele>229.257128</ele>
        <time>2022-07-19T16:23:12.688Z</time>
      </trkpt>
      <trkpt lat="43.30583" lon="-1.22245">
        <ele>228.434164</ele>
        <time>2022-07-19T16:23:15.323Z</time>
      </trkpt>
      <trkpt lat="43.30607" lon="-1.22226">
        <ele>227.282818</ele>
        <time>2022-07-19T16:23:19.012Z</time>
      </trkpt>
      <trkpt lat="43.30618" lon="-1.22209">
        <ele>226.622393</ele>
        <time>2022-07-19T16:23:21.065Z</time>
      </trkpt>
      <trkpt lat="43.30622" lon="-1.22181">
        <ele>225.751519</ele>
        <time>2022-07-19T16:23:23.998Z</time>
      </trkpt>
      <trkpt lat="43.30618" lon="-1.22148">
        <ele>224.769187</ele>
        <time>2022-07-19T16:23:27.131Z</time>
      </trkpt>
      <trkpt lat="43.30588" lon="-1.22106">
        <ele>223.025243</ele>
        <time>2022-07-19T16:23:32.974Z</time>
      </trkpt>
      <trkpt lat="43.30498" lon="-1.22085">
        <ele>218.61848</ele>
        <time>2022-07-19T16:23:45.091Z</time>
      </trkpt>
      <trkpt lat="43.30459" lon="-1.22015">
        <ele>215.431527</ele>
        <time>2022-07-19T16:23:52.995Z</time>
      </trkpt>
      <trkpt lat="43.30405" lon="-1.21973">
        <ele>212.07592</ele>
        <time>2022-07-19T16:24:00.653Z</time>
      </trkpt>
      <trkpt lat="43.30352" lon="-1.21917">
        <ele>208.075741</ele>
        <time>2022-07-19T16:24:08.785Z</time>
      </trkpt>
      <trkpt lat="43.30328" lon="-1.2191">
        <ele>206.572256</ele>
        <time>2022-07-19T16:24:11.867Z</time>
      </trkpt>
      <trkpt lat="43.30261" lon="-1.21909">
        <ele>202.570926</ele>
        <time>2022-07-19T16:24:20.116Z</time>
      </trkpt>
      <trkpt lat="43.30245" lon="-1.21887">
        <ele>201.484587</ele>
        <time>2022-07-19T16:24:22.906Z</time>
      </trkpt>
      <trkpt lat="43.30241" lon="-1.21844">
        <ele>199.968096</ele>
        <time>2022-07-19T16:24:26.873Z</time>
      </trkpt>
      <trkpt lat="43.30272" lon="-1.21759">
        <ele>196.672068</ele>
        <time>2022-07-19T16:24:35.805Z</time>
      </trkpt>
      <trkpt lat="43.30277" lon="-1.21734">
        <ele>195.768168</ele>
        <time>2022-07-19T16:24:38.255Z</time>
      </trkpt>
      <trkpt lat="43.30258" lon="-1.21638">
        <ele>192.407778</ele>
        <time>2022-07-19T16:24:47.634Z</time>
      </trkpt>
      <trkpt lat="43.30259" lon="-1.2161">
        <ele>191.488801</ele>
        <time>2022-07-19T16:24:50.262Z</time>
      </trkpt>
      <trkpt lat="43.30271" lon="-1.21553">
        <ele>189.539093</ele>
        <time>2022-07-19T16:24:55.871Z</time>
      </trkpt>
      <trkpt lat="43.30261" lon="-1.21475">
        <ele>186.958649</ele>
        <time>2022-07-19T16:25:03.231Z</time>
      </trkpt>
      <trkpt lat="43.30262" lon="-1.21447">
        <ele>186.035466</ele>
        <time>2022-07-19T16:25:05.831Z</time>
      </trkpt>
      <trkpt lat="43.30275" lon="-1.21414">
        <ele>185.079282</ele>
        <time>2022-07-19T16:25:09.365Z</time>
      </trkpt>
      <trkpt lat="43.30309" lon="-1.21359">
        <ele>183.356855</ele>
        <time>2022-07-19T16:25:16.241Z</time>
      </trkpt>
      <trkpt lat="43.30334" lon="-1.21258">
        <ele>180.795304</ele>
        <time>2022-07-19T16:25:26.927Z</time>
      </trkpt>
      <trkpt lat="43.30334" lon="-1.21253">
        <ele>180.670166</ele>
        <time>2022-07-19T16:25:27.475Z</time>
      </trkpt>
      <trkpt lat="43.3033" lon="-1.21234">
        <ele>180.202582</ele>
        <time>2022-07-19T16:25:29.577Z</time>
      </trkpt>
      <trkpt lat="43.30314" lon="-1.2119">
        <ele>179.941863</ele>
        <time>2022-07-19T16:25:35.176Z</time>
      </trkpt>
      <trkpt lat="43.30277" lon="-1.21122">
        <ele>179.900717</ele>
        <time>2022-07-19T16:25:45.233Z</time>
      </trkpt>
      <trkpt lat="43.30258" lon="-1.21071">
        <ele>179.873003</ele>
        <time>2022-07-19T16:25:53.689Z</time>
      </trkpt>
      <trkpt lat="43.30256" lon="-1.21009">
        <ele>179.842723</ele>
        <time>2022-07-19T16:26:04.518Z</time>
      </trkpt>
      <trkpt lat="43.30224" lon="-1.20909">
        <ele>180.829696</ele>
        <time>2022-07-19T16:26:23.179Z</time>
      </trkpt>
      <trkpt lat="43.30149" lon="-1.20795">
        <ele>182.284323</ele>
        <time>2022-07-19T16:26:48.411Z</time>
      </trkpt>
      <trkpt lat="43.30076" lon="-1.20663">
        <ele>184.004749</ele>
        <time>2022-07-19T16:27:16.830Z</time>
      </trkpt>
      <trkpt lat="43.30045" lon="-1.20624">
        <ele>184.601547</ele>
        <time>2022-07-19T16:27:26.903Z</time>
      </trkpt>
      <trkpt lat="43.30007" lon="-1.20599">
        <ele>184.968015</ele>
        <time>2022-07-19T16:27:36.998Z</time>
      </trkpt>
      <trkpt lat="43.29993" lon="-1.20579">
        <ele>185.114715</ele>
        <time>2022-07-19T16:27:41.751Z</time>
      </trkpt>
      <trkpt lat="43.29875" lon="-1.20352">
        <ele>185.38556</ele>
        <time>2022-07-19T16:28:20.817Z</time>
      </trkpt>
      <trkpt lat="43.29876" lon="-1.20331">
        <ele>185.257733</ele>
        <time>2022-07-19T16:28:23.158Z</time>
      </trkpt>
      <trkpt lat="43.29858" lon="-1.20162">
        <ele>184.028902</ele>
        <time>2022-07-19T16:28:41.720Z</time>
      </trkpt>
      <trkpt lat="43.29817" lon="-1.20068">
        <ele>182.92954</ele>
        <time>2022-07-19T16:28:53.410Z</time>
      </trkpt>
      <trkpt lat="43.29814" lon="-1.20017">
        <ele>182.418509</ele>
        <time>2022-07-19T16:28:59.389Z</time>
      </trkpt>
      <trkpt lat="43.2982" lon="-1.19958">
        <ele>182.152325</ele>
        <time>2022-07-19T16:29:06.891Z</time>
      </trkpt>
      <trkpt lat="43.29817" lon="-1.19936">
        <ele>182.236589</ele>
        <time>2022-07-19T16:29:09.819Z</time>
      </trkpt>
      <trkpt lat="43.29793" lon="-1.19877">
        <ele>182.496719</ele>
        <time>2022-07-19T16:29:19.710Z</time>
      </trkpt>
      <trkpt lat="43.29788" lon="-1.19825">
        <ele>182.698252</ele>
        <time>2022-07-19T16:29:27.974Z</time>
      </trkpt>
      <trkpt lat="43.29823" lon="-1.19723">
        <ele>182.857542</ele>
        <time>2022-07-19T16:29:45.933Z</time>
      </trkpt>
      <trkpt lat="43.29836" lon="-1.19697">
        <ele>182.697906</ele>
        <time>2022-07-19T16:29:50.492Z</time>
      </trkpt>
      <trkpt lat="43.29892" lon="-1.19623">
        <ele>182.161784</ele>
        <time>2022-07-19T16:30:03.362Z</time>
      </trkpt>
      <trkpt lat="43.29922" lon="-1.19546">
        <ele>181.625317</ele>
        <time>2022-07-19T16:30:12.673Z</time>
      </trkpt>
      <trkpt lat="43.29934" lon="-1.19496">
        <ele>180.821429</ele>
        <time>2022-07-19T16:30:18.217Z</time>
      </trkpt>
      <trkpt lat="43.29938" lon="-1.194">
        <ele>179.351552</ele>
        <time>2022-07-19T16:30:28.204Z</time>
      </trkpt>
      <trkpt lat="43.29947" lon="-1.19377">
        <ele>178.941914</ele>
        <time>2022-07-19T16:30:31.020Z</time>
      </trkpt>
      <trkpt lat="43.29977" lon="-1.19333">
        <ele>178.019685</ele>
        <time>2022-07-19T16:30:37.396Z</time>
      </trkpt>
      <trkpt lat="43.30093" lon="-1.19229">
        <ele>176.030089</ele>
        <time>2022-07-19T16:30:58.891Z</time>
      </trkpt>
      <trkpt lat="43.30109" lon="-1.19205">
        <ele>175.697931</ele>
        <time>2022-07-19T16:31:02.507Z</time>
      </trkpt>
      <trkpt lat="43.30124" lon="-1.19171">
        <ele>175.254526</ele>
        <time>2022-07-19T16:31:06.957Z</time>
      </trkpt>
      <trkpt lat="43.30129" lon="-1.19132">
        <ele>174.770687</ele>
        <time>2022-07-19T16:31:11.363Z</time>
      </trkpt>
      <trkpt lat="43.30122" lon="-1.19089">
        <ele>174.219288</ele>
        <time>2022-07-19T16:31:16.263Z</time>
      </trkpt>
      <trkpt lat="43.30084" lon="-1.19018">
        <ele>173.119126</ele>
        <time>2022-07-19T16:31:25.911Z</time>
      </trkpt>
      <trkpt lat="43.30052" lon="-1.18932">
        <ele>171.842804</ele>
        <time>2022-07-19T16:31:36.070Z</time>
      </trkpt>
      <trkpt lat="43.3001" lon="-1.18869">
        <ele>170.590398</ele>
        <time>2022-07-19T16:31:45.053Z</time>
      </trkpt>
      <trkpt lat="43.29989" lon="-1.18788">
        <ele>169.343717</ele>
        <time>2022-07-19T16:31:54.238Z</time>
      </trkpt>
      <trkpt lat="43.29969" lon="-1.18665">
        <ele>167.6796</ele>
        <time>2022-07-19T16:32:08.317Z</time>
      </trkpt>
      <trkpt lat="43.29941" lon="-1.18583">
        <ele>166.551297</ele>
        <time>2022-07-19T16:32:18.404Z</time>
      </trkpt>
      <trkpt lat="43.29916" lon="-1.18556">
        <ele>166.010657</ele>
        <time>2022-07-19T16:32:23.109Z</time>
      </trkpt>
      <trkpt lat="43.29863" lon="-1.18521">
        <ele>164.15241</ele>
        <time>2022-07-19T16:32:31.490Z</time>
      </trkpt>
      <trkpt lat="43.29829" lon="-1.18485">
        <ele>162.469279</ele>
        <time>2022-07-19T16:32:37.321Z</time>
      </trkpt>
      <trkpt lat="43.29806" lon="-1.18449">
        <ele>161.09385</ele>
        <time>2022-07-19T16:32:41.821Z</time>
      </trkpt>
      <trkpt lat="43.29766" lon="-1.18337">
        <ele>157.58664</ele>
        <time>2022-07-19T16:32:53.244Z</time>
      </trkpt>
      <trkpt lat="43.29759" lon="-1.18254">
        <ele>155.284409</ele>
        <time>2022-07-19T16:33:01.037Z</time>
      </trkpt>
      <trkpt lat="43.29757" lon="-1.18218">
        <ele>154.285623</ele>
        <time>2022-07-19T16:33:04.564Z</time>
      </trkpt>
      <trkpt lat="43.2976" lon="-1.18184">
        <ele>153.335468</ele>
        <time>2022-07-19T16:33:07.986Z</time>
      </trkpt>
      <trkpt lat="43.29789" lon="-1.18094">
        <ele>151.553367</ele>
        <time>2022-07-19T16:33:18.239Z</time>
      </trkpt>
      <trkpt lat="43.29833" lon="-1.17879">
        <ele>150.160474</ele>
        <time>2022-07-19T16:33:46.348Z</time>
      </trkpt>
      <trkpt lat="43.29836" lon="-1.17869">
        <ele>150.077201</ele>
        <time>2022-07-19T16:33:47.547Z</time>
      </trkpt>
      <trkpt lat="43.29857" lon="-1.1781">
        <ele>149.537829</ele>
        <time>2022-07-19T16:33:55.286Z</time>
      </trkpt>
      <trkpt lat="43.29878" lon="-1.17768">
        <ele>149.122602</ele>
        <time>2022-07-19T16:34:01.022Z</time>
      </trkpt>
      <trkpt lat="43.29892" lon="-1.17703">
        <ele>148.566162</ele>
        <time>2022-07-19T16:34:08.664Z</time>
      </trkpt>
      <trkpt lat="43.29892" lon="-1.17688">
        <ele>148.442073</ele>
        <time>2022-07-19T16:34:10.266Z</time>
      </trkpt>
      <trkpt lat="43.29892" lon="-1.17645">
        <ele>148.083934</ele>
        <time>2022-07-19T16:34:14.956Z</time>
      </trkpt>
      <trkpt lat="43.29918" lon="-1.17588">
        <ele>147.509839</ele>
        <time>2022-07-19T16:34:22.361Z</time>
      </trkpt>
      <trkpt lat="43.2995" lon="-1.17565">
        <ele>147.085686</ele>
        <time>2022-07-19T16:34:27.899Z</time>
      </trkpt>
      <trkpt lat="43.30015" lon="-1.17489">
        <ele>146.209236</ele>
        <time>2022-07-19T16:34:41.629Z</time>
      </trkpt>
      <trkpt lat="43.30042" lon="-1.17439">
        <ele>146.239783</ele>
        <time>2022-07-19T16:34:49.739Z</time>
      </trkpt>
      <trkpt lat="43.30069" lon="-1.17378">
        <ele>146.274265</ele>
        <time>2022-07-19T16:34:59.292Z</time>
      </trkpt>
      <trkpt lat="43.30072" lon="-1.17369">
        <ele>146.27916</ele>
        <time>2022-07-19T16:35:00.640Z</time>
      </trkpt>
      <trkpt lat="43.30091" lon="-1.17344">
        <ele>146.296407</ele>
        <time>2022-07-19T16:35:05.772Z</time>
      </trkpt>
      <trkpt lat="43.3014" lon="-1.17301">
        <ele>146.242948</ele>
        <time>2022-07-19T16:35:17.147Z</time>
      </trkpt>
      <trkpt lat="43.30153" lon="-1.17282">
        <ele>146.161346</ele>
        <time>2022-07-19T16:35:20.969Z</time>
      </trkpt>
      <trkpt lat="43.30176" lon="-1.17247">
        <ele>146.015531</ele>
        <time>2022-07-19T16:35:27.323Z</time>
      </trkpt>
      <trkpt lat="43.30191" lon="-1.17233">
        <ele>145.935655</ele>
        <time>2022-07-19T16:35:30.576Z</time>
      </trkpt>
      <trkpt lat="43.30215" lon="-1.17223">
        <ele>145.828108</ele>
        <time>2022-07-19T16:35:34.977Z</time>
      </trkpt>
      <trkpt lat="43.30303" lon="-1.17052">
        <ele>143.841786</ele>
        <time>2022-07-19T16:35:58.107Z</time>
      </trkpt>
      <trkpt lat="43.30328" lon="-1.1698">
        <ele>142.699189</ele>
        <time>2022-07-19T16:36:06.475Z</time>
      </trkpt>
      <trkpt lat="43.30348" lon="-1.16916">
        <ele>141.772297</ele>
        <time>2022-07-19T16:36:13.674Z</time>
      </trkpt>
      <trkpt lat="43.30364" lon="-1.16849">
        <ele>140.94669</ele>
        <time>2022-07-19T16:36:21.078Z</time>
      </trkpt>
      <trkpt lat="43.30384" lon="-1.16815">
        <ele>140.438371</ele>
        <time>2022-07-19T16:36:25.744Z</time>
      </trkpt>
      <trkpt lat="43.3042" lon="-1.16766">
        <ele>139.624339</ele>
        <time>2022-07-19T16:36:33.830Z</time>
      </trkpt>
      <trkpt lat="43.30429" lon="-1.16765">
        <ele>139.475789</ele>
        <time>2022-07-19T16:36:35.242Z</time>
      </trkpt>
      <trkpt lat="43.3045" lon="-1.16761">
        <ele>139.148798</ele>
        <time>2022-07-19T16:36:38.796Z</time>
      </trkpt>
      <trkpt lat="43.30497" lon="-1.16775">
        <ele>138.912001</ele>
        <time>2022-07-19T16:36:46.762Z</time>
      </trkpt>
      <trkpt lat="43.3054" lon="-1.16774">
        <ele>138.699306</ele>
        <time>2022-07-19T16:36:53.957Z</time>
      </trkpt>
      <trkpt lat="43.30679" lon="-1.16749">
        <ele>137.819017</ele>
        <time>2022-07-19T16:37:17.822Z</time>
      </trkpt>
      <trkpt lat="43.30719" lon="-1.16735">
        <ele>137.470534</ele>
        <time>2022-07-19T16:37:24.402Z</time>
      </trkpt>
      <trkpt lat="43.30768" lon="-1.16683">
        <ele>136.947688</ele>
        <time>2022-07-19T16:37:34.060Z</time>
      </trkpt>
      <trkpt lat="43.30893" lon="-1.16637">
        <ele>135.917662</ele>
        <time>2022-07-19T16:37:54.490Z</time>
      </trkpt>
      <trkpt lat="43.30944" lon="-1.16615">
        <ele>135.49604</ele>
        <time>2022-07-19T16:38:03.310Z</time>
      </trkpt>
      <trkpt lat="43.31053" lon="-1.16544">
        <ele>135.629366</ele>
        <time>2022-07-19T16:38:24.930Z</time>
      </trkpt>
      <trkpt lat="43.3109" lon="-1.16515">
        <ele>135.759019</ele>
        <time>2022-07-19T16:38:33.549Z</time>
      </trkpt>
      <trkpt lat="43.31147" lon="-1.16459">
        <ele>136.079321</ele>
        <time>2022-07-19T16:38:48.245Z</time>
      </trkpt>
      <trkpt lat="43.31227" lon="-1.16417">
        <ele>136.634155</ele>
        <time>2022-07-19T16:39:07.268Z</time>
      </trkpt>
      <trkpt lat="43.31271" lon="-1.16374">
        <ele>136.981963</ele>
        <time>2022-07-19T16:39:18.659Z</time>
      </trkpt>
      <trkpt lat="43.31328" lon="-1.1635">
        <ele>136.252222</ele>
        <time>2022-07-19T16:39:28.434Z</time>
      </trkpt>
      <trkpt lat="43.31409" lon="-1.16334">
        <ele>135.020977</ele>
        <time>2022-07-19T16:39:40.584Z</time>
      </trkpt>
      <trkpt lat="43.31418" lon="-1.16334">
        <ele>134.884527</ele>
        <time>2022-07-19T16:39:41.858Z</time>
      </trkpt>
      <trkpt lat="43.3148" lon="-1.1633">
        <ele>133.807072</ele>
        <time>2022-07-19T16:39:50.620Z</time>
      </trkpt>
      <trkpt lat="43.3152" lon="-1.16316">
        <ele>132.942827</ele>
        <time>2022-07-19T16:39:56.332Z</time>
      </trkpt>
      <trkpt lat="43.31551" lon="-1.16285">
        <ele>132.156519</ele>
        <time>2022-07-19T16:40:01.600Z</time>
      </trkpt>
      <trkpt lat="43.31568" lon="-1.16261">
        <ele>131.63862</ele>
        <time>2022-07-19T16:40:05.112Z</time>
      </trkpt>
      <trkpt lat="43.31576" lon="-1.16233">
        <ele>131.185226</ele>
        <time>2022-07-19T16:40:08.395Z</time>
      </trkpt>
      <trkpt lat="43.31575" lon="-1.1616">
        <ele>130.491698</ele>
        <time>2022-07-19T16:40:17.185Z</time>
      </trkpt>
      <trkpt lat="43.3162" lon="-1.16059">
        <ele>130.237868</ele>
        <time>2022-07-19T16:40:34.190Z</time>
      </trkpt>
      <trkpt lat="43.31719" lon="-1.15933">
        <ele>128.812992</ele>
        <time>2022-07-19T16:40:56.314Z</time>
      </trkpt>
      <trkpt lat="43.31836" lon="-1.1584">
        <ele>126.236159</ele>
        <time>2022-07-19T16:41:15.563Z</time>
      </trkpt>
      <trkpt lat="43.31883" lon="-1.15794">
        <ele>125.126128</ele>
        <time>2022-07-19T16:41:23.449Z</time>
      </trkpt>
      <trkpt lat="43.31934" lon="-1.15727">
        <ele>123.767162</ele>
        <time>2022-07-19T16:41:33.776Z</time>
      </trkpt>
      <trkpt lat="43.31956" lon="-1.15698">
        <ele>123.179312</ele>
        <time>2022-07-19T16:41:38.762Z</time>
      </trkpt>
      <trkpt lat="43.32028" lon="-1.15567">
        <ele>124.126835</ele>
        <time>2022-07-19T16:42:03.479Z</time>
      </trkpt>
      <trkpt lat="43.32076" lon="-1.1545">
        <ele>124.994227</ele>
        <time>2022-07-19T16:42:27.315Z</time>
      </trkpt>
      <trkpt lat="43.32108" lon="-1.15402">
        <ele>125.473053</ele>
        <time>2022-07-19T16:42:38.856Z</time>
      </trkpt>
      <trkpt lat="43.32162" lon="-1.15335">
        <ele>126.198292</ele>
        <time>2022-07-19T16:42:54.789Z</time>
      </trkpt>
      <trkpt lat="43.32165" lon="-1.15317">
        <ele>126.337439</ele>
        <time>2022-07-19T16:42:57.353Z</time>
      </trkpt>
      <trkpt lat="43.32168" lon="-1.15298">
        <ele>126.391304</ele>
        <time>2022-07-19T16:42:59.777Z</time>
      </trkpt>
      <trkpt lat="43.32185" lon="-1.15211">
        <ele>125.483505</ele>
        <time>2022-07-19T16:43:10.315Z</time>
      </trkpt>
      <trkpt lat="43.32291" lon="-1.14782">
        <ele>121.321261</ele>
        <time>2022-07-19T16:43:58.631Z</time>
      </trkpt>
      <trkpt lat="43.32307" lon="-1.14716">
        <ele>122.326011</ele>
        <time>2022-07-19T16:44:10.107Z</time>
      </trkpt>
      <trkpt lat="43.324" lon="-1.14344">
        <ele>131.727662</ele>
        <time>2022-07-19T16:45:52.245Z</time>
      </trkpt>
      <trkpt lat="43.32403" lon="-1.14316">
        <ele>131.655294</ele>
        <time>2022-07-19T16:45:58.411Z</time>
      </trkpt>
      <trkpt lat="43.32393" lon="-1.14274">
        <ele>131.542686</ele>
        <time>2022-07-19T16:46:05.833Z</time>
      </trkpt>
      <trkpt lat="43.3239" lon="-1.14258">
        <ele>131.499355</ele>
        <time>2022-07-19T16:46:07.878Z</time>
      </trkpt>
      <trkpt lat="43.32396" lon="-1.14116">
        <ele>130.969249</ele>
        <time>2022-07-19T16:46:22.849Z</time>
      </trkpt>
      <trkpt lat="43.32396" lon="-1.13949">
        <ele>125.994619</ele>
        <time>2022-07-19T16:46:38.336Z</time>
      </trkpt>
      <trkpt lat="43.32406" lon="-1.13866">
        <ele>123.663457</ele>
        <time>2022-07-19T16:46:46.374Z</time>
      </trkpt>
      <trkpt lat="43.32433" lon="-1.13826">
        <ele>122.888592</ele>
        <time>2022-07-19T16:46:52.073Z</time>
      </trkpt>
      <trkpt lat="43.32466" lon="-1.13807">
        <ele>122.219979</ele>
        <time>2022-07-19T16:46:57.199Z</time>
      </trkpt>
      <trkpt lat="43.32521" lon="-1.1379">
        <ele>121.127539</ele>
        <time>2022-07-19T16:47:06.091Z</time>
      </trkpt>
      <trkpt lat="43.32568" lon="-1.13805">
        <ele>120.236526</ele>
        <time>2022-07-19T16:47:13.893Z</time>
      </trkpt>
      <trkpt lat="43.32712" lon="-1.13801">
        <ele>118.121675</ele>
        <time>2022-07-19T16:47:35.649Z</time>
      </trkpt>
      <trkpt lat="43.32767" lon="-1.13773">
        <ele>117.825495</ele>
        <time>2022-07-19T16:47:44.433Z</time>
      </trkpt>
      <trkpt lat="43.32759" lon="-1.13701">
        <ele>118.027701</ele>
        <time>2022-07-19T16:47:53.697Z</time>
      </trkpt>
      <trkpt lat="43.32754" lon="-1.13545">
        <ele>118.828668</ele>
        <time>2022-07-19T16:48:19.998Z</time>
      </trkpt>
      <trkpt lat="43.32759" lon="-1.13517">
        <ele>119.340548</ele>
        <time>2022-07-19T16:48:26.379Z</time>
      </trkpt>
      <trkpt lat="43.32729" lon="-1.13486">
        <ele>120.260589</ele>
        <time>2022-07-19T16:48:36.866Z</time>
      </trkpt>
      <trkpt lat="43.32673" lon="-1.13447">
        <ele>121.813444</ele>
        <time>2022-07-19T16:48:54.885Z</time>
      </trkpt>
      <trkpt lat="43.32587" lon="-1.13352">
        <ele>125.945497</ele>
        <time>2022-07-19T16:49:28.197Z</time>
      </trkpt>
      <trkpt lat="43.32546" lon="-1.13289">
        <ele>128.689032</ele>
        <time>2022-07-19T16:49:49.035Z</time>
      </trkpt>
      <trkpt lat="43.32519" lon="-1.13255">
        <ele>130.326481</ele>
        <time>2022-07-19T16:50:03.679Z</time>
      </trkpt>
      <trkpt lat="43.32479" lon="-1.13164">
        <ele>136.886844</ele>
        <time>2022-07-19T16:50:45.649Z</time>
      </trkpt>
      <trkpt lat="43.32473" lon="-1.13099">
        <ele>141.19865</ele>
        <time>2022-07-19T16:51:13.787Z</time>
      </trkpt>
      <trkpt lat="43.32498" lon="-1.13029">
        <ele>146.334291</ele>
        <time>2022-07-19T16:51:45.795Z</time>
      </trkpt>
      <trkpt lat="43.32554" lon="-1.12923">
        <ele>154.902119</ele>
        <time>2022-07-19T16:52:41.590Z</time>
      </trkpt>
      <trkpt lat="43.32552" lon="-1.12902">
        <ele>156.308693</ele>
        <time>2022-07-19T16:52:49.511Z</time>
      </trkpt>
      <trkpt lat="43.32484" lon="-1.12673">
        <ele>173.264294</ele>
        <time>2022-07-19T16:54:20.840Z</time>
      </trkpt>
      <trkpt lat="43.32482" lon="-1.12627">
        <ele>176.570484</ele>
        <time>2022-07-19T16:54:42.404Z</time>
      </trkpt>
      <trkpt lat="43.32496" lon="-1.12377">
        <ele>197.086661</ele>
        <time>2022-07-19T16:56:47.353Z</time>
      </trkpt>
      <trkpt lat="43.32495" lon="-1.12271">
        <ele>204.90907</ele>
        <time>2022-07-19T16:57:34.033Z</time>
      </trkpt>
      <trkpt lat="43.32489" lon="-1.1214">
        <ele>212.61279</ele>
        <time>2022-07-19T16:58:20.474Z</time>
      </trkpt>
      <trkpt lat="43.32472" lon="-1.12055">
        <ele>217.536574</ele>
        <time>2022-07-19T16:58:50.436Z</time>
      </trkpt>
      <trkpt lat="43.32463" lon="-1.11825">
        <ele>227.980344</ele>
        <time>2022-07-19T17:00:03.337Z</time>
      </trkpt>
      <trkpt lat="43.32474" lon="-1.11745">
        <ele>230.039049</ele>
        <time>2022-07-19T17:00:27.293Z</time>
      </trkpt>
      <trkpt lat="43.32513" lon="-1.11666">
        <ele>232.471552</ele>
        <time>2022-07-19T17:00:49.940Z</time>
      </trkpt>
      <trkpt lat="43.32534" lon="-1.11596">
        <ele>234.214718</ele>
        <time>2022-07-19T17:01:02.954Z</time>
      </trkpt>
      <trkpt lat="43.32551" lon="-1.11574">
        <ele>234.166495</ele>
        <time>2022-07-19T17:01:07.386Z</time>
      </trkpt>
      <trkpt lat="43.32606" lon="-1.1152">
        <ele>234.025413</ele>
        <time>2022-07-19T17:01:20.135Z</time>
      </trkpt>
      <trkpt lat="43.3264" lon="-1.11449">
        <ele>233.897428</ele>
        <time>2022-07-19T17:01:30.618Z</time>
      </trkpt>
      <trkpt lat="43.32663" lon="-1.11419">
        <ele>233.740849</ele>
        <time>2022-07-19T17:01:35.673Z</time>
      </trkpt>
      <trkpt lat="43.32704" lon="-1.11379">
        <ele>233.171467</ele>
        <time>2022-07-19T17:01:43.848Z</time>
      </trkpt>
      <trkpt lat="43.32722" lon="-1.11335">
        <ele>232.756575</ele>
        <time>2022-07-19T17:01:49.915Z</time>
      </trkpt>
      <trkpt lat="43.32765" lon="-1.11149">
        <ele>230.915497</ele>
        <time>2022-07-19T17:02:13.534Z</time>
      </trkpt>
      <trkpt lat="43.32761" lon="-1.11097">
        <ele>230.343008</ele>
        <time>2022-07-19T17:02:19.598Z</time>
      </trkpt>
      <trkpt lat="43.32743" lon="-1.11055">
        <ele>229.80044</ele>
        <time>2022-07-19T17:02:25.212Z</time>
      </trkpt>
      <trkpt lat="43.32725" lon="-1.10945">
        <ele>228.329479</ele>
        <time>2022-07-19T17:02:37.758Z</time>
      </trkpt>
      <trkpt lat="43.32732" lon="-1.1088">
        <ele>227.310932</ele>
        <time>2022-07-19T17:02:44.896Z</time>
      </trkpt>
      <trkpt lat="43.32747" lon="-1.10827">
        <ele>226.413374</ele>
        <time>2022-07-19T17:02:51.208Z</time>
      </trkpt>
      <trkpt lat="43.32789" lon="-1.10747">
        <ele>224.940977</ele>
        <time>2022-07-19T17:03:02.143Z</time>
      </trkpt>
      <trkpt lat="43.32783" lon="-1.10482">
        <ele>221.102623</ele>
        <time>2022-07-19T17:03:32.558Z</time>
      </trkpt>
      <trkpt lat="43.32762" lon="-1.10396">
        <ele>218.846757</ele>
        <time>2022-07-19T17:03:42.553Z</time>
      </trkpt>
      <trkpt lat="43.32752" lon="-1.10338">
        <ele>217.383051</ele>
        <time>2022-07-19T17:03:48.515Z</time>
      </trkpt>
      <trkpt lat="43.3272" lon="-1.10264">
        <ele>214.522225</ele>
        <time>2022-07-19T17:03:56.882Z</time>
      </trkpt>
      <trkpt lat="43.32715" lon="-1.10235">
        <ele>212.992919</ele>
        <time>2022-07-19T17:03:59.588Z</time>
      </trkpt>
      <trkpt lat="43.32715" lon="-1.10148">
        <ele>208.557745</ele>
        <time>2022-07-19T17:04:07.586Z</time>
      </trkpt>
      <trkpt lat="43.32725" lon="-1.1008">
        <ele>205.057059</ele>
        <time>2022-07-19T17:04:13.803Z</time>
      </trkpt>
      <trkpt lat="43.32722" lon="-1.10045">
        <ele>203.307202</ele>
        <time>2022-07-19T17:04:16.917Z</time>
      </trkpt>
      <trkpt lat="43.32701" lon="-1.09957">
        <ele>199.953239</ele>
        <time>2022-07-19T17:04:25.468Z</time>
      </trkpt>
      <trkpt lat="43.32696" lon="-1.09913">
        <ele>198.363838</ele>
        <time>2022-07-19T17:04:29.606Z</time>
      </trkpt>
      <trkpt lat="43.327" lon="-1.09817">
        <ele>194.873688</ele>
        <time>2022-07-19T17:04:39.431Z</time>
      </trkpt>
      <trkpt lat="43.32686" lon="-1.09695">
        <ele>195.788804</ele>
        <time>2022-07-19T17:04:55.238Z</time>
      </trkpt>
      <trkpt lat="43.32672" lon="-1.09658">
        <ele>196.256247</ele>
        <time>2022-07-19T17:05:02.868Z</time>
      </trkpt>
      <trkpt lat="43.32639" lon="-1.0961">
        <ele>197.0204</ele>
        <time>2022-07-19T17:05:20.018Z</time>
      </trkpt>
      <trkpt lat="43.32626" lon="-1.09574">
        <ele>197.868658</ele>
        <time>2022-07-19T17:05:31.479Z</time>
      </trkpt>
      <trkpt lat="43.32615" lon="-1.09521">
        <ele>200.00952</ele>
        <time>2022-07-19T17:05:48.162Z</time>
      </trkpt>
      <trkpt lat="43.32599" lon="-1.09483">
        <ele>201.764461</ele>
        <time>2022-07-19T17:06:02.448Z</time>
      </trkpt>
      <trkpt lat="43.32564" lon="-1.09442">
        <ele>204.243821</ele>
        <time>2022-07-19T17:06:22.174Z</time>
      </trkpt>
      <trkpt lat="43.32512" lon="-1.09408">
        <ele>207.038106</ele>
        <time>2022-07-19T17:06:44.636Z</time>
      </trkpt>
      <trkpt lat="43.32478" lon="-1.09372">
        <ele>207.180654</ele>
        <time>2022-07-19T17:07:00.149Z</time>
      </trkpt>
      <trkpt lat="43.32421" lon="-1.09327">
        <ele>207.398761</ele>
        <time>2022-07-19T17:07:14.029Z</time>
      </trkpt>
      <trkpt lat="43.32368" lon="-1.09325">
        <ele>207.575267</ele>
        <time>2022-07-19T17:07:21.871Z</time>
      </trkpt>
      <trkpt lat="43.32351" lon="-1.09317">
        <ele>207.336135</ele>
        <time>2022-07-19T17:07:24.363Z</time>
      </trkpt>
      <trkpt lat="43.32226" lon="-1.09224">
        <ele>199.927763</ele>
        <time>2022-07-19T17:07:43.154Z</time>
      </trkpt>
      <trkpt lat="43.32204" lon="-1.09183">
        <ele>197.932663</ele>
        <time>2022-07-19T17:07:47.848Z</time>
      </trkpt>
      <trkpt lat="43.3217" lon="-1.09036">
        <ele>190.3142</ele>
        <time>2022-07-19T17:08:02.249Z</time>
      </trkpt>
      <trkpt lat="43.32148" lon="-1.08979">
        <ele>187.141773</ele>
        <time>2022-07-19T17:08:08.069Z</time>
      </trkpt>
      <trkpt lat="43.32089" lon="-1.08913">
        <ele>181.549381</ele>
        <time>2022-07-19T17:08:17.495Z</time>
      </trkpt>
      <trkpt lat="43.32044" lon="-1.08846">
        <ele>176.659085</ele>
        <time>2022-07-19T17:08:25.598Z</time>
      </trkpt>
      <trkpt lat="43.31978" lon="-1.08766">
        <ele>171.435529</ele>
        <time>2022-07-19T17:08:36.752Z</time>
      </trkpt>
      <trkpt lat="43.31891" lon="-1.08697">
        <ele>167.852765</ele>
        <time>2022-07-19T17:08:50.976Z</time>
      </trkpt>
      <trkpt lat="43.31861" lon="-1.08675">
        <ele>166.645819</ele>
        <time>2022-07-19T17:08:56.541Z</time>
      </trkpt>
      <trkpt lat="43.31788" lon="-1.0866">
        <ele>165.153954</ele>
        <time>2022-07-19T17:09:09.880Z</time>
      </trkpt>
      <trkpt lat="43.31716" lon="-1.08659">
        <ele>163.879037</ele>
        <time>2022-07-19T17:09:21.274Z</time>
      </trkpt>
      <trkpt lat="43.31633" lon="-1.08641">
        <ele>161.454073</ele>
        <time>2022-07-19T17:09:33.255Z</time>
      </trkpt>
      <trkpt lat="43.3157" lon="-1.08659">
        <ele>158.826729</ele>
        <time>2022-07-19T17:09:41.930Z</time>
      </trkpt>
      <trkpt lat="43.31482" lon="-1.08657">
        <ele>155.344521</ele>
        <time>2022-07-19T17:09:53.843Z</time>
      </trkpt>
      <trkpt lat="43.31461" lon="-1.08651">
        <ele>154.741329</ele>
        <time>2022-07-19T17:09:56.702Z</time>
      </trkpt>
      <trkpt lat="43.31387" lon="-1.08558">
        <ele>151.929776</ele>
        <time>2022-07-19T17:10:11.460Z</time>
      </trkpt>
      <trkpt lat="43.31299" lon="-1.0833">
        <ele>149.474496</ele>
        <time>2022-07-19T17:10:42.134Z</time>
      </trkpt>
      <trkpt lat="43.31298" lon="-1.08316">
        <ele>149.389944</ele>
        <time>2022-07-19T17:10:43.870Z</time>
      </trkpt>
      <trkpt lat="43.31286" lon="-1.08259">
        <ele>149.314425</ele>
        <time>2022-07-19T17:10:52.029Z</time>
      </trkpt>
      <trkpt lat="43.31236" lon="-1.08179">
        <ele>150.123381</ele>
        <time>2022-07-19T17:11:09.968Z</time>
      </trkpt>
      <trkpt lat="43.312" lon="-1.08146">
        <ele>150.586287</ele>
        <time>2022-07-19T17:11:21.011Z</time>
      </trkpt>
      <trkpt lat="43.31182" lon="-1.0812">
        <ele>150.865306</ele>
        <time>2022-07-19T17:11:27.418Z</time>
      </trkpt>
      <trkpt lat="43.31174" lon="-1.08099">
        <ele>151.04296</ele>
        <time>2022-07-19T17:11:31.697Z</time>
      </trkpt>
      <trkpt lat="43.31168" lon="-1.08069">
        <ele>150.813964</ele>
        <time>2022-07-19T17:11:36.853Z</time>
      </trkpt>
      <trkpt lat="43.31137" lon="-1.07991">
        <ele>150.073578</ele>
        <time>2022-07-19T17:11:50.619Z</time>
      </trkpt>
      <trkpt lat="43.31077" lon="-1.07924">
        <ele>149.187245</ele>
        <time>2022-07-19T17:12:02.069Z</time>
      </trkpt>
      <trkpt lat="43.31038" lon="-1.07868">
        <ele>145.784379</ele>
        <time>2022-07-19T17:12:09.242Z</time>
      </trkpt>
      <trkpt lat="43.31028" lon="-1.07847">
        <ele>144.230067</ele>
        <time>2022-07-19T17:12:11.435Z</time>
      </trkpt>
      <trkpt lat="43.31017" lon="-1.0781">
        <ele>141.860086</ele>
        <time>2022-07-19T17:12:14.838Z</time>
      </trkpt>
      <trkpt lat="43.31006" lon="-1.07723">
        <ele>136.568817</ele>
        <time>2022-07-19T17:12:22.167Z</time>
      </trkpt>
      <trkpt lat="43.30996" lon="-1.07558">
        <ele>125.767613</ele>
        <time>2022-07-19T17:12:35.619Z</time>
      </trkpt>
      <trkpt lat="43.31059" lon="-1.0734">
        <ele>112.70584</ele>
        <time>2022-07-19T17:12:55.897Z</time>
      </trkpt>
      <trkpt lat="43.31065" lon="-1.07296">
        <ele>110.773825</ele>
        <time>2022-07-19T17:13:00.099Z</time>
      </trkpt>
      <trkpt lat="43.31078" lon="-1.07249">
        <ele>108.539092</ele>
        <time>2022-07-19T17:13:04.936Z</time>
      </trkpt>
      <trkpt lat="43.31085" lon="-1.07212">
        <ele>106.904388</ele>
        <time>2022-07-19T17:13:08.437Z</time>
      </trkpt>
      <trkpt lat="43.3109" lon="-1.07067">
        <ele>100.387596</ele>
        <time>2022-07-19T17:13:21.442Z</time>
      </trkpt>
      <trkpt lat="43.31154" lon="-1.06856">
        <ele>90.626756</ele>
        <time>2022-07-19T17:13:41.527Z</time>
      </trkpt>
      <trkpt lat="43.31162" lon="-1.06804">
        <ele>88.448544</ele>
        <time>2022-07-19T17:13:46.331Z</time>
      </trkpt>
      <trkpt lat="43.31164" lon="-1.06649">
        <ele>84.327386</ele>
        <time>2022-07-19T17:14:01.596Z</time>
      </trkpt>
      <trkpt lat="43.31157" lon="-1.06622">
        <ele>83.886753</ele>
        <time>2022-07-19T17:14:04.636Z</time>
      </trkpt>
      <trkpt lat="43.31365" lon="-1.0642">
        <ele>79.408573</ele>
        <time>2022-07-19T17:14:44.436Z</time>
      </trkpt>
      <trkpt lat="43.31465" lon="-1.06339">
        <ele>75.737772</ele>
        <time>2022-07-19T17:15:00.545Z</time>
      </trkpt>
      <trkpt lat="43.3156" lon="-1.0626">
        <ele>71.646089</ele>
        <time>2022-07-19T17:15:14.904Z</time>
      </trkpt>
      <trkpt lat="43.31586" lon="-1.06231">
        <ele>70.221536</ele>
        <time>2022-07-19T17:15:19.137Z</time>
      </trkpt>
      <trkpt lat="43.316" lon="-1.06205">
        <ele>69.201422</ele>
        <time>2022-07-19T17:15:22.172Z</time>
      </trkpt>
      <trkpt lat="43.31608" lon="-1.06174">
        <ele>68.19517</ele>
        <time>2022-07-19T17:15:25.239Z</time>
      </trkpt>
      <trkpt lat="43.31609" lon="-1.06138">
        <ele>67.090358</ele>
        <time>2022-07-19T17:15:28.660Z</time>
      </trkpt>
      <trkpt lat="43.31586" lon="-1.06069">
        <ele>64.988668</ele>
        <time>2022-07-19T17:15:36.081Z</time>
      </trkpt>
      <trkpt lat="43.3158" lon="-1.06033">
        <ele>64.530422</ele>
        <time>2022-07-19T17:15:39.873Z</time>
      </trkpt>
      <trkpt lat="43.31583" lon="-1.05997">
        <ele>64.069856</ele>
        <time>2022-07-19T17:15:43.839Z</time>
      </trkpt>
      <trkpt lat="43.31598" lon="-1.0596">
        <ele>63.531099</ele>
        <time>2022-07-19T17:15:48.430Z</time>
      </trkpt>
      <trkpt lat="43.31631" lon="-1.05928">
        <ele>62.837968</ele>
        <time>2022-07-19T17:15:54.431Z</time>
      </trkpt>
      <trkpt lat="43.31778" lon="-1.05854">
        <ele>61.578931</ele>
        <time>2022-07-19T17:16:20.580Z</time>
      </trkpt>
      <trkpt lat="43.31809" lon="-1.05819">
        <ele>61.415885</ele>
        <time>2022-07-19T17:16:27.411Z</time>
      </trkpt>
      <trkpt lat="43.31824" lon="-1.05788">
        <ele>61.304356</ele>
        <time>2022-07-19T17:16:32.180Z</time>
      </trkpt>
      <trkpt lat="43.31832" lon="-1.05744">
        <ele>61.344249</ele>
        <time>2022-07-19T17:16:38.042Z</time>
      </trkpt>
      <trkpt lat="43.31848" lon="-1.0553">
        <ele>61.601562</ele>
        <time>2022-07-19T17:17:07.338Z</time>
      </trkpt>
      <trkpt lat="43.31845" lon="-1.05479">
        <ele>61.653887</ele>
        <time>2022-07-19T17:17:14.404Z</time>
      </trkpt>
      <trkpt lat="43.31825" lon="-1.05378">
        <ele>61.76194</ele>
        <time>2022-07-19T17:17:29.234Z</time>
      </trkpt>
      <trkpt lat="43.31791" lon="-1.05201">
        <ele>60.896978</ele>
        <time>2022-07-19T17:17:52.340Z</time>
      </trkpt>
      <trkpt lat="43.31794" lon="-1.05157">
        <ele>60.491867</ele>
        <time>2022-07-19T17:17:57.418Z</time>
      </trkpt>
      <trkpt lat="43.3181" lon="-1.0513">
        <ele>60.162885</ele>
        <time>2022-07-19T17:18:01.292Z</time>
      </trkpt>
      <trkpt lat="43.3187" lon="-1.05069">
        <ele>59.114971</ele>
        <time>2022-07-19T17:18:11.533Z</time>
      </trkpt>
      <trkpt lat="43.31922" lon="-1.05029">
        <ele>58.1201</ele>
        <time>2022-07-19T17:18:20.010Z</time>
      </trkpt>
      <trkpt lat="43.31946" lon="-1.04986">
        <ele>57.464358</ele>
        <time>2022-07-19T17:18:26.083Z</time>
      </trkpt>
      <trkpt lat="43.3196" lon="-1.04955">
        <ele>57.017074</ele>
        <time>2022-07-19T17:18:30.298Z</time>
      </trkpt>
      <trkpt lat="43.31977" lon="-1.04914">
        <ele>56.581012</ele>
        <time>2022-07-19T17:18:36.009Z</time>
      </trkpt>
      <trkpt lat="43.31988" lon="-1.04881">
        <ele>56.767157</ele>
        <time>2022-07-19T17:18:40.613Z</time>
      </trkpt>
      <trkpt lat="43.31996" lon="-1.04826">
        <ele>57.058572</ele>
        <time>2022-07-19T17:18:48.393Z</time>
      </trkpt>
      <trkpt lat="43.32015" lon="-1.04536">
        <ele>57.87756</ele>
        <time>2022-07-19T17:19:37.286Z</time>
      </trkpt>
      <trkpt lat="43.32027" lon="-1.04438">
        <ele>57.924559</ele>
        <time>2022-07-19T17:19:48.587Z</time>
      </trkpt>
      <trkpt lat="43.32121" lon="-1.04153">
        <ele>52.98124</ele>
        <time>2022-07-19T17:20:20.687Z</time>
      </trkpt>
      <trkpt lat="43.32131" lon="-1.04129">
        <ele>52.734925</ele>
        <time>2022-07-19T17:20:23.632Z</time>
      </trkpt>
      <trkpt lat="43.32149" lon="-1.04092">
        <ele>52.340216</ele>
        <time>2022-07-19T17:20:28.509Z</time>
      </trkpt>
      <trkpt lat="43.32187" lon="-1.04051">
        <ele>51.744649</ele>
        <time>2022-07-19T17:20:36.327Z</time>
      </trkpt>
      <trkpt lat="43.32271" lon="-1.04002">
        <ele>51.961316</ele>
        <time>2022-07-19T17:20:54.519Z</time>
      </trkpt>
      <trkpt lat="43.32281" lon="-1.03997">
        <ele>52.082072</ele>
        <time>2022-07-19T17:20:56.922Z</time>
      </trkpt>
      <trkpt lat="43.32473" lon="-1.03889">
        <ele>54.350961</ele>
        <time>2022-07-19T17:21:46.576Z</time>
      </trkpt>
      <trkpt lat="43.32487" lon="-1.03886">
        <ele>54.502017</ele>
        <time>2022-07-19T17:21:49.702Z</time>
      </trkpt>
      <trkpt lat="43.32499" lon="-1.03885">
        <ele>54.631965</ele>
        <time>2022-07-19T17:21:52.222Z</time>
      </trkpt>
      <trkpt lat="43.32508" lon="-1.03867">
        <ele>54.805764</ele>
        <time>2022-07-19T17:21:55.809Z</time>
      </trkpt>
      <trkpt lat="43.32521" lon="-1.03861">
        <ele>54.95185</ele>
        <time>2022-07-19T17:21:58.502Z</time>
      </trkpt>
      <trkpt lat="43.32549" lon="-1.03836">
        <ele>55.232842</ele>
        <time>2022-07-19T17:22:05.023Z</time>
      </trkpt>
      <trkpt lat="43.32624" lon="-1.03768">
        <ele>54.949971</ele>
        <time>2022-07-19T17:22:20.700Z</time>
      </trkpt>
      <trkpt lat="43.32682" lon="-1.03713">
        <ele>54.729966</ele>
        <time>2022-07-19T17:22:32.276Z</time>
      </trkpt>
      <trkpt lat="43.32678" lon="-1.03702">
        <ele>54.70207</ele>
        <time>2022-07-19T17:22:33.765Z</time>
      </trkpt>
      <trkpt lat="43.32645" lon="-1.03623">
        <ele>54.07032</ele>
        <time>2022-07-19T17:22:44.924Z</time>
      </trkpt>
      <trkpt lat="43.32629" lon="-1.03569">
        <ele>53.648016</ele>
        <time>2022-07-19T17:22:52.015Z</time>
      </trkpt>
      <trkpt lat="43.3263" lon="-1.03557">
        <ele>53.560418</ele>
        <time>2022-07-19T17:22:53.471Z</time>
      </trkpt>
      <trkpt lat="43.32657" lon="-1.03541">
        <ele>53.264562</ele>
        <time>2022-07-19T17:22:58.192Z</time>
      </trkpt>
      <trkpt lat="43.32661" lon="-1.03539">
        <ele>53.219222</ele>
        <time>2022-07-19T17:22:58.942Z</time>
      </trkpt>
      <trkpt lat="43.32668" lon="-1.03535">
        <ele>53.143744</ele>
        <time>2022-07-19T17:23:00.196Z</time>
      </trkpt>
      <trkpt lat="43.32676" lon="-1.03531">
        <ele>53.054646</ele>
        <time>2022-07-19T17:23:01.662Z</time>
      </trkpt>
      <trkpt lat="43.32661" lon="-1.03494">
        <ele>52.882166</ele>
        <time>2022-07-19T17:23:06.440Z</time>
      </trkpt>
      <trkpt lat="43.32659" lon="-1.0349">
        <ele>52.882166</ele>
        <time>2022-07-19T17:23:06.952Z</time>
      </trkpt>
      <trkpt lat="43.32652" lon="-1.03473">
        <ele>52.882166</ele>
        <time>2022-07-19T17:23:09.146Z</time>
      </trkpt>
      <trkpt lat="43.32641" lon="-1.03449">
        <ele>52.882166</ele>
        <time>2022-07-19T17:23:12.251Z</time>
      </trkpt>
      <trkpt lat="43.32645" lon="-1.03444">
        <ele>52.882166</ele>
        <time>2022-07-19T17:23:13.117Z</time>
      </trkpt>
      <trkpt lat="43.32683" lon="-1.03398">
        <ele>52.882166</ele>
        <time>2022-07-19T17:23:20.386Z</time>
      </trkpt>
      <trkpt lat="43.32704" lon="-1.03369">
        <ele>52.882166</ele>
        <time>2022-07-19T17:23:24.747Z</time>
      </trkpt>
      <trkpt lat="43.32725" lon="-1.03342">
        <ele>52.882166</ele>
        <time>2022-07-19T17:23:28.843Z</time>
      </trkpt>
      <trkpt lat="43.32729" lon="-1.03336">
        <ele>52.882166</ele>
        <time>2022-07-19T17:23:29.788Z</time>
      </trkpt>
      <trkpt lat="43.32744" lon="-1.03318">
        <ele>52.882166</ele>
        <time>2022-07-19T17:23:32.602Z</time>
      </trkpt>
      <trkpt lat="43.32746" lon="-1.03295">
        <ele>52.882166</ele>
        <time>2022-07-19T17:23:35.064Z</time>
      </trkpt>
      <trkpt lat="43.32732" lon="-1.0327">
        <ele>52.882166</ele>
        <time>2022-07-19T17:23:38.454Z</time>
      </trkpt>
      <trkpt lat="43.32723" lon="-1.03254">
        <ele>52.882166</ele>
        <time>2022-07-19T17:23:40.618Z</time>
      </trkpt>
      <trkpt lat="43.32717" lon="-1.03244">
        <ele>52.882166</ele>
        <time>2022-07-19T17:23:42.015Z</time>
      </trkpt>
      <trkpt lat="43.32715" lon="-1.0324">
        <ele>52.882166</ele>
        <time>2022-07-19T17:23:42.525Z</time>
      </trkpt>
    </trkseg>
  </trk>
</gpx>